Temp     Hi    Low   Out    Dew  Wind  Wind   Wind    Hi    Hi   Wind   Heat    THW   THSW                Rain  Solar   Solar Hi Solar   UV    UV    Hi     Heat    Cool    In     In    In     In           Wind  Wind    ISS   Arc.
  Date    Time     Out   Temp   Temp   Hum    Pt. Speed   Dir    Run Speed   Dir  Chill  Index  Index  Index   Bar    Rain  Rate   Rad.  Energy    Rad.  Index  Dose   UV     D-D     D-D    Temp   Hum    Dew   Heat     ET   Samp   Tx   Recept  Int.
---------------------------------------------------------------------------------------------------------------------------------------------------------------------------------------------------------------------------------------------------------
 9/07/19   0.15   25.1   25.2   25.0    79   21.2   0.0     W   0.00   1.6     W   25.1   26.7   26.7   25.6   964.9  0.00   0.0     0     0.00      0     0.0  0.00   0.0   0.000   0.070   29.9    66   22.8   34.1    0.00   347    1    100.0   15 
 9/07/19   0.30   25.3   25.3   25.0    80   21.6   0.0   ---   0.00   0.0   ---   25.3   27.1   27.1   26.0   964.9  0.00   0.0     0     0.00      0     0.0  0.00   0.0   0.000   0.072   29.7    65   22.4   33.3    0.00   351    1    100.0   15 
 9/07/19   0.45   25.3   25.3   25.2    81   21.8   0.0   ---   0.00   0.0   ---   25.3   27.1   27.1   26.1   964.9  0.00   0.0     0     0.00      0     0.0  0.00   0.0   0.000   0.072   29.4    66   22.4   33.1    0.00   350    1    100.0   15 
 9/07/19   1.00   24.9   25.3   24.8    79   21.0   0.0   ---   0.00   0.0   ---   24.9   26.6   26.6   25.5   964.9  0.00   0.0     0     0.00      0     0.0  0.00   0.0   0.000   0.069   29.3    66   22.3   32.8    0.03   352    1    100.0   15 
 9/07/19   1.15   25.1   25.1   24.9    80   21.4   0.0   ---   0.00   0.0   ---   25.1   26.7   26.7   25.7   964.9  0.00   0.0     0     0.00      0     0.0  0.00   0.0   0.000   0.070   29.2    66   22.2   32.6    0.00   350    1    100.0   15 
 9/07/19   1.30   25.1   25.1   25.1    80   21.4   0.0   ---   0.00   0.0   ---   25.1   26.8   26.8   25.8   964.9  0.00   0.0     0     0.00      0     0.0  0.00   0.0   0.000   0.071   29.1    67   22.4   32.6    0.00   351    1    100.0   15 
 9/07/19   1.45   25.2   25.2   25.1    81   21.7   0.0   ---   0.00   0.0   ---   25.2   26.9   26.9   25.9   964.9  0.00   0.0     0     0.00      0     0.0  0.00   0.0   0.000   0.071   29.0    67   22.2   32.4    0.00   350    1    100.0   15 
 9/07/19   2.00   25.3   25.3   25.2    81   21.8   0.0   ---   0.00   0.0   ---   25.3   27.1   27.1   26.1   964.9  0.00   0.0     0     0.00      0     0.0  0.00   0.0   0.000   0.072   29.0    68   22.5   32.6    0.03   352    1    100.0   15 
 9/07/19   2.15   25.1   25.3   25.1    82   21.8   0.0   ---   0.00   0.0   ---   25.1   26.9   26.9   25.9   964.9  0.00   0.0     0     0.00      0     0.0  0.00   0.0   0.000   0.071   29.1    68   22.6   32.8    0.00   350    1    100.0   15 
 9/07/19   2.30   25.3   25.3   25.1    83   22.2   0.0   ---   0.00   0.0   ---   25.3   27.3   27.3   26.4   964.9  0.00   0.0     0     0.00      0     0.0  0.00   0.0   0.000   0.073   29.2    68   22.7   33.0    0.00   351    1    100.0   15 
 9/07/19   2.45   26.4   26.4   25.3    84   23.5   0.0     W   0.00   3.2     W   26.4   29.1   29.1   28.2   964.9  0.00   0.0     0     0.00      0     0.0  0.00   0.0   0.000   0.084   29.2    68   22.7   33.0    0.00   351    1    100.0   15 
 9/07/19   3.00   26.7   26.7   26.4    84   23.8   0.0     W   0.00   1.6     W   26.7   29.8   29.8   28.9   964.9  0.00   0.0     0     0.00      0     0.0  0.00   0.0   0.000   0.087   29.2    70   23.2   33.4    0.03   351    1    100.0   15 
 9/07/19   3.15   26.9   26.9   26.7    85   24.2   0.0   ---   0.00   0.0   ---   26.9   30.3   30.3   29.4   964.9  0.00   0.0     0     0.00      0     0.0  0.00   0.0   0.000   0.089   29.2    71   23.4   33.6    0.00   350    1    100.0   15 
 9/07/19   3.30   27.0   27.0   26.8    85   24.3   0.0     W   0.00   1.6     W   27.0   30.5   30.5   29.7   964.9  0.00   0.0     0     0.00      0     0.0  0.00   0.0   0.000   0.090   29.2    72   23.7   33.8    0.00   351    1    100.0   15 
 9/07/19   3.45   27.1   27.1   27.0    85   24.4   0.0   ---   0.00   0.0   ---   27.1   30.8   30.8   29.9   964.9  0.00   0.0     0     0.00      0     0.0  0.00   0.0   0.000   0.091   29.2    73   23.9   33.9    0.00   350    1    100.0   15 
 9/07/19   4.00   27.2   27.2   27.1    85   24.4   0.0   ---   0.00   0.0   ---   27.2   30.9   30.9   30.1   964.9  0.00   0.0     0     0.00      0     0.0  0.00   0.0   0.000   0.092   29.2    74   24.1   34.2    0.03   351    1    100.0   15 
 9/07/19   4.15   26.1   27.2   26.1    85   23.3   0.0   ---   0.00   0.0   ---   26.1   28.6   28.6   27.7   964.9  0.00   0.0     0     0.00      0     0.0  0.00   0.0   0.000   0.080   29.2    74   24.1   34.2    0.00   351    1    100.0   15 
 9/07/19   4.30   25.4   26.1   25.4    85   22.7   0.0     W   0.00   1.6     W   25.4   27.7   27.7   26.7   964.9  0.00   0.0     0     0.00      0     0.0  0.00   0.0   0.000   0.074   29.2    74   24.1   34.2    0.00   350    1    100.0   15 
 9/07/19   4.45   26.2   26.2   25.4    85   23.4   0.0   ---   0.00   0.0   ---   26.2   28.8   28.8   27.9   964.9  0.00   0.0     0     0.00      0     0.0  0.00   0.0   0.000   0.082   29.2    73   23.9   33.9    0.00   351    1    100.0   15 
 9/07/19   5.00   25.9   26.3   25.8    85   23.2   0.0   ---   0.00   0.0   ---   25.9   28.4   28.4   27.4   964.9  0.00   0.0     0     0.00      0     0.0  0.00   0.0   0.000   0.079   29.2    73   23.9   33.9    0.03   350    1    100.0   15 
 9/07/19   5.15   25.8   26.2   25.8    85   23.1   0.0   ---   0.00   0.0   ---   25.8   28.3   28.3   27.3   964.9  0.00   0.0     0     0.00      0     0.0  0.00   0.0   0.000   0.078   29.1    73   23.8   33.8    0.00   351    1    100.0   15 
 9/07/19   5.30   26.1   26.1   25.8    85   23.4   0.0   ---   0.00   0.0   ---   26.1   28.7   28.7   27.8   964.9  0.00   0.0     0     0.00      0     0.0  0.00   0.0   0.000   0.081   29.1    73   23.8   33.8    0.00   351    1    100.0   15 
 9/07/19   5.45   26.4   26.4   26.1    86   23.9   0.0   ---   0.00   0.0   ---   26.4   29.4   29.4   28.5   964.9  0.00   0.0     0     0.00      0     0.0  0.00   0.0   0.000   0.084   29.1    74   24.0   33.9    0.00   351    1    100.0   15 
 9/07/19   6.00   26.5   26.6   26.4    86   24.0   0.0   ---   0.00   0.0   ---   26.5   29.6   29.6   28.8   964.9  0.00   0.0     0     0.00      0     0.0  0.00   0.0   0.000   0.085   29.1    74   24.0   33.9    0.00   349    1    100.0   15 
 9/07/19   6.15   26.7   26.7   26.3    86   24.1   0.0     W   0.00   1.6     W   26.7   29.9   29.9   29.1   964.9  0.00   0.0     7     0.15     12     0.0  0.00   0.0   0.000   0.087   29.0    75   24.1   33.9    0.00   351    1    100.0   15 
 9/07/19   6.30   27.1   27.1   26.7    86   24.6   0.0     W   0.00   9.7     W   27.1   30.9   30.9   30.2   964.9  0.00   0.0    13     0.28     14     0.0  0.00   0.0   0.000   0.091   29.0    76   24.3   34.1    0.00   352    1    100.0   15 
 9/07/19   6.45   27.2   27.2   27.1    86   24.7   0.0     W   0.00   1.6     W   27.2   31.2   31.2   30.6   964.9  0.00   0.0    19     0.41     32     0.0  0.00   0.0   0.000   0.093   29.0    77   24.6   34.3    0.00   351    1    100.0   15 
 9/07/19   7.00   27.3   27.3   27.2    86   24.7   0.0     W   0.00   3.2     W   27.3   31.3   31.3   31.8   964.9  0.00   0.0    40     0.86     65     0.0  0.00   0.0   0.000   0.093   29.1    78   24.9   34.7    0.03   351    1    100.0   15 
 9/07/19   7.15   27.3   27.4   27.3    85   24.6   0.0     W   0.00   4.8     W   27.3   31.3   31.3   32.8   964.9  0.00   0.0    82     1.76     98     0.0  0.00   0.0   0.000   0.094   29.1    77   24.7   34.6    0.00   351    1    100.0   15 
 9/07/19   7.30   27.7   27.7   27.3    85   24.9   0.0     W   0.00   8.0     W   27.7   32.2   32.2   35.4   964.9  0.00   0.0   159     3.42    223     0.0  0.00   0.0   0.000   0.097   29.2    77   24.8   34.8    0.00   351    1    100.0   15 
 9/07/19   7.45   27.7   27.8   27.6    84   24.7   1.6     W   0.40  11.3     W   27.7   32.0   32.0   34.5   964.9  0.00   0.0   132     2.84    200     0.0  0.00   0.0   0.000   0.097   29.2    78   25.0   34.9    0.00   349    1    100.0   15 
 9/07/19   8.00   27.4   27.8   27.4    85   24.6   4.8   WSW   1.21  14.5   WSW   27.4   31.4   31.4   31.9   964.9  0.00   0.0    48     1.03     72     0.0  0.00   0.0   0.000   0.094   29.3    78   25.1   35.2    0.08   349    1    100.0   15 
 9/07/19   8.15   27.1   27.3   27.1    85   24.4   4.8    SW   1.21  14.5    SW   27.1   30.8   30.8   31.1   964.9  0.00   0.0    42     0.90     46     0.0  0.00   0.0   0.000   0.091   29.2    78   25.0   34.9    0.00   349    1    100.0   15 
 9/07/19   8.30   27.2   27.2   27.1    85   24.4   4.8    SW   1.21  11.3    SW   27.2   30.9   30.9   31.1   964.9  0.00   0.0    39     0.84     44     0.0  0.00   0.0   0.000   0.092   29.2    78   25.0   34.9    0.00   352    1    100.0   15 
 9/07/19   8.45   27.2   27.2   27.1    85   24.4   3.2    SW   0.80  11.3    SW   27.2   30.9   30.9   30.9   964.9  0.00   0.0    35     0.75     42     0.0  0.00   0.0   0.000   0.092   29.2    78   25.0   34.9    0.00   351    1    100.0   15 
 9/07/19   9.00   27.2   27.2   27.1    85   24.4   3.2    SE   0.80  17.7   SSE   27.2   30.9   30.9   31.2   964.9  0.00   0.0    50     1.08     79     0.0  0.00   0.0   0.000   0.092   29.2    78   25.0   34.9    0.05   351    1    100.0   15 
 9/07/19   9.15   27.3   27.3   27.2    85   24.5   1.6   SSE   0.40  14.5   SSE   27.3   31.2   31.2   31.7   964.9  0.00   0.0    64     1.38     74     0.0  0.00   0.0   0.000   0.093   29.2    78   25.0   34.9    0.00   351    1    100.0   15 
 9/07/19   9.30   27.2   27.3   27.2    85   24.5   1.6   SSE   0.40  11.3   SSE   27.2   31.0   31.0   31.4   964.9  0.00   0.0    59     1.27    100     0.0  0.00   0.0   0.000   0.093   29.3    78   25.1   35.2    0.00   349    1    100.0   15 
 9/07/19   9.45   27.4   27.4   27.2    85   24.7   0.0   SSE   0.00   6.4   SSE   27.4   31.6   31.6   33.2   964.9  0.00   0.0   138     2.97    276     0.0  0.00   0.0   0.000   0.095   29.4    78   25.2   35.4    0.00   350    1    100.0   15 
 9/07/19  10.00   27.8   27.8   27.4    85   25.0   0.0   SSE   0.00   9.7   SSE   27.8   32.4   32.4   35.0   964.9  0.00   0.0   203     4.37    334     0.0  0.00   0.0   0.000   0.098   29.6    78   25.3   35.7    0.08   351    1    100.0   15 
 9/07/19  10.15   27.8   27.9   27.8    85   25.0   1.6   SSE   0.40   9.7   SSE   27.8   32.4   32.4   34.6   964.9  0.00   0.0   181     3.89    274     0.0  0.00   0.0   0.000   0.098   29.7    78   25.4   35.9    0.00   351    1    100.0   15 
 9/07/19  10.30   27.7   27.8   27.7    85   25.0   1.6   SSE   0.40   9.7   SSE   27.7   32.3   32.3   34.2   964.9  0.00   0.0   171     3.68    200     0.0  0.00   0.0   0.000   0.098   29.7    78   25.4   35.9    0.00   351    1    100.0   15 
 9/07/19  10.45   28.0   28.0   27.7    85   25.2   0.0   SSE   0.00   8.0   SSE   28.0   33.1   33.1   35.2   964.9  0.00   0.0   186     4.00    218     0.0  0.00   0.0   0.000   0.101   29.7    78   25.4   35.9    0.00   347    1    100.0   15 
 9/07/19  11.00   27.8   28.0   27.8    85   25.1   3.2   SSE   0.80  16.1   SSE   27.8   32.6   32.6   34.9   964.9  0.00   0.0   200     4.30    221     0.0  0.00   0.0   0.000   0.099   29.8    79   25.7   36.4    0.13   349    1    100.0   15 
 9/07/19  11.15   28.0   28.0   27.8    86   25.4   3.2   SSE   0.80  16.1   SSE   28.0   33.2   33.2   35.5   964.9  0.00   0.0   205     4.41    223     0.0  0.00   0.0   0.000   0.101   29.8    80   26.0   36.6    0.00   350    1    100.0   15 
 9/07/19  11.30   28.2   28.2   28.0    86   25.6   1.6   SSE   0.40  12.9   SSE   28.2   33.7   33.7   37.3   964.9  0.00   0.0   309     6.64    371     0.1  0.01   0.6   0.000   0.102   29.9    80   26.1   36.8    0.00   351    1    100.0   15 
 9/07/19  11.45   28.7   28.7   28.2    84   25.7   1.6   SSE   0.40   9.7   SSE   28.7   34.8   34.8   40.1   964.9  0.00   0.0   476    10.24    640     1.2  0.13   2.1   0.000   0.108   30.0    79   26.0   36.9    0.00   350    1    100.0   15 
 9/07/19  12.00   29.3   29.3   28.6    82   25.9   3.2   SSE   0.80  11.3   SSE   29.3   36.0   36.0   43.1   964.9  0.00   0.0   785    16.88    846     3.1  0.33   3.5   0.000   0.115   30.2    78   26.0   37.4    0.30   351    1    100.0   15 
 9/07/19  12.15   29.6   29.7   29.3    80   25.8   1.6   SSE   0.40   9.7   SSE   29.6   36.2   36.2   43.2   964.9  0.00   0.0   832    17.89    838     3.6  0.39   3.8   0.000   0.117   30.6    77   26.1   38.1    0.00   351    1    100.0   15 
 9/07/19  12.30   29.7   29.8   29.6    79   25.7   3.2   SSE   0.80  14.5   SSE   29.7   36.2   36.2   43.3   964.9  0.00   0.0   847    18.21    858     3.9  0.42   4.0   0.000   0.119   30.8    76   26.1   38.3    0.00   349    1    100.0   15 
 9/07/19  12.45   30.1   30.1   29.6    77   25.6   8.0   SSE   2.01  17.7   SSE   30.1   36.7   36.7   43.7   964.9  0.00   0.0   861    18.51    867     4.1  0.44   4.2   0.000   0.122   31.0    74   25.8   38.1    0.00   348    1    100.0   15 
 9/07/19  13.00   30.0   30.1   29.8    78   25.7   8.0   SSE   2.01  17.7   SSE   30.0   36.7   36.7   43.8   964.9  0.00   0.0   866    18.62    870     4.2  0.45   4.2   0.000   0.122   31.4    75   26.4   39.7    0.58   348    1    100.0   15 
 9/07/19  13.15   29.8   30.0   29.7    78   25.6   8.0   SSE   2.01  19.3   SSE   29.8   36.3   36.3   43.4   964.9  0.00   0.0   862    18.54    881     4.2  0.45   4.3   0.000   0.120   31.6    74   26.4   40.3    0.00   351    1    100.0   15 
 9/07/19  13.30   30.1   30.9   29.8    77   25.6   6.4   SSE   1.61  22.5   SSE   30.1   36.7   36.7   43.7   964.9  0.00   0.0   868    18.66    877     4.2  0.45   4.2   0.000   0.122   31.8    74   26.6   41.1    0.00   351    1    100.0   15 
 9/07/19  13.45   30.0   30.1   29.7    74   24.9   8.0   SSE   2.01  17.7   SSE   30.0   35.9   35.9   42.9   964.9  0.00   0.0   864    18.58    879     4.0  0.43   4.2   0.000   0.122   31.8    70   25.7   39.7    0.00   351    1    100.0   15 
 9/07/19  14.00   30.4   30.6   30.0    71   24.6   6.4   SSE   1.61  14.5   SSE   30.4   36.4   36.4   43.4   964.9  0.00   0.0   852    18.32    863     4.0  0.43   4.0   0.000   0.126   32.1    69   25.7   40.1    0.58   352    1    100.0   15 
 9/07/19  14.15   31.4   31.4   30.4    65   24.0   3.2   SSE   0.80  14.5   SSE   31.4   36.8   36.8   43.7   964.9  0.00   0.0   849    18.26    853     3.9  0.42   3.9   0.000   0.136   32.3    67   25.4   40.3    0.00   349    1    100.0   15 
 9/07/19  14.30   31.7   31.7   31.0    54   21.2   4.8   SSE   1.21  17.7     S   31.7   35.1   35.1   41.8   964.9  0.00   0.0   840    18.06    844     3.7  0.40   3.8   0.000   0.139   32.4    60   23.7   38.2    0.00   341    1     99.7   15 
 9/07/19  14.45   32.7   32.7   31.6    53   21.8   3.2     S   0.80  14.5     S   32.7   36.8   36.8   43.6   964.9  0.00   0.0   829    17.83    835     3.4  0.36   3.6   0.000   0.149   32.6    58   23.2   37.9    0.00   336    1     98.2   15 
 9/07/19  15.00   31.8   32.7   31.8    50   20.1   8.0   SSW   2.01  25.7   SSW   31.8   34.4   34.4   41.1   964.9  0.00   0.0   810    17.42    821     3.2  0.34   3.3   0.000   0.140   32.8    55   22.5   37.6    0.61   309    1     90.4   15 
 9/07/19  15.15   32.5   32.6   31.7    47   19.7   3.2   SSW   0.80  19.3   SSW   32.5   35.0   35.0   41.6   964.9  0.00   0.0   789    16.97    798     2.8  0.30   3.0   0.000   0.148   32.8    52   21.6   36.7    0.00   323    1     94.4   15 
 9/07/19  15.30   32.4   32.7   32.4    46   19.3   4.8   SSW   1.21  19.3   SSW   32.4   34.7   34.7   41.2   964.9  0.00   0.0   770    16.56    777     2.6  0.28   2.7   0.000   0.147   32.9    49   20.8   36.2    0.00   335    1     98.0   15 
 9/07/19  15.45   32.2   32.6   32.1    50   20.4   4.8   SSW   1.21  19.3   SSW   32.2   35.0   35.0   41.6   964.9  0.00   0.0   746    16.04    763     2.3  0.25   2.4   0.000   0.144   32.9    50   21.1   36.4    0.00   341    1     99.7   15 
 9/07/19  16.00   31.9   32.1   31.6    51   20.5   6.4   SSW   1.61  25.7   SSW   31.9   34.9   34.9   41.4   964.9  0.00   0.0   726    15.61    733     2.0  0.21   2.1   0.000   0.142   33.1    51   21.6   37.1    0.56   341    1     99.7   15 
 9/07/19  16.15   32.1   32.3   31.7    53   21.3   1.6    SW   0.40  19.3    SW   32.1   35.6   35.6   42.1   964.9  0.00   0.0   650    13.98    749     1.5  0.16   1.8   0.000   0.143   33.1    52   21.9   37.3    0.00   348    1    100.0   15 
 9/07/19  16.30   31.1   32.1   31.1    53   20.4   3.2   SSW   0.80  17.7   SSW   31.1   33.5   33.5   37.0   964.9  0.00   0.0   298     6.41    369     1.0  0.11   1.6   0.000   0.133   33.1    53   22.2   37.7    0.00   351    1    100.0   15 
 9/07/19  16.45   30.6   31.1   30.6    59   21.6   3.2   SSW   0.80  19.3   SSW   30.6   34.0   34.0   36.4   964.9  0.00   0.0   203     4.37    239     0.0  0.00   0.5   0.000   0.127   32.7    54   22.1   37.1    0.00   349    1    100.0   15 
 9/07/19  17.00   30.2   30.7   30.2    61   21.9   0.0   SSW   0.00   9.7   SSW   30.2   33.7   33.7   35.5   964.9  0.00   0.0   155     3.33    169     0.0  0.00   0.0   0.000   0.124   32.4    55   22.2   36.8    0.28   351    1    100.0   15 
 9/07/19  17.15   30.3   30.5   30.2    61   21.9   1.6   SSW   0.40   9.7   SSW   30.3   33.8   33.8   35.4   964.9  0.00   0.0   135     2.90    160     0.0  0.00   0.0   0.000   0.124   32.2    56   22.3   36.5    0.00   352    1    100.0   15 
 9/07/19  17.30   30.1   30.4   30.1    59   21.2   4.8   SSW   1.21  20.9   SSW   30.1   32.9   32.9   35.9   964.9  0.00   0.0   218     4.69    248     0.0  0.00   0.0   0.000   0.122   32.2    56   22.3   36.5    0.00   350    1    100.0   15 
 9/07/19  17.45   30.3   30.4   30.1    61   21.9   6.4   SSW   1.61  22.5   SSW   30.3   33.8   33.8   38.7   964.9  0.00   0.0   337     7.25    490     0.0  0.00   0.0   0.000   0.124   32.1    57   22.5   36.5    0.00   350    1    100.0   15 
 9/07/19  18.00   30.3   30.6   30.2    59   21.4   6.4   SSW   1.61  27.4     S   30.3   33.4   33.4   39.3   964.9  0.00   0.0   410     8.82    439     0.0  0.00   0.0   0.000   0.124   32.1    56   22.2   36.2    0.23   351    1    100.0   15 
 9/07/19  18.15   30.2   30.7   30.2    61   21.9   6.4   SSW   1.61  25.7   SSW   30.2   33.7   33.7   39.4   964.9  0.00   0.0   379     8.15    403     0.0  0.00   0.0   0.000   0.124   31.9    57   22.4   36.3    0.00   350    1    100.0   15 
 9/07/19  18.30   30.4   30.4   30.0    61   22.0   4.8    SW   1.21  27.4    SW   30.4   34.1   34.1   39.4   964.9  0.00   0.0   330     7.10    352     0.0  0.00   0.0   0.000   0.126   31.9    57   22.4   36.3    0.00   350    1    100.0   15 
 9/07/19  18.45   29.8   30.4   29.8    62   21.8   4.8   SSW   1.21  20.9   SSW   29.8   33.1   33.1   38.1   964.9  0.00   0.0   288     6.19    309     0.0  0.00   0.0   0.000   0.120   31.8    57   22.3   36.0    0.00   351    1    100.0   15 
 9/07/19  19.00   29.8   30.0   29.7    61   21.4   6.4     S   1.61  25.7   SSW   29.8   32.8   32.8   37.2   964.9  0.00   0.0   246     5.29    265     0.0  0.00   0.0   0.000   0.119   31.7    56   21.9   35.6    0.25   350    1    100.0   15 
 9/07/19  19.15   29.9   29.9   29.6    61   21.6   4.8   SSW   1.21  19.3     S   29.9   33.1   33.1   36.8   964.9  0.00   0.0   203     4.37    223     0.0  0.00   0.0   0.000   0.120   31.6    57   22.1   35.5    0.00   351    1    100.0   15 
 9/07/19  19.30   29.6   29.9   29.6    64   22.0   1.6     S   0.40  16.1     S   29.6   32.9   32.9   35.9   964.9  0.00   0.0   162     3.48    183     0.0  0.00   0.0   0.000   0.117   31.5    58   22.2   35.4    0.00   351    1    100.0   15 
 9/07/19  19.45   29.2   29.6   29.2    67   22.4   0.0     S   0.00   9.7     S   29.2   32.7   32.7   34.8   964.9  0.00   0.0   118     2.54    139     0.0  0.00   0.0   0.000   0.113   31.5    60   22.8   35.9    0.00   351    1    100.0   15 
 9/07/19  20.00   28.8   29.2   28.8    69   22.6   1.6     S   0.40   8.0     S   28.8   32.4   32.4   32.3   964.9  0.00   0.0    71     1.53     97     0.0  0.00   0.0   0.000   0.109   31.4    61   23.0   35.8    0.10   351    1    100.0   15 
 9/07/19  20.15   28.8   28.9   28.7    70   22.8   0.0     S   0.00  11.3     S   28.8   32.4   32.4   32.0   964.9  0.00   0.0    44     0.95     51     0.0  0.00   0.0   0.000   0.109   31.4    62   23.2   36.1    0.00   350    1    100.0   15 
 9/07/19  20.30   28.7   28.8   28.6    70   22.7   1.6   SSE   0.40  14.5   SSE   28.7   32.2   32.2   31.6   964.9  0.00   0.0    30     0.65     37     0.0  0.00   0.0   0.000   0.108   31.3    62   23.1   35.8    0.00   351    1    100.0   15 
 9/07/19  20.45   28.6   28.7   28.5    69   22.3   0.0   SSE   0.00   9.7   SSE   28.6   31.7   31.7   30.9   964.9  0.00   0.0    17     0.37     23     0.0  0.00   0.0   0.000   0.106   31.2    62   23.0   35.5    0.00   350    1    100.0   15 
 9/07/19  21.00   28.5   28.6   28.5    67   21.8   1.6    SE   0.40  14.5    SE   28.5   31.2   31.2   30.3   964.9  0.00   0.0     4     0.09     11     0.0  0.00   0.0   0.000   0.106   31.2    61   22.8   35.3    0.03   351    1    100.0   15 
 9/07/19  21.15   28.5   28.6   28.4    69   22.3   1.6    SE   0.40  17.7    SE   28.5   31.6   31.6   30.6   964.9  0.00   0.0     0     0.00      0     0.0  0.00   0.0   0.000   0.106   31.0    61   22.6   35.0    0.00   351    1    100.0   15 
 9/07/19  21.30   28.3   28.5   28.3    67   21.6   1.6    SE   0.40  12.9    SE   28.3   30.8   30.8   29.8   964.9  0.00   0.0     0     0.00      0     0.0  0.00   0.0   0.000   0.104   31.0    62   22.9   35.2    0.00   351    1    100.0   15 
 9/07/19  21.45   28.2   28.3   28.2    67   21.5   1.6    SE   0.40   9.7    SE   28.2   30.6   30.6   29.6   964.9  0.00   0.0     0     0.00      0     0.0  0.00   0.0   0.000   0.103   31.0    61   22.6   35.0    0.00   349    1    100.0   15 
 9/07/19  22.00   28.4   28.4   28.2    68   21.9   4.8    SE   1.21  17.7    SE   28.4   31.1   31.1   30.1   964.9  0.00   0.0     0     0.00      0     0.0  0.00   0.0   0.000   0.105   30.9    61   22.5   34.9    0.03   350    1    100.0   15 
 9/07/19  22.15   28.4   28.4   28.3    68   21.9   3.2   ESE   0.80  17.7   SSE   28.4   31.1   31.1   30.1   964.9  0.00   0.0     0     0.00      0     0.0  0.00   0.0   0.000   0.105   30.9    61   22.5   34.9    0.00   350    1    100.0   15 
 9/07/19  22.30   28.3   28.4   28.3    69   22.0   6.4    SE   1.61  19.3   ESE   28.3   31.1   31.1   30.1   964.9  0.00   0.0     0     0.00      0     0.0  0.00   0.0   0.000   0.104   30.8    62   22.7   34.9    0.00   351    1    100.0   15 
 9/07/19  22.45   28.2   28.3   28.2    71   22.5   6.4   ESE   1.61  20.9    SE   28.2   31.3   31.3   30.3   964.9  0.00   0.0     0     0.00      0     0.0  0.00   0.0   0.000   0.103   30.8    63   22.9   35.2    0.00   347    1    100.0   15 
 9/07/19  23.00   28.2   28.3   28.2    73   22.9   4.8    SE   1.21  19.3    SE   28.2   31.5   31.5   30.6   964.9  0.00   0.0     0     0.00      0     0.0  0.00   0.0   0.000   0.102   30.7    64   23.1   35.2    0.05   349    1    100.0   15 
 9/07/19  23.15   28.0   28.2   28.0    74   22.9   1.6    SE   0.40   9.7    SE   28.0   31.3   31.3   30.3   964.9  0.00   0.0     0     0.00      0     0.0  0.00   0.0   0.000   0.101   30.7    65   23.3   35.4    0.00   350    1    100.0   15 
 9/07/19  23.30   27.9   28.0   27.9    75   23.0   1.6   ESE   0.40  19.3     E   27.9   31.1   31.1   30.2   964.9  0.00   0.0     0     0.00      0     0.0  0.00   0.0   0.000   0.100   30.7    65   23.3   35.4    0.00   352    1    100.0   15 
 9/07/19  23.45   27.8   27.9   27.8    76   23.2   4.8   ESE   1.21  19.3   ESE   27.8   31.1   31.1   30.2   964.9  0.00   0.0     0     0.00      0     0.0  0.00   0.0   0.000   0.099   30.6    66   23.5   35.6    0.00   347    1    100.0   15 
10/07/19  00.00   27.8   27.8   27.7    77   23.4   4.8    SE   1.21  19.3    SE   27.8   31.2   31.2   30.3   964.9  0.00   0.0     0     0.00      0     0.0  0.00   0.0   0.000   0.098   30.6    67   23.7   35.8    0.03   349    1    100.0   15 
10/07/19   0.15   27.8   27.8   27.7    78   23.6   4.8    SE   1.21  19.3    SE   27.8   31.3   31.3   30.4   964.9  0.00   0.0     0     0.00      0     0.0  0.00   0.0   0.000   0.098   30.3    68   23.8   35.5    0.00   348    1    100.0   15 
10/07/19   0.30   27.7   27.8   27.7    78   23.5   4.8   ESE   1.21  22.5     E   27.7   31.1   31.1   30.2   964.9  0.00   0.0     0     0.00      0     0.0  0.00   0.0   0.000   0.097   30.3    69   24.0   35.7    0.00   346    1    100.0   15 
10/07/19   0.45   27.7   27.7   27.7    79   23.7   4.8    SE   1.21  17.7    SE   27.7   31.2   31.2   30.3   964.9  0.00   0.0     0     0.00      0     0.0  0.00   0.0   0.000   0.097   30.3    69   24.0   35.7    0.00   337    1     98.5   15 
10/07/19   1.00   27.6   27.7   27.6    79   23.6   1.6   ESE   0.40  14.5   ESE   27.6   30.9   30.9   30.1   964.9  0.00   0.0     0     0.00      0     0.0  0.00   0.0   0.000   0.096   30.3    69   24.0   35.7    0.03   352    1    100.0   15 
10/07/19   1.15   27.5   27.6   27.5    80   23.7   1.6   ESE   0.40  12.9   ESE   27.5   30.9   30.9   30.1   964.9  0.00   0.0     0     0.00      0     0.0  0.00   0.0   0.000   0.095   30.4    69   24.1   35.9    0.00   351    1    100.0   15 
10/07/19   1.30   27.4   27.5   27.4    80   23.7   1.6   ESE   0.40   9.7   ESE   27.4   30.8   30.8   29.9   964.9  0.00   0.0     0     0.00      0     0.0  0.00   0.0   0.000   0.095   30.4    69   24.1   35.9    0.00   350    1    100.0   15 
10/07/19   1.45   27.3   27.4   27.3    81   23.8   0.0     E   0.00  11.3     E   27.3   30.7   30.7   29.8   964.9  0.00   0.0     0     0.00      0     0.0  0.00   0.0   0.000   0.094   30.4    69   24.1   35.9    0.00   351    1    100.0   15 
10/07/19   2.00   27.1   27.3   27.1    82   23.8   0.0     E   0.00   6.4     E   27.1   30.3   30.3   29.4   964.9  0.00   0.0     0     0.00      0     0.0  0.00   0.0   0.000   0.091   30.4    69   24.1   35.9    0.03   352    1    100.0   15 
10/07/19   2.15   26.9   27.2   26.9    82   23.6   0.0     E   0.00   1.6     E   26.9   30.0   30.0   29.1   964.9  0.00   0.0     0     0.00      0     0.0  0.00   0.0   0.000   0.090   30.4    70   24.4   36.2    0.00   349    1    100.0   15 
10/07/19   2.30   27.0   27.0   26.8    82   23.7   0.0     E   0.00   6.4     E   27.0   30.1   30.1   29.2   964.9  0.00   0.0     0     0.00      0     0.0  0.00   0.0   0.000   0.090   30.4    70   24.4   36.2    0.00   351    1    100.0   15 
10/07/19   2.45   26.8   27.1   26.8    82   23.5   0.0   ---   0.00   0.0   ---   26.8   29.8   29.8   28.9   964.9  0.00   0.0     0     0.00      0     0.0  0.00   0.0   0.000   0.089   30.3    70   24.2   35.9    0.00   349    1    100.0   15 
10/07/19   3.00   26.3   26.8   26.3    83   23.2   0.0     E   0.00   1.6     E   26.3   28.8   28.8   27.9   964.9  0.00   0.0     0     0.00      0     0.0  0.00   0.0   0.000   0.083   30.3    70   24.2   35.9    0.03   350    1    100.0   15 
10/07/19   3.15   26.7   26.7   26.2    75   21.9   1.6     E   0.40   8.0     E   26.7   28.7   28.7   27.7   964.9  0.00   0.0     0     0.00      0     0.0  0.00   0.0   0.000   0.087   30.3    69   24.0   35.7    0.00   351    1    100.0   15 
10/07/19   3.30   27.2   27.2   26.7    71   21.5   3.2   NNW   0.80  20.9   NNW   27.2   29.2   29.2   28.2   964.9  0.00   0.0     0     0.00      0     0.0  0.00   0.0   0.000   0.093   30.2    67   23.4   35.0    0.00   351    1    100.0   15 
10/07/19   3.45   27.2   27.4   27.2    72   21.7   4.8    NW   1.21  22.5   NNW   27.2   29.3   29.3   28.3   964.9  0.00   0.0     0     0.00      0     0.0  0.00   0.0   0.000   0.093   30.2    65   22.9   34.6    0.00   351    1    100.0   15 
10/07/19   4.00   27.2   27.3   27.1    74   22.1   3.2    NW   0.80  14.5   NNW   27.2   29.4   29.4   28.4   964.9  0.00   0.0     0     0.00      0     0.0  0.00   0.0   0.000   0.092   30.1    65   22.8   34.3    0.03   351    1    100.0   15 
10/07/19   4.15   27.2   27.3   27.1    74   22.1   4.8    NW   1.21  20.9    NW   27.2   29.4   29.4   28.4   964.9  0.00   0.0     0     0.00      0     0.0  0.00   0.0   0.000   0.092   30.1    65   22.8   34.3    0.00   351    1    100.0   15 
10/07/19   4.30   27.3   27.3   27.1    72   21.8  11.3   NNW   2.82  30.6   NNW   27.3   29.6   29.6   28.6   964.9  0.00   0.0     0     0.00      0     0.0  0.00   0.0   0.000   0.094   30.1    65   22.8   34.3    0.00   349    1    100.0   15 
10/07/19   4.45   27.1   27.3   27.1    74   22.1  14.5   NNW   3.62  30.6   NNW   26.6   29.3   28.8   27.9   964.9  0.00   0.0     0     0.00      0     0.0  0.00   0.0   0.000   0.091   30.0    65   22.7   34.1    0.00   349    1    100.0   15 
10/07/19   5.00   27.1   27.1   27.0    75   22.2  14.5   NNW   3.62  30.6   NNW   26.5   29.4   28.8   27.9   964.9  0.00   0.0     0     0.00      0     0.0  0.00   0.0   0.000   0.091   30.0    66   23.0   34.3    0.05   348    1    100.0   15 
10/07/19   5.15   26.9   27.1   26.9    75   22.1  14.5   NNW   3.62  30.6   NNW   26.4   29.2   28.6   27.7   964.9  0.00   0.0     0     0.00      0     0.0  0.00   0.0   0.000   0.090   29.9    66   22.8   34.1    0.00   350    1    100.0   15 
10/07/19   5.30   26.9   26.9   26.9    75   22.1  12.9   NNW   3.22  32.2     N   26.7   29.2   28.9   28.0   964.9  0.00   0.0     0     0.00      0     0.0  0.00   0.0   0.000   0.090   29.9    66   22.8   34.1    0.00   350    1    100.0   15 
10/07/19   5.45   27.1   27.1   26.8    74   22.0  14.5    NW   3.62  32.2   NNW   26.5   29.3   28.7   27.8   964.9  0.00   0.0     0     0.00      0     0.0  0.00   0.0   0.000   0.091   29.8    66   22.7   33.8    0.00   351    1    100.0   15 
10/07/19   6.00   27.1   27.1   27.0    74   22.0  16.1   NNW   4.02  33.8   NNW   26.2   29.3   28.4   27.6   964.9  0.00   0.0     1     0.02      5     0.0  0.00   0.0   0.000   0.091   29.7    66   22.6   33.6    0.05   348    1    100.0   15 
10/07/19   6.15   27.1   27.2   26.9    75   22.3  14.5   NNW   3.62  32.2   NNW   26.6   29.4   28.9   28.1   964.9  0.00   0.0    10     0.22     16     0.0  0.00   0.0   0.000   0.091   29.8    66   22.7   33.8    0.00   349    1    100.0   15 
10/07/19   6.30   27.0   27.1   27.0    76   22.4  11.3   NNW   2.82  33.8   NNW   27.0   29.4   29.4   28.7   964.9  0.00   0.0    25     0.54     39     0.0  0.00   0.0   0.000   0.090   29.7    67   22.9   33.8    0.00   349    1    100.0   15 
10/07/19   6.45   27.1   27.1   26.9    76   22.5   6.4     N   1.61  29.0     N   27.1   29.5   29.5   29.3   964.9  0.00   0.0    68     1.46    102     0.0  0.00   0.0   0.000   0.091   29.6    67   22.8   33.5    0.00   343    1    100.0   15 
10/07/19   7.00   27.1   27.1   27.1    76   22.5   9.7     N   2.41  29.0     N   27.1   29.6   29.6   31.7   964.9  0.00   0.0   113     2.43    127     0.0  0.00   0.0   0.000   0.091   29.6    67   22.8   33.5    0.08   350    1    100.0   15 
10/07/19   7.15   27.1   27.2   27.1    77   22.7  11.3   NNW   2.82  29.0    NW   27.1   29.6   29.6   31.8   964.9  0.00   0.0   115     2.47    132     0.0  0.00   0.0   0.000   0.091   29.7    68   23.1   33.9    0.00   348    1    100.0   15 
10/07/19   7.30   26.9   27.2   26.9    79   22.9  11.3   NNW   2.82  27.4   NNW   26.9   29.5   29.5   31.8   964.9  0.00   0.0   127     2.73    167     0.0  0.00   0.0   0.000   0.089   29.7    69   23.4   34.2    0.00   334    1     97.7   15 
10/07/19   7.45   27.3   27.3   26.9    78   23.2   6.4   NNW   1.61  22.5    NW   27.3   30.3   30.3   34.3   964.9  0.00   0.0   212     4.56    269     0.0  0.00   0.0   0.000   0.094   29.7    69   23.4   34.2    0.00   313    1     91.5   15 
10/07/19   8.00   27.7   27.8   27.3    76   23.1   9.7   NNE   2.41  24.1   NNE   27.7   30.9   30.9   35.8   964.9  0.00   0.0   278     5.98    290     0.0  0.00   0.0   0.000   0.098   29.8    69   23.5   34.4    0.15   340    1     99.4   15 
10/07/19   8.15   28.2   28.2   27.7    72   22.6   8.0   NNE   2.01  22.5   NNE   28.2   31.3   31.3   36.4   964.9  0.00   0.0   306     6.58    325     0.0  0.00   0.0   0.000   0.102   29.8    68   23.2   34.2    0.00   345    1    100.0   15 
10/07/19   8.30   28.8   28.8   28.2    67   22.0   4.8    NW   1.21  17.7    NE   28.8   31.9   31.9   37.3   964.9  0.00   0.0   348     7.48    373     0.0  0.00   0.0   0.000   0.109   29.9    67   23.1   34.3    0.00   350    1    100.0   15 
10/07/19   8.45   29.6   29.6   28.8    60   21.0   4.8   NNW   1.21  17.7     N   29.6   32.2   32.2   37.8   964.9  0.00   0.0   394     8.47    410     0.0  0.00   0.0   0.000   0.117   30.0    63   22.2   33.7    0.00   350    1    100.0   15 
10/07/19   9.00   29.3   29.8   29.3    65   22.1   6.4   SSW   1.61  19.3   NNW   29.3   32.6   32.6   38.4   964.9  0.00   0.0   431     9.27    446     0.0  0.00   0.0   0.000   0.115   30.2    63   22.4   34.2    0.28   342    1    100.0   15 
10/07/19   9.15   29.9   29.9   29.3    61   21.6   1.6    SE   0.40  14.5   SSE   29.9   33.1   33.1   39.1   964.9  0.00   0.0   472    10.15    492     0.2  0.02   0.5   0.000   0.120   30.2    65   22.9   34.6    0.00   333    1     97.4   15 
10/07/19   9.30   29.6   30.1   29.6    66   22.6  11.3   NNW   2.82  33.8   NNE   29.6   33.4   33.4   39.6   964.9  0.00   0.0   525    11.29    570     0.6  0.06   0.6   0.000   0.117   30.4    63   22.6   34.7    0.00   349    1    100.0   15 
10/07/19   9.45   29.2   29.7   28.9    67   22.4  16.1   NNW   4.02  29.0     N   28.6   32.7   32.1   37.8   964.9  0.00   0.0   606    13.03    654     0.6  0.06   0.8   0.000   0.113   30.7    63   22.8   35.0    0.00   346    1    100.0   15 
10/07/19  10.00   28.4   29.2   28.4    72   22.9  16.1   NNW   4.02  32.2     N   27.8   32.0   31.3   36.6   964.9  0.00   0.0   516    11.10    735     0.5  0.05   1.0   0.000   0.105   30.7    64   23.1   35.2    0.43   342    1    100.0   15 
10/07/19  10.15   28.0   28.8   27.8    76   23.4  16.1   NNW   4.02  35.4    NW   27.3   31.6   30.8   35.9   964.9  0.00   0.0   506    10.88    844     0.5  0.05   1.2   0.000   0.101   30.7    67   23.8   35.9    0.00   348    1    100.0   15 
10/07/19  10.30   23.6   28.1   23.6    79   19.8   8.0   NNW   2.01  29.0    NW   23.6   24.8   24.8   25.9   964.9  3.05  65.5   130     2.80    174     0.0  0.00   0.0   0.000   0.055   30.3    65   23.0   34.8    0.00   345    1    100.0   15 
10/07/19  10.45   25.4   25.9   23.6    83   22.3   0.0   WNW   0.00  11.3    NW   25.4   27.5   27.5   30.7   964.9  0.00   0.0   278     5.98    754     0.2  0.02   1.4   0.000   0.074   29.6    70   23.5   34.1    0.00   349    1    100.0   15 
10/07/19  11.00   25.6   26.4   25.0    78   21.4   4.8   NNE   1.21  27.4   WNW   25.6   27.3   27.3   29.3   964.9  0.00   0.0   198     4.26    323     0.0  0.00   0.0   0.000   0.075   29.3    73   24.0   34.2    0.23   322    1     94.2   15 
10/07/19  11.15   25.2   25.4   25.0    79   21.3   0.0   ENE   0.00  16.1     E   25.2   26.9   26.9   28.3   964.9  0.00   0.0   157     3.38    281     0.0  0.00   0.5   0.000   0.072   29.0    69   22.7   32.8    0.00   276    1     80.7   15 
10/07/19  11.30   26.7   26.7   25.2    81   23.1   0.0   SSE   0.00   6.4   SSE   26.7   29.3   29.3   36.1   964.9  0.00   0.0   757    16.28    974     2.4  0.26   3.1   0.000   0.087   29.0    72   23.4   33.3    0.00   304    1     88.9   15 
10/07/19  11.45   26.5   27.1   26.5    77   22.1   1.6   SSW   0.40  16.1   SSW   26.5   28.6   28.6   31.7   964.9  0.00   0.0   283     6.09    589     1.0  0.11   3.2   0.000   0.085   29.2    72   23.7   33.8    0.00   350    1    100.0   15 
10/07/19  12.00   24.7   26.5   24.7    76   20.2   3.2   WSW   0.80  24.1   WNW   24.7   26.1   26.1   26.6   964.9  0.00   0.0    99     2.13    160     0.0  0.00   0.0   0.000   0.066   29.1    68   22.6   32.8    0.25   342    1    100.0   15 
10/07/19  12.15   25.1   25.1   24.4    77   20.8   1.6    SW   0.40  17.7   WSW   25.1   26.6   26.6   28.1   964.9  0.00   0.0   160     3.44    186     0.0  0.00   0.0   0.000   0.071   28.6    67   21.8   31.4    0.00   342    1    100.0   15 
10/07/19  12.30   25.4   25.6   25.2    77   21.1   0.0   WSW   0.00   4.8   WSW   25.4   27.1   27.1   29.1   964.9  0.00   0.0   203     4.37    237     0.0  0.00   0.0   0.000   0.074   28.8    68   22.3   32.1    0.00   350    1    100.0   15 
10/07/19  12.45   27.3   27.3   25.4    73   22.1   0.0   ---   0.00   0.0   ---   27.3   29.7   29.7   36.5   964.9  0.00   0.0   778    16.73    937     3.1  0.33   4.2   0.000   0.094   29.0    68   22.5   32.6    0.00   352    1    100.0   15 
10/07/19  13.00   28.9   29.0   27.4    67   22.1   0.0   WSW   0.00   1.6   WSW   28.9   32.2   32.2   38.9   964.9  0.00   0.0   887    19.07    896     4.3  0.46   4.4   0.000   0.110   29.3    67   22.6   33.0    0.33   350    1    100.0   15 
10/07/19  13.15   29.1   29.3   28.8    61   20.8   9.7    NW   2.41  25.7     W   29.1   31.4   31.4   38.1   964.9  0.00   0.0   878    18.88    882     4.5  0.48   4.6   0.000   0.112   29.7    66   22.6   33.6    0.00   350    1    100.0   15 
10/07/19  13.30   29.5   29.8   29.1    57   20.1   9.7    NW   2.41  25.7    NW   29.5   31.5   31.5   38.2   964.9  0.00   0.0   879    18.90    882     4.6  0.49   4.6   0.000   0.116   29.8    64   22.2   33.4    0.00   351    1    100.0   15 
10/07/19  13.45   29.8   29.9   29.6    57   20.4  14.5   NNW   3.62  27.4    NW   29.6   32.1   31.8   37.9   964.9  0.00   0.0   877    18.86    879     4.6  0.49   4.6   0.000   0.120   30.0    62   21.9   33.5    0.00   346    1    100.0   15 
10/07/19  14.00   30.1   30.1   29.7    56   20.3  14.5    NW   3.62  29.0    NW   29.8   32.4   32.1   38.2   964.9  0.00   0.0   875    18.81    877     4.5  0.48   4.6   0.000   0.122   30.2    61   21.9   33.7    0.66   352    1    100.0   15 
10/07/19  14.15   30.2   30.6   30.1    54   19.8  14.5    NW   3.62  29.0   WNW   29.9   32.2   31.9   37.9   964.9  0.00   0.0   867    18.64    872     4.4  0.47   4.5   0.000   0.123   30.3    59   21.4   33.6    0.00   351    1    100.0   15 
10/07/19  14.30   30.4   30.4   30.0    53   19.8  17.7    NW   4.43  32.2     W   30.0   32.6   32.2   37.7   964.9  0.00   0.0   856    18.41    861     4.2  0.45   4.3   0.000   0.126   30.4    59   21.5   33.8    0.00   350    1    100.0   15 
10/07/19  14.45   30.4   30.6   30.1    55   20.4  12.9    NW   3.22  27.4    NW   30.4   33.0   32.9   39.2   964.9  0.00   0.0   843    18.13    847     4.0  0.43   4.1   0.000   0.126   30.7    59   21.7   34.2    0.00   348    1    100.0   15 
10/07/19  15.00   30.0   30.4   30.0    56   20.3  17.7    NW   4.43  30.6   NNW   29.4   32.3   31.7   37.3   964.9  0.00   0.0   828    17.80    833     3.7  0.40   3.9   0.000   0.122   30.8    58   21.6   34.1    0.69   349    1    100.0   15 
10/07/19  15.15   30.3   30.3   29.6    58   21.1  17.7    NW   4.43  33.8    NW   29.8   33.3   32.8   38.4   964.9  0.00   0.0   810    17.42    819     3.4  0.36   3.6   0.000   0.125   30.8    59   21.8   34.3    0.00   351    1    100.0   15 
10/07/19  15.30   29.7   30.3   29.4    59   20.9  19.3    NW   4.83  33.8     N   29.0   32.3   31.6   36.9   964.9  0.00   0.0   787    16.92    800     3.0  0.32   3.2   0.000   0.119   31.0    59   22.0   34.6    0.00   343    1    100.0   15 
10/07/19  15.45   29.8   30.0   29.7    58   20.7  16.1   NNW   4.02  33.8     N   29.4   32.3   31.9   37.6   964.9  0.00   0.0   766    16.47    777     2.6  0.28   2.8   0.000   0.120   31.2    59   22.2   34.9    0.00   346    1    100.0   15 
10/07/19  16.00   29.5   30.1   29.4    58   20.4  17.7    NW   4.43  35.4   NNW   28.8   31.7   31.0   36.5   964.9  0.00   0.0   739    15.89    752     2.2  0.24   2.4   0.000   0.116   31.3    58   22.0   34.9    0.63   349    1    100.0   15 
10/07/19  16.15   29.3   29.6   29.3    57   19.9  20.9    NW   5.23  33.8   NNW   28.3   31.2   30.2   35.3   964.9  0.00   0.0   707    15.20    724     1.8  0.19   2.0   0.000   0.114   31.4    57   21.8   35.0    0.00   351    1    100.0   15 
10/07/19  16.30   29.3   29.9   29.3    60   20.8  17.7   NNW   4.43  35.4   WNW   28.7   31.7   31.1   36.6   964.9  0.00   0.0   668    14.36    684     1.4  0.15   1.6   0.000   0.115   31.4    57   21.8   35.0    0.00   350    1    100.0   15 
10/07/19  16.45   29.4   29.7   29.2    61   21.1  14.5   NNW   3.62  29.0    NW   29.1   32.1   31.7   37.6   964.9  0.00   0.0   635    13.65    650     1.1  0.12   1.3   0.000   0.116   31.5    59   22.5   35.7    0.00   341    1     99.7   15 
10/07/19  17.00   29.4   29.4   29.2    60   20.8  14.5    NW   3.62  29.0     W   29.1   31.8   31.4   37.2   964.9  0.00   0.0   602    12.94    619     0.9  0.10   1.0   0.000   0.115   31.4    59   22.4   35.4    0.56   350    1    100.0   15 
10/07/19  17.15   29.7   29.7   29.3    59   20.9  12.9    NW   3.22  30.6    NW   29.6   32.3   32.2   38.1   964.9  0.00   0.0   565    12.15    584     0.6  0.06   0.7   0.000   0.119   31.4    58   22.1   35.2    0.00   344    1    100.0   15 
10/07/19  17.30   29.4   29.7   29.2    60   20.8  16.1    NW   4.02  27.4   NNW   28.9   31.8   31.3   36.8   964.9  0.00   0.0   527    11.33    545     0.3  0.03   0.5   0.000   0.115   31.5    58   22.2   35.4    0.00   334    1     97.7   15 
10/07/19  17.45   29.4   29.4   29.2    60   20.9  14.5    NW   3.62  29.0   NNW   29.1   31.9   31.6   37.1   964.9  0.00   0.0   489    10.51    506     0.0  0.00   0.0   0.000   0.116   31.5    58   22.2   35.4    0.00   347    1    100.0   15 
10/07/19  18.00   29.4   29.4   29.2    60   20.9  14.5    NW   3.62  29.0   WNW   29.1   31.9   31.6   36.9   964.9  0.00   0.0   449     9.65    471     0.0  0.00   0.0   0.000   0.116   31.5    57   21.9   35.3    0.43   347    1    100.0   15 
10/07/19  18.15   29.0   29.5   28.8    62   21.0  16.1    NW   4.02  32.2    NW   28.4   31.5   30.9   35.9   964.9  0.00   0.0   402     8.64    422     0.0  0.00   0.0   0.000   0.111   31.6    58   22.3   35.7    0.00   352    1    100.0   15 
10/07/19  18.30   29.1   29.3   28.9    61   20.8  12.9    NW   3.22  25.7   WNW   28.9   31.5   31.3   36.4   964.9  0.00   0.0   360     7.74    378     0.0  0.00   0.0   0.000   0.112   31.6    58   22.3   35.7    0.00   348    1    100.0   15 
10/07/19  18.45   29.2   29.4   29.1    62   21.2   8.0   NNW   2.01  20.9    NW   29.2   31.9   31.9   37.0   964.9  0.00   0.0   322     6.92    343     0.0  0.00   0.0   0.000   0.113   31.6    59   22.6   35.9    0.00   350    1    100.0   15 
10/07/19  19.00   28.7   29.2   28.7    65   21.5  11.3   NNW   2.82  20.9     N   28.7   31.4   31.4   36.0   964.9  0.00   0.0   278     5.98    301     0.0  0.00   0.0   0.000   0.108   31.6    59   22.6   35.9    0.30   350    1    100.0   15 
10/07/19  19.15   28.8   28.9   28.7    64   21.3   8.0     N   2.01  20.9   NNW   28.8   31.4   31.4   35.6   964.9  0.00   0.0   236     5.07    255     0.0  0.00   0.0   0.000   0.109   31.5    59   22.5   35.7    0.00   351    1    100.0   15 
10/07/19  19.30   28.8   28.9   28.4    64   21.3   6.4   NNW   1.61  20.9   NNW   28.8   31.5   31.5   34.8   964.9  0.00   0.0   184     3.96    207     0.0  0.00   0.0   0.000   0.109   31.5    59   22.5   35.7    0.00   348    1    100.0   15 
10/07/19  19.45   28.4   28.9   28.4    66   21.5   4.8     N   1.21  19.3    NW   28.4   30.9   30.9   33.3   964.9  0.00   0.0   136     2.92    158     0.0  0.00   0.0   0.000   0.105   31.3    60   22.6   35.3    0.00   349    1    100.0   15 
10/07/19  20.00   27.9   28.5   27.9    67   21.2   4.8   NNW   1.21  19.3     N   27.9   30.0   30.0   29.6   964.9  0.00   0.0    55     1.18     98     0.0  0.00   0.0   0.000   0.100   31.2    60   22.5   35.1    0.15   349    1    100.0   15 
10/07/19  20.15   27.7   27.9   27.7    68   21.2   1.6   NNW   0.40   9.7   NNW   27.7   29.7   29.7   28.9   964.9  0.00   0.0    26     0.56     30     0.0  0.00   0.0   0.000   0.097   31.0    60   22.3   34.8    0.00   349    1    100.0   15 
10/07/19  20.30   27.5   27.7   27.5    67   20.8   1.6   NNW   0.40  11.3   NNW   27.5   29.3   29.3   28.4   964.9  0.00   0.0    16     0.34     23     0.0  0.00   0.0   0.000   0.095   30.9    61   22.5   34.9    0.00   350    1    100.0   15 
10/07/19  20.45   27.6   27.7   27.6    66   20.6   4.8   NNW   1.21  19.3   NNW   27.6   29.3   29.3   28.3   964.9  0.00   0.0     9     0.19     11     0.0  0.00   0.0   0.000   0.096   30.8    60   22.1   34.5    0.00   351    1    100.0   15 
10/07/19  21.00   27.7   27.7   27.5    65   20.5   4.8   NNW   1.21  19.3    NW   27.7   29.4   29.4   28.3   964.9  0.00   0.0     4     0.09      9     0.0  0.00   0.0   0.000   0.097   30.8    60   22.1   34.5    0.03   351    1    100.0   15 
10/07/19  21.15   27.3   27.7   27.3    64   19.9   1.6    NW   0.40  16.1    NW   27.3   28.7   28.7   27.6   964.9  0.00   0.0     0     0.00      0     0.0  0.00   0.0   0.000   0.094   30.7    60   22.0   34.4    0.00   351    1    100.0   15 
10/07/19  21.30   27.2   27.4   27.2    67   20.6   1.6     N   0.40  16.1   NNW   27.2   28.8   28.8   27.7   964.9  0.00   0.0     0     0.00      0     0.0  0.00   0.0   0.000   0.093   30.6    59   21.6   34.0    0.00   350    1    100.0   15 
10/07/19  21.45   27.3   27.3   27.2    67   20.7   4.8   NNW   1.21  14.5   NNW   27.3   29.0   29.0   27.9   964.9  0.00   0.0     0     0.00      0     0.0  0.00   0.0   0.000   0.094   30.6    60   21.9   34.2    0.00   351    1    100.0   15 
10/07/19  22.00   27.2   27.3   27.1    67   20.5   3.2     N   0.80  12.9     N   27.2   28.7   28.7   27.6   964.9  0.00   0.0     0     0.00      0     0.0  0.00   0.0   0.000   0.092   30.4    60   21.8   34.0    0.03   351    1    100.0   15 
10/07/19  22.15   26.5   27.2   26.5    70   20.6   0.0   NNE   0.00   3.2   NNE   26.5   27.9   27.9   26.8   964.9  0.00   0.0     0     0.00      0     0.0  0.00   0.0   0.000   0.085   30.4    60   21.8   34.0    0.00   349    1    100.0   15 
10/07/19  22.30   25.9   26.6   25.9    69   19.8   0.0   NNE   0.00   1.6   NNE   25.9   27.1   27.1   25.9   964.9  0.00   0.0     0     0.00      0     0.0  0.00   0.0   0.000   0.079   30.2    61   21.9   33.7    0.00   351    1    100.0   15 
10/07/19  22.45   25.8   25.9   25.7    66   19.0   0.0   NNE   0.00   1.6   NNE   25.8   26.8   26.8   25.6   964.9  0.00   0.0     0     0.00      0     0.0  0.00   0.0   0.000   0.078   30.0    60   21.4   33.1    0.00   348    1    100.0   15 
10/07/19  23.00   26.1   26.1   25.8    63   18.5   0.0     N   0.00   6.4     N   26.1   26.8   26.8   25.6   964.9  0.00   0.0     0     0.00      0     0.0  0.00   0.0   0.000   0.080   29.9    59   21.0   32.6    0.03   351    1    100.0   15 
10/07/19  23.15   26.1   26.2   26.0    62   18.3   1.6     N   0.40   6.4     N   26.1   26.8   26.8   25.6   964.9  0.00   0.0     0     0.00      0     0.0  0.00   0.0   0.000   0.081   29.8    58   20.6   32.2    0.00   349    1    100.0   15 
10/07/19  23.30   25.7   26.1   25.4    63   18.1   0.0     N   0.00   8.0     N   25.7   26.4   26.4   25.1   964.9  0.00   0.0     0     0.00      0     0.0  0.00   0.0   0.000   0.076   29.7    57   20.2   31.8    0.00   352    1    100.0   15 
10/07/19  23.45   25.3   25.7   25.3    64   18.0   0.0     N   0.00   8.0     N   25.3   26.0   26.0   24.7   964.9  0.00   0.0     0     0.00      0     0.0  0.00   0.0   0.000   0.072   29.6    56   19.9   31.4    0.00   351    1    100.0   15 
11/07/19  00.00   25.1   25.3   25.1    64   17.8   0.0     N   0.00   3.2     N   25.1   25.7   25.7   24.4   964.9  0.00   0.0     0     0.00      0     0.0  0.00   0.0   0.000   0.070   29.4    56   19.7   31.2    0.05   351    1    100.0   15 
11/07/19   0.15   24.1   25.1   24.1    67   17.6   0.0     N   0.00   1.6     N   24.1   24.9   24.9   23.7   964.9  0.00   0.0     0     0.00      0     0.0  0.00   0.0   0.000   0.060   29.3    56   19.6   31.1    0.00   349    1    100.0   15 
11/07/19   0.30   24.1   24.2   24.0    69   18.0   0.0   ---   0.00   0.0   ---   24.1   24.9   24.9   23.7   964.9  0.00   0.0     0     0.00      0     0.0  0.00   0.0   0.000   0.060   29.2    57   19.8   31.1    0.00   351    1    100.0   15 
11/07/19   0.45   23.9   24.1   23.9    69   17.9   0.0   ---   0.00   0.0   ---   23.9   24.8   24.8   23.6   964.9  0.00   0.0     0     0.00      0     0.0  0.00   0.0   0.000   0.058   29.2    57   19.8   31.1    0.00   350    1    100.0   15 
11/07/19   1.00   23.3   24.0   23.3    70   17.5   0.0   ---   0.00   0.0   ---   23.3   24.2   24.2   22.9   964.9  0.00   0.0     0     0.00      0     0.0  0.00   0.0   0.000   0.052   29.2    57   19.8   31.1    0.03   351    1    100.0   15 
11/07/19   1.15   22.9   23.3   22.9    71   17.4   0.0     N   0.00   1.6     N   22.9   23.7   23.7   22.4   964.9  0.00   0.0     0     0.00      0     0.0  0.00   0.0   0.000   0.048   29.1    57   19.7   30.9    0.00   350    1    100.0   15 
11/07/19   1.30   22.9   23.0   22.9    71   17.4   0.0     N   0.00   1.6     N   22.9   23.7   23.7   22.4   964.9  0.00   0.0     0     0.00      0     0.0  0.00   0.0   0.000   0.048   29.1    57   19.7   30.9    0.00   351    1    100.0   15 
11/07/19   1.45   22.7   22.9   22.7    70   16.9   0.0   ---   0.00   0.0   ---   22.7   23.2   23.2   21.9   964.9  0.00   0.0     0     0.00      0     0.0  0.00   0.0   0.000   0.045   29.1    57   19.7   30.9    0.00   350    1    100.0   15 
11/07/19   2.00   22.4   22.7   22.4    68   16.2   0.0   ---   0.00   0.0   ---   22.4   22.8   22.8   21.4   964.9  0.00   0.0     0     0.00      0     0.0  0.00   0.0   0.000   0.042   29.0    56   19.3   30.6    0.03   352    1    100.0   15 
11/07/19   2.15   22.8   22.8   22.3    64   15.7   0.0   ---   0.00   0.0   ---   22.8   23.2   23.2   21.8   964.9  0.00   0.0     0     0.00      0     0.0  0.00   0.0   0.000   0.047   28.9    55   18.9   30.3    0.00   351    1    100.0   15 
11/07/19   2.30   22.2   23.1   22.2    64   15.0   0.0   ---   0.00   0.0   ---   22.2   22.3   22.3   20.8   964.9  0.00   0.0     0     0.00      0     0.0  0.00   0.0   0.000   0.040   28.8    55   18.8   30.2    0.00   350    1    100.0   15 
11/07/19   2.45   21.7   22.2   21.7    65   14.8   0.0   ---   0.00   0.0   ---   21.7   21.6   21.6   20.2   964.9  0.00   0.0     0     0.00      0     0.0  0.00   0.0   0.000   0.035   28.8    54   18.5   30.1    0.00   350    1    100.0   15 
11/07/19   3.00   20.8   21.7   20.8    68   14.7   0.0   ---   0.00   0.0   ---   20.8   20.8   20.8   19.4   964.9  0.00   0.0     0     0.00      0     0.0  0.00   0.0   0.000   0.025   28.7    53   18.1   29.8    0.03   351    1    100.0   15 
11/07/19   3.15   20.3   20.8   20.3    68   14.2   0.0   ---   0.00   0.0   ---   20.3   20.5   20.5   19.0   964.9  0.00   0.0     0     0.00      0     0.0  0.00   0.0   0.000   0.021   28.6    53   18.0   29.6    0.00   350    1    100.0   15 
11/07/19   3.30   20.3   20.4   20.2    69   14.4   0.0   ---   0.00   0.0   ---   20.3   20.5   20.5   19.0   964.9  0.00   0.0     0     0.00      0     0.0  0.00   0.0   0.000   0.020   28.4    52   17.6   29.3    0.00   351    1    100.0   15 
11/07/19   3.45   19.5   20.3   19.5    69   13.7   0.0   ---   0.00   0.0   ---   19.5   19.7   19.7   18.2   964.9  0.00   0.0     0     0.00      0     0.0  0.00   0.0   0.000   0.012   28.3    52   17.5   29.2    0.00   351    1    100.0   15 
11/07/19   4.00   19.3   19.5   19.3    70   13.7   0.0   ---   0.00   0.0   ---   19.3   19.6   19.6   18.1   964.9  0.00   0.0     0     0.00      0     0.0  0.00   0.0   0.000   0.010   28.2    52   17.4   29.0    0.03   351    1    100.0   15 
11/07/19   4.15   19.0   19.3   19.0    70   13.4   0.0   ---   0.00   0.0   ---   19.0   19.1   19.1   17.6   964.9  0.00   0.0     0     0.00      0     0.0  0.00   0.0   0.000   0.007   28.1    51   17.0   28.7    0.00   351    1    100.0   15 
11/07/19   4.30   18.8   19.0   18.8    71   13.4   0.0   ---   0.00   0.0   ---   18.8   18.9   18.9   17.4   964.9  0.00   0.0     0     0.00      0     0.0  0.00   0.0   0.000   0.005   28.0    51   16.9   28.6    0.00   348    1    100.0   15 
11/07/19   4.45   18.8   19.0   18.8    72   13.6   0.0   ---   0.00   0.0   ---   18.8   18.9   18.9   17.4   964.9  0.00   0.0     0     0.00      0     0.0  0.00   0.0   0.000   0.005   28.0    51   16.9   28.6    0.00   351    1    100.0   15 
11/07/19   5.00   18.4   18.8   18.3    71   13.0   0.0   ---   0.00   0.0   ---   18.4   18.4   18.4   16.9   964.9  0.00   0.0     0     0.00      0     0.0  0.00   0.0   0.000   0.001   27.9    51   16.8   28.4    0.03   350    1    100.0   15 
11/07/19   5.15   18.0   18.5   17.9    73   13.1   0.0   ---   0.00   0.0   ---   18.0   18.1   18.1   16.5   964.9  0.00   0.0     0     0.00      0     0.0  0.00   0.0   0.003   0.000   27.8    51   16.8   28.3    0.00   351    1    100.0   15 
11/07/19   5.30   18.3   18.3   18.0    73   13.4   0.0   ---   0.00   0.0   ---   18.3   18.4   18.4   16.9   964.9  0.00   0.0     0     0.00      0     0.0  0.00   0.0   0.001   0.000   27.7    51   16.7   28.1    0.00   350    1    100.0   15 
11/07/19   5.45   18.6   18.6   18.3    70   13.0   0.0   ---   0.00   0.0   ---   18.6   18.6   18.6   17.1   964.9  0.00   0.0     0     0.00      0     0.0  0.00   0.0   0.000   0.002   27.6    51   16.6   27.9    0.00   351    1    100.0   15 
11/07/19   6.00   18.4   18.7   18.3    70   12.9   0.0   ---   0.00   0.0   ---   18.4   18.4   18.4   16.9   964.9  0.00   0.0     4     0.09      9     0.0  0.00   0.0   0.000   0.001   27.5    51   16.5   27.8    0.00   351    1    100.0   15 
11/07/19   6.15   18.3   19.4   18.3    69   12.5   0.0   ---   0.00   0.0   ---   18.3   18.3   18.3   16.8   964.9  0.00   0.0    12     0.26     18     0.0  0.00   0.0   0.000   0.000   27.3    50   15.9   27.4    0.00   350    1    100.0   15 
11/07/19   6.30   18.4   18.4   18.1    70   12.9   0.0   ---   0.00   0.0   ---   18.4   18.4   18.4   17.2   964.9  0.00   0.0    26     0.56     39     0.0  0.00   0.0   0.000   0.001   27.0    50   15.7   27.1    0.00   348    1    100.0   15 
11/07/19   6.45   18.6   18.8   18.4    70   13.0   0.0   ---   0.00   0.0   ---   18.6   18.6   18.6   17.7   964.9  0.00   0.0    54     1.16     69     0.0  0.00   0.0   0.000   0.002   26.9    50   15.6   26.9    0.00   351    1    100.0   15 
11/07/19   7.00   19.2   19.2   18.6    69   13.4   0.0   ---   0.00   0.0   ---   19.2   19.3   19.3   20.4   964.9  0.00   0.0    83     1.78    105     0.0  0.00   0.0   0.000   0.009   26.7    51   15.7   26.8    0.03   350    1    100.0   15 
11/07/19   7.15   20.2   20.2   19.3    67   13.8   0.0   ---   0.00   0.0   ---   20.2   20.3   20.3   22.3   964.9  0.00   0.0   124     2.67    167     0.0  0.00   0.0   0.000   0.019   26.6    51   15.6   26.7    0.00   350    1    100.0   15 
11/07/19   7.30   20.9   20.9   20.2    67   14.6   0.0   ---   0.00   0.0   ---   20.9   20.9   20.9   23.9   964.9  0.00   0.0   174     3.74    202     0.0  0.00   0.0   0.000   0.027   26.6    52   15.9   26.7    0.00   352    1    100.0   15 
11/07/19   7.45   21.7   21.8   20.9    62   14.1   0.0   ---   0.00   0.0   ---   21.7   21.6   21.6   24.7   964.9  0.00   0.0   190     4.09    267     0.0  0.00   0.0   0.000   0.035   26.7    53   16.3   26.9    0.00   351    1    100.0   15 
11/07/19   8.00   23.2   23.2   21.7    59   14.7   0.0   ---   0.00   0.0   ---   23.2   23.4   23.4   28.1   964.9  0.00   0.0   295     6.34    362     0.0  0.00   0.0   0.000   0.050   26.8    53   16.4   27.1    0.13   351    1    100.0   15 
11/07/19   8.15   23.3   23.3   23.0    62   15.6   0.0   ---   0.00   0.0   ---   23.3   23.8   23.8   26.8   964.9  0.00   0.0   194     4.17    369     0.0  0.00   0.0   0.000   0.052   26.9    53   16.5   27.2    0.00   350    1    100.0   15 
11/07/19   8.30   25.2   25.2   23.3    55   15.5   0.0   ---   0.00   0.0   ---   25.2   25.4   25.4   30.6   964.9  0.00   0.0   360     7.74    388     0.0  0.00   0.0   0.000   0.072   27.2    54   17.1   27.6    0.00   352    1    100.0   15 
11/07/19   8.45   26.3   26.5   25.2    53   15.9   0.0   NNE   0.00   1.6   NNE   26.3   26.5   26.5   32.0   964.9  0.00   0.0   409     8.79    429     0.0  0.00   0.0   0.000   0.083   27.4    53   17.0   27.8    0.00   349    1    100.0   15 
11/07/19   9.00   26.4   26.4   25.8    50   15.2   0.0   ---   0.00   0.0   ---   26.4   26.5   26.5   32.2   964.9  0.00   0.0   449     9.65    473     0.0  0.00   0.5   0.000   0.084   27.6    51   16.6   27.9    0.23   351    1    100.0   15 
11/07/19   9.15   26.6   26.6   26.2    47   14.4   0.0   NNE   0.00   4.8   NNE   26.6   26.5   26.5   32.3   964.9  0.00   0.0   493    10.60    515     0.1  0.01   0.5   0.000   0.086   27.7    49   16.0   27.9    0.00   350    1    100.0   15 
11/07/19   9.30   26.7   26.7   26.6    48   14.8   1.6   NNE   0.40   9.7     N   26.7   26.7   26.7   32.6   964.9  0.00   0.0   547    11.76    610     0.2  0.02   0.6   0.000   0.087   27.8    47   15.5   27.9    0.00   352    1    100.0   15 
11/07/19   9.45   27.2   27.2   26.7    49   15.5   1.6     N   0.40   9.7     N   27.2   27.2   27.2   33.1   964.9  0.00   0.0   542    11.65    633     0.3  0.03   0.6   0.000   0.092   27.9    48   15.9   28.1    0.00   350    1    100.0   15 
11/07/19  10.00   27.0   27.3   26.9    50   15.7   4.8   ESE   1.21  16.1     E   27.0   27.1   27.1   33.3   964.9  0.00   0.0   613    13.18    631     0.8  0.09   1.0   0.000   0.090   28.1    49   16.4   28.6    0.38   351    1    100.0   15 
11/07/19  10.15   27.3   27.4   27.0    47   15.0   3.2   ESE   0.80  14.5   ESE   27.3   27.2   27.2   33.3   964.9  0.00   0.0   623    13.40    652     1.1  0.12   1.2   0.000   0.093   28.2    49   16.5   28.7    0.00   349    1    100.0   15 
11/07/19  10.30   27.2   27.3   26.9    49   15.6   6.4    SE   1.61  16.1    SE   27.2   27.3   27.3   33.4   964.9  0.00   0.0   635    13.65    668     1.3  0.14   1.5   0.000   0.093   28.2    48   16.2   28.7    0.00   351    1    100.0   15 
11/07/19  10.45   26.8   27.6   26.8    50   15.5   6.4   SSE   1.61  16.1    SE   26.8   26.9   26.9   33.1   964.9  0.00   0.0   658    14.15    722     1.6  0.17   1.9   0.000   0.089   28.3    49   16.6   28.9    0.00   352    1    100.0   15 
11/07/19  11.00   27.7   27.7   26.8    52   16.9   4.8   SSE   1.21  17.7   SSE   27.7   28.1   28.1   34.5   964.9  0.00   0.0   723    15.55    759     2.1  0.22   2.2   0.000   0.097   28.3    50   16.9   29.0    0.48   350    1    100.0   15 
11/07/19  11.15   27.3   27.7   27.2    50   16.0   4.8   SSE   1.21  14.5   SSE   27.3   27.5   27.5   33.8   964.9  0.00   0.0   761    16.36    872     2.5  0.27   2.9   0.000   0.094   28.4    49   16.7   29.1    0.00   349    1    100.0   15 
11/07/19  11.30   27.2   27.3   27.0    50   15.8   3.2   SSE   0.80  14.5   SSE   27.2   27.3   27.3   32.3   964.9  0.00   0.0   497    10.69    893     1.8  0.19   3.2   0.000   0.092   28.7    49   16.9   29.4    0.00   351    1    100.0   15 
11/07/19  11.45   26.8   27.1   26.8    49   15.2   6.4   SSE   1.61  16.1   SSE   26.8   26.8   26.8   32.7   964.9  0.00   0.0   640    13.76    780     2.2  0.24   3.4   0.000   0.088   28.8    47   16.3   29.5    0.00   351    1    100.0   15 
11/07/19  12.00   27.8   27.8   26.8    48   15.8   3.2   SSE   0.80  14.5   SSE   27.8   27.9   27.9   34.3   964.9  0.00   0.0   856    18.41    881     3.6  0.39   3.8   0.000   0.098   29.0    47   16.5   29.8    0.48   351    1    100.0   15 
11/07/19  12.15   27.5   27.8   27.4    52   16.8   4.8   SSE   1.21  14.5   SSE   27.5   27.9   27.9   34.4   964.9  0.00   0.0   824    17.72    911     3.9  0.42   4.5   0.000   0.095   29.1    48   17.0   29.9    0.00   351    1    100.0   15 
11/07/19  12.30   27.4   28.1   27.4    51   16.4   1.6   SSE   0.40  11.3   SSE   27.4   27.7   27.7   33.9   964.9  0.00   0.0   694    14.92    969     3.2  0.34   4.5   0.000   0.094   29.2    49   17.4   30.1    0.00   349    1    100.0   15 
11/07/19  12.45   27.5   27.7   27.3    52   16.8   1.6   SSE   0.40  11.3   SSE   27.5   27.9   27.9   34.3   964.9  0.00   0.0   718    15.44   1035     3.5  0.38   4.7   0.000   0.095   29.3    49   17.5   30.2    0.00   351    1    100.0   15 
11/07/19  13.00   27.1   27.6   26.8    53   16.7   4.8   SSE   1.21  14.5   SSE   27.1   27.4   27.4   33.5   964.9  0.00   0.0   659    14.17    984     3.2  0.34   4.9   0.000   0.091   29.3    49   17.5   30.2    0.51   350    1    100.0   15 
11/07/19  13.15   28.0   28.3   27.1    51   16.9   3.2   SSE   0.80  11.3   SSE   28.0   28.6   28.6   34.9   964.9  0.00   0.0   912    19.61    956     4.5  0.48   4.9   0.000   0.101   29.6    49   17.7   30.5    0.00   351    1    100.0   15 
11/07/19  13.30   27.6   28.3   27.6    52   16.9   4.8   SSE   1.21  16.1   SSE   27.6   28.1   28.1   34.7   964.9  0.00   0.0   833    17.91   1014     4.2  0.45   5.2   0.000   0.097   29.8    50   18.2   30.9    0.00   350    1    100.0   15 
11/07/19  13.45   27.9   28.2   27.0    52   17.2   6.4   SSE   1.61  19.3   SSE   27.9   28.6   28.6   35.2   964.9  0.00   0.0   784    16.86    951     3.8  0.41   4.8   0.000   0.100   29.9    49   18.0   30.9    0.00   350    1    100.0   15 
11/07/19  14.00   27.8   27.9   27.6    51   16.7   4.8    SE   1.21  14.5    SE   27.8   28.2   28.2   34.8   964.9  0.00   0.0   821    17.65    940     3.9  0.42   4.8   0.000   0.098   30.0    49   18.1   31.1    0.56   351    1    100.0   15 
11/07/19  14.15   28.1   28.4   27.8    50   16.7   1.6   SSE   0.40  11.3   SSE   28.1   28.6   28.6   34.8   964.9  0.00   0.0   892    19.18   1074     3.9  0.42   5.3   0.000   0.101   30.1    48   17.9   31.2    0.00   350    1    100.0   15 
11/07/19  14.30   27.8   28.3   27.8    49   16.1   4.8    SE   1.21  16.1    SE   27.8   28.1   28.1   33.7   964.9  0.00   0.0   916    19.70   1035     4.3  0.46   5.0   0.000   0.099   30.3    48   18.1   31.6    0.00   351    1    100.0   15 
11/07/19  14.45   28.4   28.4   27.4    50   17.0   4.8    SE   1.21  14.5   SSE   28.4   29.2   29.2   35.5   964.9  0.00   0.0   860    18.49    984     3.5  0.38   4.6   0.000   0.105   30.4    47   17.9   31.6    0.00   351    1    100.0   15 
11/07/19  15.00   27.5   28.4   27.4    51   16.5   6.4   SSE   1.61  14.5    SE   27.5   27.8   27.8   33.8   964.9  0.00   0.0   645    13.87    786     2.5  0.27   3.6   0.000   0.095   30.4    47   17.9   31.6    0.56   350    1    100.0   15 
11/07/19  15.15   27.8   27.9   27.4    51   16.8   6.4    SE   1.61  14.5    SE   27.8   28.3   28.3   34.7   964.9  0.00   0.0   776    16.69    928     3.1  0.33   3.6   0.000   0.099   30.6    47   18.0   31.8    0.00   317    1     92.7   15 
11/07/19  15.30   27.2   27.8   27.2    55   17.4   6.4    SE   1.61  14.5    SE   27.2   27.7   27.7   33.1   964.9  0.00   0.0   529    11.37    686     1.4  0.15   2.2   0.000   0.093   30.6    48   18.3   31.9    0.00   351    1    100.0   15 
11/07/19  15.45   28.1   28.2   27.1    49   16.4   3.2    SE   0.80  14.5    SE   28.1   28.6   28.6   31.8   964.9  0.00   0.0   308     6.62    345     0.1  0.01   0.5   0.000   0.102   30.6    46   17.6   31.6    0.00   350    1    100.0   15 
11/07/19  16.00   27.9   28.1   27.7    53   17.4   3.2   SSE   0.80  14.5   SSE   27.9   28.6   28.6   33.3   964.9  0.00   0.0   445     9.57    635     0.8  0.09   1.5   0.000   0.100   30.3    47   17.8   31.4    0.36   352    1    100.0   15 
11/07/19  16.15   28.3   28.4   27.9    49   16.6   1.6   SSE   0.40  14.5   SSE   28.3   28.9   28.9   34.4   964.9  0.00   0.0   519    11.16    721     1.1  0.12   1.7   0.000   0.104   30.3    47   17.8   31.4    0.00   350    1    100.0   15 
11/07/19  16.30   28.1   28.4   28.0    53   17.6   3.2   SSE   0.80  14.5   SSE   28.1   28.8   28.8   33.4   964.9  0.00   0.0   400     8.60    621     0.5  0.05   1.1   0.000   0.101   30.3    47   17.8   31.4    0.00   350    1    100.0   15 
11/07/19  16.45   27.9   28.1   27.9    56   18.3   1.6   SSE   0.40   9.7   SSE   27.9   28.8   28.8   33.0   964.9  0.00   0.0   353     7.59    496     0.1  0.01   0.5   0.000   0.100   30.3    49   18.4   31.7    0.00   350    1    100.0   15 
11/07/19  17.00   27.9   28.1   27.8    53   17.5   1.6   SSE   0.40  11.3   SSE   27.9   28.6   28.6   32.6   964.9  0.00   0.0   327     7.03    404     0.0  0.00   0.0   0.000   0.100   30.3    49   18.4   31.7    0.28   336    1     98.2   15 
11/07/19  17.15   28.1   28.2   27.8    55   18.2   1.6   SSE   0.40  14.5   SSE   28.1   29.1   29.1   32.6   964.9  0.00   0.0   278     5.98    362     0.0  0.00   0.0   0.000   0.102   30.1    48   17.9   31.2    0.00   350    1    100.0   15 
11/07/19  17.30   28.4   28.4   28.0    57   19.0   1.6   SSE   0.40  16.1   SSE   28.4   29.7   29.7   35.7   964.9  0.00   0.0   555    11.93    652     0.2  0.02   0.5   0.000   0.105   30.1    51   18.9   31.6    0.00   350    1    100.0   15 
11/07/19  17.45   27.6   28.4   27.6    57   18.3   3.2     S   0.80  14.5     S   27.6   28.5   28.5   31.7   964.9  0.00   0.0   234     5.03    306     0.0  0.00   0.0   0.000   0.097   30.1    50   18.5   31.4    0.00   350    1    100.0   15 
11/07/19  18.00   27.9   28.0   27.6    56   18.4   0.0     S   0.00   8.0     S   27.9   28.9   28.9   31.6   964.9  0.00   0.0   191     4.11    229     0.0  0.00   0.0   0.000   0.100   30.1    51   18.9   31.6    0.23   351    1    100.0   15 
11/07/19  18.15   28.3   28.3   27.8    58   19.2   0.0     S   0.00   8.0     S   28.3   29.6   29.6   33.8   964.9  0.00   0.0   274     5.89    332     0.0  0.00   0.0   0.000   0.104   30.2    51   19.0   31.8    0.00   350    1    100.0   15 
11/07/19  18.30   27.7   28.4   27.7    60   19.2   1.6     S   0.40   9.7     S   27.7   28.8   28.8   31.1   964.9  0.00   0.0   146     3.14    179     0.0  0.00   0.0   0.000   0.097   30.2    51   19.0   31.8    0.00   351    1    100.0   15 
11/07/19  18.45   27.4   27.7   27.4    61   19.2   0.0     S   0.00   6.4     S   27.4   28.5   28.5   31.1   964.9  0.00   0.0   158     3.40    169     0.0  0.00   0.0   0.000   0.094   30.2    53   19.6   32.2    0.00   347    1    100.0   15 
11/07/19  19.00   27.4   27.4   27.3    62   19.5   0.0     S   0.00   9.7     S   27.4   28.6   28.6   31.2   964.9  0.00   0.0   146     3.14    155     0.0  0.00   0.0   0.000   0.094   30.1    53   19.5   31.9    0.13   345    1    100.0   15 
11/07/19  19.15   27.2   27.6   27.2    63   19.5   0.0     S   0.00   4.8     S   27.2   28.3   28.3   30.7   964.9  0.00   0.0   132     2.84    142     0.0  0.00   0.0   0.000   0.092   30.1    54   19.8   32.1    0.00   338    1     98.8   15 
11/07/19  19.30   27.3   27.3   27.1    63   19.6   0.0     S   0.00   8.0     S   27.3   28.5   28.5   30.8   964.9  0.00   0.0   125     2.69    169     0.0  0.00   0.0   0.000   0.093   30.0    54   19.7   31.9    0.00   344    1    100.0   15 
11/07/19  19.45   26.9   27.3   26.9    64   19.6   3.2     S   0.80  11.3     S   26.9   28.1   28.1   29.6   964.9  0.00   0.0    88     1.89    139     0.0  0.00   0.0   0.000   0.090   29.8    55   19.8   31.7    0.00   349    1    100.0   15 
11/07/19  20.00   26.8   27.1   26.8    65   19.7   0.0     S   0.00   6.4     S   26.8   28.1   28.1   28.3   964.9  0.00   0.0   109     2.34    149     0.0  0.00   0.0   0.000   0.089   29.7    56   20.0   31.6    0.08   351    1    100.0   15 
11/07/19  20.15   26.6   26.8   26.6    65   19.4   0.0     S   0.00   1.6     S   26.6   27.6   27.6   27.1   964.9  0.00   0.0    48     1.03     67     0.0  0.00   0.0   0.000   0.086   29.7    56   20.0   31.6    0.00   351    1    100.0   15 
11/07/19  20.30   26.4   26.6   26.4    65   19.3   0.0   ---   0.00   0.0   ---   26.4   27.5   27.5   26.6   964.9  0.00   0.0    18     0.39     26     0.0  0.00   0.0   0.000   0.084   29.8    56   20.1   31.8    0.00   351    1    100.0   15 
11/07/19  20.45   26.1   26.4   26.1    67   19.4   0.0     S   0.00   1.6     S   26.1   27.1   27.1   26.2   964.9  0.00   0.0     9     0.19     11     0.0  0.00   0.0   0.000   0.080   29.8    56   20.1   31.8    0.00   351    1    100.0   15 
11/07/19  21.00   25.9   26.1   25.9    68   19.6   0.0   ---   0.00   0.0   ---   25.9   27.1   27.1   26.0   964.9  0.00   0.0     2     0.04      5     0.0  0.00   0.0   0.000   0.079   29.8    56   20.1   31.8    0.03   349    1    100.0   15 
11/07/19  21.15   25.8   26.1   25.8    68   19.5   0.0   ---   0.00   0.0   ---   25.8   26.9   26.9   25.8   964.9  0.00   0.0     0     0.00      0     0.0  0.00   0.0   0.000   0.078   29.7    57   20.2   31.8    0.00   350    1    100.0   15 
11/07/19  21.30   25.1   25.8   25.0    68   18.7   0.0   ---   0.00   0.0   ---   25.1   26.0   26.0   24.9   964.9  0.00   0.0     0     0.00      0     0.0  0.00   0.0   0.000   0.070   29.7    57   20.2   31.8    0.00   334    1     97.7   15 
11/07/19  21.45   24.9   25.2   24.9    67   18.4   0.0   ---   0.00   0.0   ---   24.9   25.8   25.8   24.7   964.9  0.00   0.0     0     0.00      0     0.0  0.00   0.0   0.000   0.069   29.6    56   19.9   31.4    0.00   284    1     83.0   15 
11/07/19  22.00   25.1   25.1   24.9    68   18.8   0.0   ---   0.00   0.0   ---   25.1   26.1   26.1   24.9   964.9  0.00   0.0     0     0.00      0     0.0  0.00   0.0   0.000   0.071   29.4    56   19.7   31.2    0.00   345    1    100.0   15 
11/07/19  22.15   25.1   25.2   25.1    69   19.0   0.0   ---   0.00   0.0   ---   25.1   26.1   26.1   24.9   964.9  0.00   0.0     0     0.00      0     0.0  0.00   0.0   0.000   0.070   29.4    57   20.0   31.4    0.00   351    1    100.0   15 
11/07/19  22.30   24.6   25.1   24.6    70   18.8   0.0   ---   0.00   0.0   ---   24.6   25.6   25.6   24.5   964.9  0.00   0.0     0     0.00      0     0.0  0.00   0.0   0.000   0.065   29.4    57   20.0   31.4    0.00   351    1    100.0   15 
11/07/19  22.45   24.3   24.6   24.3    70   18.5   0.0   ---   0.00   0.0   ---   24.3   25.3   25.3   24.2   964.9  0.00   0.0     0     0.00      0     0.0  0.00   0.0   0.000   0.063   29.3    56   19.6   31.1    0.00   350    1    100.0   15 
11/07/19  23.00   23.8   24.3   23.7    72   18.4   0.0   ---   0.00   0.0   ---   23.8   24.8   24.8   23.7   964.9  0.00   0.0     0     0.00      0     0.0  0.00   0.0   0.000   0.057   29.2    57   19.8   31.1    0.03   350    1    100.0   15 
11/07/19  23.15   23.5   23.8   23.5    73   18.4   0.0   ---   0.00   0.0   ---   23.5   24.5   24.5   23.4   964.9  0.00   0.0     0     0.00      0     0.0  0.00   0.0   0.000   0.054   29.0    57   19.6   30.7    0.00   351    1    100.0   15 
11/07/19  23.30   23.1   23.5   23.1    74   18.2   0.0   ---   0.00   0.0   ---   23.1   24.1   24.1   22.9   964.9  0.00   0.0     0     0.00      0     0.0  0.00   0.0   0.000   0.050   28.9    57   19.5   30.6    0.00   351    1    100.0   15 
11/07/19  23.45   22.8   23.2   22.8    74   18.0   0.0   ---   0.00   0.0   ---   22.8   23.7   23.7   22.5   964.9  0.00   0.0     0     0.00      0     0.0  0.00   0.0   0.000   0.047   28.7    57   19.3   30.2    0.00   350    1    100.0   15 
12/07/19  00.00   23.0   23.0   22.8    75   18.3   0.0   ---   0.00   0.0   ---   23.0   23.9   23.9   22.8   964.9  0.00   0.0     0     0.00      0     0.0  0.00   0.0   0.000   0.049   28.4    58   19.4   29.9    0.03   350    1    100.0   15 
12/07/19   0.15   22.4   23.0   22.4    76   18.0   0.0   ---   0.00   0.0   ---   22.4   23.2   23.2   22.0   964.9  0.00   0.0     0     0.00      0     0.0  0.00   0.0   0.000   0.043   28.3    58   19.3   29.7    0.00   350    1    100.0   15 
12/07/19   0.30   22.1   22.4   22.1    76   17.7   0.0   ---   0.00   0.0   ---   22.1   22.7   22.7   21.5   964.9  0.00   0.0     0     0.00      0     0.0  0.00   0.0   0.000   0.039   28.1    58   19.1   29.3    0.00   350    1    100.0   15 
12/07/19   0.45   22.1   22.2   22.1    76   17.7   0.0   ---   0.00   0.0   ---   22.1   22.7   22.7   21.5   964.9  0.00   0.0     0     0.00      0     0.0  0.00   0.0   0.000   0.039   28.0    58   19.0   29.2    0.00   348    1    100.0   15 
12/07/19   1.00   21.9   22.1   21.9    76   17.5   0.0   ---   0.00   0.0   ---   21.9   22.4   22.4   21.3   964.9  0.00   0.0     0     0.00      0     0.0  0.00   0.0   0.000   0.037   27.8    58   18.8   28.9    0.03   352    1    100.0   15 
12/07/19   1.15   21.6   21.9   21.6    78   17.6   0.0   ---   0.00   0.0   ---   21.6   22.2   22.2   21.0   964.9  0.00   0.0     0     0.00      0     0.0  0.00   0.0   0.000   0.034   27.7    58   18.7   28.7    0.00   349    1    100.0   15 
12/07/19   1.30   21.4   21.6   21.4    79   17.6   0.0   ---   0.00   0.0   ---   21.4   22.1   22.1   20.9   964.9  0.00   0.0     0     0.00      0     0.0  0.00   0.0   0.000   0.032   27.7    59   19.0   28.8    0.00   351    1    100.0   15 
12/07/19   1.45   21.3   21.4   21.3    78   17.3   0.0   ---   0.00   0.0   ---   21.3   21.9   21.9   20.7   964.9  0.00   0.0     0     0.00      0     0.0  0.00   0.0   0.000   0.031   27.8    58   18.8   28.9    0.00   351    1    100.0   15 
12/07/19   2.00   21.2   21.3   21.2    79   17.4   0.0   ---   0.00   0.0   ---   21.2   21.8   21.8   20.6   964.9  0.00   0.0     0     0.00      0     0.0  0.00   0.0   0.000   0.030   28.0    58   19.0   29.2    0.03   351    1    100.0   15 
12/07/19   2.15   20.9   21.2   20.9    80   17.3   0.0   ---   0.00   0.0   ---   20.9   21.6   21.6   20.4   964.9  0.00   0.0     0     0.00      0     0.0  0.00   0.0   0.000   0.027   28.0    58   19.0   29.2    0.00   351    1    100.0   15 
12/07/19   2.30   20.8   20.9   20.8    80   17.3   0.0   ---   0.00   0.0   ---   20.8   21.6   21.6   20.4   964.9  0.00   0.0     0     0.00      0     0.0  0.00   0.0   0.000   0.026   28.1    58   19.1   29.3    0.00   351    1    100.0   15 
12/07/19   2.45   20.4   20.8   20.4    81   17.1   0.0   ---   0.00   0.0   ---   20.4   21.3   21.3   20.1   964.9  0.00   0.0     0     0.00      0     0.0  0.00   0.0   0.000   0.022   28.0    58   19.0   29.2    0.00   351    1    100.0   15 
12/07/19   3.00   20.4   20.4   20.2    80   16.8   0.0   ---   0.00   0.0   ---   20.4   21.2   21.2   19.9   964.9  0.00   0.0     0     0.00      0     0.0  0.00   0.0   0.000   0.021   28.0    57   18.7   29.1    0.03   351    1    100.0   15 
12/07/19   3.15   20.3   20.5   20.3    80   16.7   0.0   ---   0.00   0.0   ---   20.3   21.1   21.1   19.8   964.9  0.00   0.0     0     0.00      0     0.0  0.00   0.0   0.000   0.020   28.0    57   18.7   29.1    0.00   352    1    100.0   15 
12/07/19   3.30   20.2   20.3   20.2    82   17.0   0.0   ---   0.00   0.0   ---   20.2   21.0   21.0   19.8   964.9  0.00   0.0     0     0.00      0     0.0  0.00   0.0   0.000   0.019   27.9    57   18.6   28.9    0.00   351    1    100.0   15 
12/07/19   3.45   20.3   20.3   20.1    81   17.0   0.0   ---   0.00   0.0   ---   20.3   21.2   21.2   19.9   964.9  0.00   0.0     0     0.00      0     0.0  0.00   0.0   0.000   0.021   27.8    58   18.8   28.9    0.00   351    1    100.0   15 
12/07/19   4.00   20.2   20.3   20.1    81   16.8   0.0   ---   0.00   0.0   ---   20.2   20.9   20.9   19.7   964.9  0.00   0.0     0     0.00      0     0.0  0.00   0.0   0.000   0.019   27.8    58   18.8   28.9    0.03   349    1    100.0   15 
12/07/19   4.15   19.8   20.2   19.8    81   16.4   0.0   ---   0.00   0.0   ---   19.8   20.5   20.5   19.2   964.9  0.00   0.0     0     0.00      0     0.0  0.00   0.0   0.000   0.015   27.7    58   18.7   28.7    0.00   349    1    100.0   15 
12/07/19   4.30   20.1   20.1   19.7    81   16.7   0.0   ---   0.00   0.0   ---   20.1   20.8   20.8   19.6   964.9  0.00   0.0     0     0.00      0     0.0  0.00   0.0   0.000   0.018   27.6    58   18.6   28.6    0.00   350    1    100.0   15 
12/07/19   4.45   19.9   20.2   19.9    80   16.3   0.0   ---   0.00   0.0   ---   19.9   20.6   20.6   19.3   964.9  0.00   0.0     0     0.00      0     0.0  0.00   0.0   0.000   0.016   27.6    57   18.3   28.5    0.00   349    1    100.0   15 
12/07/19   5.00   20.4   20.4   19.9    79   16.6   0.0   ---   0.00   0.0   ---   20.4   21.1   21.1   19.8   964.9  0.00   0.0     0     0.00      0     0.0  0.00   0.0   0.000   0.021   27.5    57   18.2   28.3    0.03   351    1    100.0   15 
12/07/19   5.15   20.4   20.6   20.3    81   17.1   0.0   ---   0.00   0.0   ---   20.4   21.3   21.3   20.1   964.9  0.00   0.0     0     0.00      0     0.0  0.00   0.0   0.000   0.022   27.5    57   18.2   28.3    0.00   351    1    100.0   15 
12/07/19   5.30   20.4   20.4   20.1    80   16.9   0.0   ---   0.00   0.0   ---   20.4   21.3   21.3   20.1   964.9  0.00   0.0     0     0.00      0     0.0  0.00   0.0   0.000   0.022   27.5    57   18.2   28.3    0.00   350    1    100.0   15 
12/07/19   5.45   20.3   20.4   20.3    80   16.8   0.0   ---   0.00   0.0   ---   20.3   21.1   21.1   19.9   964.9  0.00   0.0     0     0.00      0     0.0  0.00   0.0   0.000   0.021   27.5    58   18.5   28.4    0.00   351    1    100.0   15 
12/07/19   6.00   20.7   20.7   20.3    81   17.3   0.0   ---   0.00   0.0   ---   20.7   21.5   21.5   20.3   964.9  0.00   0.0     1     0.02      5     0.0  0.00   0.0   0.000   0.024   27.4    58   18.4   28.2    0.00   350    1    100.0   15 
12/07/19   6.15   20.6   20.7   20.4    81   17.2   0.0   ---   0.00   0.0   ---   20.6   21.4   21.4   20.3   964.9  0.00   0.0     7     0.15      9     0.0  0.00   0.0   0.000   0.024   27.2    59   18.5   28.0    0.00   352    1    100.0   15 
12/07/19   6.30   20.8   20.8   20.6    79   17.0   0.0   ---   0.00   0.0   ---   20.8   21.4   21.4   20.4   964.9  0.00   0.0    14     0.30     19     0.0  0.00   0.0   0.000   0.025   27.2    59   18.5   28.0    0.00   351    1    100.0   15 
12/07/19   6.45   21.1   21.2   20.8    79   17.3   0.0   ---   0.00   0.0   ---   21.1   21.7   21.7   20.9   964.9  0.00   0.0    32     0.69     42     0.0  0.00   0.0   0.000   0.029   27.1    59   18.4   27.8    0.00   351    1    100.0   15 
12/07/19   7.00   21.1   21.1   21.0    80   17.5   0.0   ---   0.00   0.0   ---   21.1   21.7   21.7   22.4   964.9  0.00   0.0    60     1.29     88     0.0  0.00   0.0   0.000   0.028   27.0    60   18.6   27.8    0.03   349    1    100.0   15 
12/07/19   7.15   22.0   22.0   21.1    79   18.2   0.0   ---   0.00   0.0   ---   22.0   22.7   22.7   24.8   964.9  0.00   0.0   118     2.54    176     0.0  0.00   0.0   0.000   0.038   27.0    60   18.6   27.8    0.00   351    1    100.0   15 
12/07/19   7.30   23.2   23.2   22.1    77   19.0   0.0   ---   0.00   0.0   ---   23.2   24.3   24.3   27.3   964.9  0.00   0.0   163     3.50    209     0.0  0.00   0.0   0.000   0.051   27.0    61   18.8   27.9    0.00   352    1    100.0   15 
12/07/19   7.45   23.4   23.4   23.2    78   19.4   0.0   ---   0.00   0.0   ---   23.4   24.6   24.6   26.1   964.9  0.00   0.0    99     2.13    104     0.0  0.00   0.0   0.000   0.053   27.1    62   19.1   28.1    0.00   351    1    100.0   15 
12/07/19   8.00   23.7   23.7   23.4    79   19.8   0.0   ---   0.00   0.0   ---   23.7   24.9   24.9   26.0   964.9  0.00   0.0    85     1.83    102     0.0  0.00   0.0   0.000   0.056   27.3    63   19.6   28.5    0.08   350    1    100.0   15 
12/07/19   8.15   24.0   24.0   23.7    78   19.9   0.0   ---   0.00   0.0   ---   24.0   25.3   25.3   27.0   964.9  0.00   0.0   116     2.49    158     0.0  0.00   0.0   0.000   0.059   27.3    64   19.9   28.6    0.00   349    1    100.0   15 
12/07/19   8.30   25.1   25.1   24.0    74   20.1   0.0   ---   0.00   0.0   ---   25.1   26.4   26.4   29.2   964.9  0.00   0.0   184     3.96    188     0.0  0.00   0.0   0.000   0.070   27.4    64   20.0   28.8    0.00   352    1    100.0   15 
12/07/19   8.45   25.8   25.8   25.0    72   20.4   0.0   ---   0.00   0.0   ---   25.8   27.2   27.2   29.6   964.9  0.00   0.0   174     3.74    190     0.0  0.00   0.0   0.000   0.078   27.6    64   20.2   29.2    0.00   351    1    100.0   15 
12/07/19   9.00   26.2   26.2   25.8    72   20.8   0.0     S   0.00   4.8     S   26.2   27.7   27.7   30.6   964.9  0.00   0.0   201     4.32    218     0.0  0.00   0.0   0.000   0.082   27.7    65   20.5   29.4    0.10   351    1    100.0   15 
12/07/19   9.15   26.9   27.0   26.1    72   21.5   3.2     S   0.80   9.7     S   26.9   28.8   28.8   34.9   964.9  0.00   0.0   481    10.34    640     0.0  0.00   0.0   0.000   0.090   27.8    66   20.9   29.8    0.00   351    1    100.0   15 
12/07/19   9.30   26.5   27.2   26.5    71   20.8   4.8     S   1.21  11.3     S   26.5   28.0   28.0   34.2   964.9  0.00   0.0   530    11.40    749     0.3  0.03   0.7   0.000   0.085   28.0    66   21.1   30.1    0.00   350    1    100.0   15 
12/07/19   9.45   26.8   26.8   26.3    72   21.4   6.4     S   1.61  14.5     S   26.8   28.7   28.7   34.2   964.9  0.00   0.0   452     9.72    786     0.3  0.03   0.8   0.000   0.089   28.0    67   21.3   30.2    0.00   350    1    100.0   15 
12/07/19  10.00   27.3   27.3   26.8    70   21.3   4.8     S   1.21  16.1     S   27.3   29.2   29.2   35.7   964.9  0.00   0.0   661    14.21    675     1.0  0.11   1.2   0.000   0.093   28.2    66   21.3   30.4    0.38   351    1    100.0   15 
12/07/19  10.15   27.3   27.4   26.8    71   21.6   6.4     S   1.61  16.1     S   27.3   29.3   29.3   35.8   964.9  0.00   0.0   656    14.11    670     1.3  0.14   1.5   0.000   0.093   28.3    66   21.4   30.7    0.00   350    1    100.0   15 
12/07/19  10.30   27.3   27.7   27.3    70   21.3   3.2     S   0.80  16.1     S   27.3   29.2   29.2   35.8   964.9  0.00   0.0   692    14.88    715     1.7  0.18   2.0   0.000   0.093   28.4    67   21.7   31.1    0.00   350    1    100.0   15 
12/07/19  10.45   27.2   27.3   27.0    71   21.5   6.4   SSE   1.61  19.3   SSE   27.2   29.2   29.2   35.8   964.9  0.00   0.0   730    15.70    747     2.1  0.22   2.3   0.000   0.093   28.4    66   21.5   30.9    0.00   351    1    100.0   15 
12/07/19  11.00   27.6   27.7   27.1    69   21.4   4.8   SSE   1.21  14.5   SSE   27.6   29.7   29.7   36.3   964.9  0.00   0.0   764    16.43    779     2.6  0.28   2.8   0.000   0.097   28.6    66   21.6   31.2    0.48   350    1    100.0   15 
12/07/19  11.15   28.2   28.2   27.4    66   21.2   4.8   SSE   1.21  17.7   SSE   28.2   30.4   30.4   36.9   964.9  0.00   0.0   811    17.44    863     3.0  0.32   3.1   0.000   0.102   28.8    65   21.5   31.5    0.00   350    1    100.0   15 
12/07/19  11.30   27.4   28.1   27.2    69   21.2   8.0   SSE   2.01  16.1   SSE   27.4   29.3   29.3   35.4   964.9  0.00   0.0   875    18.81    983     2.8  0.30   3.6   0.000   0.094   28.9    64   21.4   31.6    0.00   351    1    100.0   15 
12/07/19  11.45   27.1   27.4   26.9    69   20.9   8.0   SSE   2.01  19.3   SSE   27.1   28.7   28.7   35.4   964.9  0.00   0.0   788    16.94   1021     3.1  0.33   4.4   0.000   0.091   28.9    64   21.4   31.6    0.00   352    1    100.0   15 
12/07/19  12.00   27.6   27.9   27.1    66   20.7   6.4   SSE   1.61  14.5   SSE   27.6   29.4   29.4   35.5   964.9  0.00   0.0   940    20.21   1063     3.9  0.42   5.0   0.000   0.097   29.1    63   21.3   31.8    0.56   349    1    100.0   15 
12/07/19  12.15   28.3   28.4   27.5    65   21.1   4.8   SSE   1.21  16.1   SSE   28.3   30.5   30.5   37.2   964.9  0.00   0.0   863    18.56   1076     4.2  0.45   5.3   0.000   0.104   29.2    63   21.5   32.1    0.00   351    1    100.0   15 
12/07/19  12.30   28.7   29.0   27.9    63   20.9   4.8   SSE   1.21  17.7   SSE   28.7   30.9   30.9   37.6   964.9  0.00   0.0  1048    22.53   1102     5.1  0.55   5.7   0.000   0.108   29.6    61   21.2   32.3    0.00   350    1    100.0   15 
12/07/19  12.45   28.9   28.9   28.1    64   21.4   3.2   SSE   0.80  14.5   SSE   28.9   31.7   31.7   38.6   964.9  0.00   0.0   804    17.29    969     4.3  0.46   5.3   0.000   0.111   29.7    61   21.3   32.6    0.00   352    1    100.0   15 
12/07/19  13.00   27.9   29.4   27.9    61   19.7   4.8   SSE   1.21  16.1   SSE   27.9   29.4   29.4   36.2   964.9  0.00   0.0   833    17.91   1000     4.5  0.48   5.6   0.000   0.100   29.8    59   20.9   32.4    0.58   351    1    100.0   15 
12/07/19  13.15   27.6   28.3   27.6    66   20.7   4.8   SSE   1.21  16.1   SSE   27.6   29.4   29.4   35.2   964.9  0.00   0.0   571    12.28   1011     3.7  0.40   5.6   0.000   0.097   29.7    60   21.1   32.3    0.00   350    1    100.0   15 
12/07/19  13.30   28.1   28.1   27.4    64   20.7   3.2   SSE   0.80  11.3   SSE   28.1   30.0   30.0   34.9   964.9  0.00   0.0   468    10.06    772     2.8  0.30   4.5   0.000   0.102   29.6    60   21.0   32.1    0.00   348    1    100.0   15 
12/07/19  13.45   28.1   28.1   27.6    65   20.9   3.2   SSE   0.80  16.1   SSE   28.1   30.0   30.0   35.3   964.9  0.00   0.0   511    10.99    740     2.7  0.29   5.1   0.000   0.101   29.7    60   21.1   32.3    0.00   351    1    100.0   15 
12/07/19  14.00   27.8   28.3   27.7    65   20.6   1.6   SSE   0.40  11.3   SSE   27.8   29.6   29.6   34.2   964.9  0.00   0.0   434     9.33    492     2.2  0.24   4.4   0.000   0.098   29.7    61   21.3   32.6    0.38   352    1    100.0   15 
12/07/19  14.15   27.4   27.8   27.4    66   20.5   1.6   SSE   0.40  11.3   SSE   27.4   29.0   29.0   33.1   964.9  0.00   0.0   382     8.21    654     2.3  0.25   5.7   0.000   0.094   29.7    61   21.3   32.6    0.00   351    1    100.0   15 
12/07/19  14.30   27.6   27.8   27.2    64   20.1   4.8   SSE   1.21  16.1   SSE   27.6   29.1   29.1   33.9   964.9  0.00   0.0   458     9.85    990     2.7  0.29   4.9   0.000   0.096   29.8    60   21.2   32.6    0.00   351    1    100.0   15 
12/07/19  14.45   28.1   28.1   27.1    66   21.1   3.2   SSE   0.80  11.3   SSE   28.1   30.2   30.2   36.3   964.9  0.00   0.0   623    13.40    976     3.0  0.32   4.5   0.000   0.101   29.8    61   21.4   32.8    0.00   351    1    100.0   15 
12/07/19  15.00   28.5   28.7   28.1    62   20.5   3.2   SSE   0.80  14.5   SSE   28.5   30.4   30.4   36.7   964.9  0.00   0.0   867    18.64    918     4.1  0.44   4.4   0.000   0.106   30.0    60   21.4   33.1    0.43   352    1    100.0   15 
12/07/19  15.15   27.9   28.8   27.9    64   20.4   4.8   SSE   1.21  17.7   SSE   27.9   29.6   29.6   36.1   964.9  0.00   0.0   832    17.89    861     3.7  0.40   3.8   0.000   0.100   30.3    59   21.4   33.6    0.00   351    1    100.0   15 
12/07/19  15.30   28.6   28.8   27.9    62   20.6   3.2   SSE   0.80  11.3   SSE   28.6   30.6   30.6   36.9   964.9  0.00   0.0   820    17.63    872     3.4  0.36   3.6   0.000   0.106   30.4    59   21.5   33.8    0.00   351    1    100.0   15 
12/07/19  15.45   29.0   29.4   28.6    60   20.4   1.6   SSE   0.40  11.3   SSE   29.0   31.1   31.1   37.4   964.9  0.00   0.0   796    17.12    814     3.0  0.32   3.2   0.000   0.111   30.7    59   21.7   34.2    0.00   349    1    100.0   15 
12/07/19  16.00   29.4   29.6   28.8    59   20.5   3.2   SSE   0.80  17.7   SSE   29.4   31.6   31.6   37.9   964.9  0.00   0.0   808    17.37    833     2.7  0.29   2.9   0.000   0.115   30.9    58   21.7   34.3    0.56   351    1    100.0   15 
12/07/19  16.15   28.7   29.4   28.3    61   20.4   1.6   SSE   0.40  12.9   SSE   28.7   30.7   30.7   36.4   964.9  0.00   0.0   534    11.48    749     1.7  0.18   2.1   0.000   0.108   30.9    58   21.7   34.3    0.00   350    1    100.0   15 
12/07/19  16.30   27.8   28.7   27.7    63   20.1   6.4   SSE   1.61  16.1   SSE   27.8   29.3   29.3   35.7   964.9  0.00   0.0   687    14.77    735     1.8  0.19   2.0   0.000   0.098   31.0    56   21.2   34.0    0.00   351    1    100.0   15 
12/07/19  16.45   29.1   29.1   27.8    62   21.1   1.6   SSE   0.40   9.7   SSE   29.1   31.7   31.7   38.1   964.9  0.00   0.0   657    14.13    722     1.4  0.15   1.6   0.000   0.112   31.2    58   21.9   34.7    0.00   350    1    100.0   15 
12/07/19  17.00   28.1   29.2   28.1    65   20.9   4.8   SSE   1.21  16.1   SSE   28.1   30.0   30.0   36.4   964.9  0.00   0.0   609    13.10    626     1.1  0.12   1.2   0.000   0.101   31.2    58   21.9   34.7    0.43   351    1    100.0   15 
12/07/19  17.15   28.4   28.8   28.1    63   20.7   3.2   SSE   0.80  19.3   SSE   28.4   30.5   30.5   36.8   964.9  0.00   0.0   570    12.26    589     0.8  0.09   0.9   0.000   0.105   31.2    58   21.9   34.7    0.00   351    1    100.0   15 
12/07/19  17.30   29.2   29.4   28.4    58   20.1   3.2   SSE   0.80  11.3   SSE   29.2   31.2   31.2   37.4   964.9  0.00   0.0   531    11.42    550     0.5  0.05   0.6   0.000   0.113   31.0    56   21.2   34.0    0.00   351    1    100.0   15 
12/07/19  17.45   28.7   29.2   28.6    61   20.4   3.2   SSE   0.80  14.5   SSE   28.7   30.7   30.7   36.8   964.9  0.00   0.0   490    10.54    508     0.5  0.05   0.6   0.000   0.108   31.2    56   21.3   34.3    0.00   350    1    100.0   15 
12/07/19  18.00   28.7   29.3   28.7    60   20.1   3.2   SSE   0.80  16.1   SSE   28.7   30.5   30.5   36.4   964.9  0.00   0.0   448     9.63    469     0.1  0.01   0.5   0.000   0.108   31.2    56   21.3   34.3    0.36   351    1    100.0   15 
12/07/19  18.15   28.7   29.0   28.4    61   20.5   1.6   SSE   0.40  11.3   SSE   28.7   30.8   30.8   36.5   964.9  0.00   0.0   405     8.71    427     0.0  0.00   0.0   0.000   0.108   31.0    56   21.2   34.0    0.00   350    1    100.0   15 
12/07/19  18.30   27.8   29.2   27.8    65   20.6   1.6   SSE   0.40  11.3   SSE   27.8   29.7   29.7   35.1   964.9  0.00   0.0   360     7.74    381     0.0  0.00   0.0   0.000   0.099   30.9    58   21.7   34.3    0.00   351    1    100.0   15 
12/07/19  18.45   28.3   28.3   27.8    61   20.1   1.6   SSE   0.40   9.7   SSE   28.3   29.9   29.9   34.9   964.9  0.00   0.0   315     6.77    343     0.0  0.00   0.0   0.000   0.104   30.7    56   20.9   33.6    0.00   350    1    100.0   15 
12/07/19  19.00   28.4   28.7   28.3    60   19.9   1.6   SSE   0.40  11.3   SSE   28.4   29.9   29.9   34.6   964.9  0.00   0.0   278     5.98    318     0.0  0.00   0.0   0.000   0.105   30.6    56   20.8   33.4    0.23   350    1    100.0   15 
12/07/19  19.15   28.4   28.5   28.3    62   20.4   1.6     S   0.40   9.7     S   28.4   30.2   30.2   34.3   964.9  0.00   0.0   236     5.07    255     0.0  0.00   0.0   0.000   0.105   30.4    57   21.0   33.4    0.00   352    1    100.0   15 
12/07/19  19.30   27.9   28.4   27.9    65   20.7   1.6    SE   0.40   8.0    SE   27.9   29.7   29.7   33.0   964.9  0.00   0.0   186     4.00    213     0.0  0.00   0.0   0.000   0.100   30.3    58   21.1   33.3    0.00   351    1    100.0   15 
12/07/19  19.45   27.6   27.9   27.6    66   20.6   0.0    SE   0.00   8.0    SE   27.6   29.3   29.3   31.5   964.9  0.00   0.0   134     2.88    158     0.0  0.00   0.0   0.000   0.096   30.1    58   20.9   32.9    0.00   351    1    100.0   15 
12/07/19  20.00   27.1   27.6   27.1    70   21.1   3.2    SE   0.80  11.3    SE   27.1   28.8   28.8   28.4   964.9  0.00   0.0    58     1.25    109     0.0  0.00   0.0   0.000   0.091   29.9    61   21.6   33.1    0.13   349    1    100.0   15 
12/07/19  20.15   26.7   27.1   26.7    73   21.5   1.6    SE   0.40   8.0    SE   26.7   28.6   28.6   27.8   964.9  0.00   0.0    25     0.54     28     0.0  0.00   0.0   0.000   0.087   29.8    63   22.0   33.2    0.00   350    1    100.0   15 
12/07/19  20.30   26.6   26.7   26.6    76   22.0   0.0    SE   0.00   3.2    SE   26.6   28.6   28.6   27.8   964.9  0.00   0.0    19     0.41     21     0.0  0.00   0.0   0.000   0.086   29.8    64   22.2   33.4    0.00   351    1    100.0   15 
12/07/19  20.45   26.3   26.6   26.3    76   21.8   0.0    SE   0.00   1.6    SE   26.3   28.2   28.2   27.3   964.9  0.00   0.0    12     0.26     14     0.0  0.00   0.0   0.000   0.083   29.7    65   22.4   33.3    0.00   349    1    100.0   15 
12/07/19  21.00   26.0   26.3   26.0    74   21.0   0.0    SE   0.00   1.6    SE   26.0   27.6   27.6   26.5   964.9  0.00   0.0     4     0.09      7     0.0  0.00   0.0   0.000   0.080   29.7    65   22.4   33.3    0.03   351    1    100.0   15 
12/07/19  21.15   25.8   26.1   25.8    74   20.8   0.0   ---   0.00   0.0   ---   25.8   27.2   27.2   26.1   964.9  0.00   0.0     0     0.00      0     0.0  0.00   0.0   0.000   0.078   29.7    63   21.9   32.9    0.00   351    1    100.0   15 
12/07/19  21.30   25.6   25.8   25.6    72   20.2   0.0   ---   0.00   0.0   ---   25.6   26.9   26.9   25.8   964.9  0.00   0.0     0     0.00      0     0.0  0.00   0.0   0.000   0.076   29.6    63   21.8   32.7    0.00   351    1    100.0   15 
12/07/19  21.45   25.2   25.6   25.2    71   19.6   0.0    SE   0.00   1.6    SE   25.2   26.4   26.4   25.2   964.9  0.00   0.0     0     0.00      0     0.0  0.00   0.0   0.000   0.072   29.4    61   21.1   32.1    0.00   351    1    100.0   15 
12/07/19  22.00   25.5   25.5   25.1    73   20.3   1.6    SE   0.40  11.3    SE   25.5   26.8   26.8   25.7   964.9  0.00   0.0     0     0.00      0     0.0  0.00   0.0   0.000   0.075   29.3    61   21.0   31.9    0.00   350    1    100.0   15 
12/07/19  22.15   25.7   25.9   25.5    72   20.3   4.8   ESE   1.21  14.5    SE   25.7   27.0   27.0   25.9   964.9  0.00   0.0     0     0.00      0     0.0  0.00   0.0   0.000   0.077   29.4    61   21.1   32.1    0.00   351    1    100.0   15 
12/07/19  22.30   25.6   25.8   25.6    74   20.6   1.6   ESE   0.40   8.0   ESE   25.6   26.9   26.9   25.8   964.9  0.00   0.0     0     0.00      0     0.0  0.00   0.0   0.000   0.075   29.4    61   21.1   32.1    0.00   352    1    100.0   15 
12/07/19  22.45   24.6   25.6   24.5    75   19.8   0.0   ESE   0.00   3.2   ESE   24.6   25.9   25.9   24.7   964.9  0.00   0.0     0     0.00      0     0.0  0.00   0.0   0.000   0.065   29.3    61   21.0   31.9    0.00   350    1    100.0   15 
12/07/19  23.00   24.3   24.6   24.3    76   19.8   0.0   ---   0.00   0.0   ---   24.3   25.7   25.7   24.5   964.9  0.00   0.0     0     0.00      0     0.0  0.00   0.0   0.000   0.063   29.1    61   20.8   31.5    0.03   351    1    100.0   15 
12/07/19  23.15   24.2   24.3   24.1    77   19.9   0.0   ---   0.00   0.0   ---   24.2   25.5   25.5   24.3   964.9  0.00   0.0     0     0.00      0     0.0  0.00   0.0   0.000   0.061   28.8    61   20.5   30.9    0.00   350    1    100.0   15 
12/07/19  23.30   23.7   24.3   23.7    77   19.4   0.0   ---   0.00   0.0   ---   23.7   24.8   24.8   23.6   964.9  0.00   0.0     0     0.00      0     0.0  0.00   0.0   0.000   0.056   28.8    62   20.8   31.1    0.00   352    1    100.0   15 
12/07/19  23.45   23.2   23.7   23.2    77   19.0   0.0   ---   0.00   0.0   ---   23.2   24.3   24.3   23.1   964.9  0.00   0.0     0     0.00      0     0.0  0.00   0.0   0.000   0.051   28.6    61   20.3   30.4    0.00   350    1    100.0   15 
13/07/19  00.00   23.1   23.2   23.1    79   19.2   0.0   ESE   0.00   1.6   ESE   23.1   24.1   24.1   22.9   964.9  0.00   0.0     0     0.00      0     0.0  0.00   0.0   0.000   0.049   28.4    61   20.2   30.2    0.03   351    1    100.0   15 
13/07/19   0.15   22.8   23.1   22.8    80   19.2   0.0   ---   0.00   0.0   ---   22.8   23.8   23.8   22.6   964.9  0.00   0.0     0     0.00      0     0.0  0.00   0.0   0.000   0.047   28.3    62   20.4   30.1    0.00   349    1    100.0   15 
13/07/19   0.30   22.7   22.9   22.6    81   19.2   0.0   ---   0.00   0.0   ---   22.7   23.7   23.7   22.4   964.9  0.00   0.0     0     0.00      0     0.0  0.00   0.0   0.000   0.045   28.2    63   20.5   30.1    0.00   351    1    100.0   15 
13/07/19   0.45   22.5   22.7   22.4    80   18.9   0.0   ---   0.00   0.0   ---   22.5   23.4   23.4   22.2   964.9  0.00   0.0     0     0.00      0     0.0  0.00   0.0   0.000   0.043   28.2    62   20.2   29.9    0.00   351    1    100.0   15 
13/07/19   1.00   22.3   22.6   22.3    82   19.1   0.0   ---   0.00   0.0   ---   22.3   23.2   23.2   22.0   964.9  0.00   0.0     0     0.00      0     0.0  0.00   0.0   0.000   0.042   28.2    62   20.2   29.9    0.03   352    1    100.0   15 
13/07/19   1.15   22.1   22.3   22.1    83   19.0   0.0   ---   0.00   0.0   ---   22.1   22.9   22.9   21.7   964.9  0.00   0.0     0     0.00      0     0.0  0.00   0.0   0.000   0.039   28.2    63   20.5   30.1    0.00   351    1    100.0   15 
13/07/19   1.30   21.6   22.1   21.6    84   18.8   0.0   ---   0.00   0.0   ---   21.6   22.6   22.6   21.3   964.9  0.00   0.0     0     0.00      0     0.0  0.00   0.0   0.000   0.034   28.2    63   20.5   30.1    0.00   351    1    100.0   15 
13/07/19   1.45   21.6   21.7   21.6    83   18.6   0.0   ---   0.00   0.0   ---   21.6   22.5   22.5   21.3   964.9  0.00   0.0     0     0.00      0     0.0  0.00   0.0   0.000   0.034   28.2    62   20.2   29.9    0.00   351    1    100.0   15 
13/07/19   2.00   21.6   21.7   21.6    83   18.6   0.0   ---   0.00   0.0   ---   21.6   22.5   22.5   21.3   964.9  0.00   0.0     0     0.00      0     0.0  0.00   0.0   0.000   0.034   28.2    62   20.2   29.9    0.03   352    1    100.0   15 
13/07/19   2.15   21.4   21.7   21.4    83   18.4   0.0   ---   0.00   0.0   ---   21.4   22.3   22.3   21.1   964.9  0.00   0.0     0     0.00      0     0.0  0.00   0.0   0.000   0.032   28.2    62   20.2   29.9    0.00   350    1    100.0   15 
13/07/19   2.30   21.7   21.7   21.4    84   18.9   0.0   ---   0.00   0.0   ---   21.7   22.7   22.7   21.4   964.9  0.00   0.0     0     0.00      0     0.0  0.00   0.0   0.000   0.035   28.0    62   20.0   29.6    0.00   351    1    100.0   15 
13/07/19   2.45   21.8   21.9   21.7    83   18.8   0.0   ---   0.00   0.0   ---   21.8   22.7   22.7   21.5   964.9  0.00   0.0     0     0.00      0     0.0  0.00   0.0   0.000   0.036   27.9    62   19.9   29.4    0.00   349    1    100.0   15 
13/07/19   3.00   21.9   21.9   21.7    83   18.9   0.0   ---   0.00   0.0   ---   21.9   22.8   22.8   21.6   964.9  0.00   0.0     0     0.00      0     0.0  0.00   0.0   0.000   0.038   27.8    62   19.9   29.3    0.03   351    1    100.0   15 
13/07/19   3.15   21.8   22.1   21.8    83   18.8   0.0   ---   0.00   0.0   ---   21.8   22.7   22.7   21.5   964.9  0.00   0.0     0     0.00      0     0.0  0.00   0.0   0.000   0.036   27.8    63   20.1   29.4    0.00   352    1    100.0   15 
13/07/19   3.30   21.8   21.9   21.8    84   19.0   0.0   ---   0.00   0.0   ---   21.8   22.8   22.8   21.6   964.9  0.00   0.0     0     0.00      0     0.0  0.00   0.0   0.000   0.036   27.8    63   20.1   29.4    0.00   351    1    100.0   15 
13/07/19   3.45   22.0   22.1   21.8    85   19.4   0.0   ---   0.00   0.0   ---   22.0   23.0   23.0   21.8   964.9  0.00   0.0     0     0.00      0     0.0  0.00   0.0   0.000   0.038   27.7    63   20.0   29.2    0.00   350    1    100.0   15 
13/07/19   4.00   21.5   21.9   21.4    85   18.9   0.0   ---   0.00   0.0   ---   21.5   22.4   22.4   21.2   964.9  0.00   0.0     0     0.00      0     0.0  0.00   0.0   0.000   0.033   27.7    63   20.0   29.2    0.03   351    1    100.0   15 
13/07/19   4.15   21.6   21.7   21.5    85   19.0   0.0   ---   0.00   0.0   ---   21.6   22.6   22.6   21.4   964.9  0.00   0.0     0     0.00      0     0.0  0.00   0.0   0.000   0.034   27.7    64   20.3   29.3    0.00   351    1    100.0   15 
13/07/19   4.30   22.1   22.1   21.6    85   19.5   0.0   ---   0.00   0.0   ---   22.1   23.1   23.1   21.9   964.9  0.00   0.0     0     0.00      0     0.0  0.00   0.0   0.000   0.039   27.6    64   20.2   29.2    0.00   351    1    100.0   15 
13/07/19   4.45   21.9   22.2   21.8    85   19.3   0.0   ---   0.00   0.0   ---   21.9   22.9   22.9   21.7   964.9  0.00   0.0     0     0.00      0     0.0  0.00   0.0   0.000   0.037   27.6    64   20.2   29.2    0.00   351    1    100.0   15 
13/07/19   5.00   21.2   21.8   21.2    86   18.8   0.0   ESE   0.00   1.6   ESE   21.2   22.2   22.2   20.9   964.9  0.00   0.0     0     0.00      0     0.0  0.00   0.0   0.000   0.030   27.6    64   20.2   29.2    0.03   351    1    100.0   15 
13/07/19   5.15   21.6   21.8   21.2    86   19.1   0.0   ESE   0.00   1.6   ESE   21.6   22.6   22.6   21.3   964.9  0.00   0.0     0     0.00      0     0.0  0.00   0.0   0.000   0.034   27.5    64   20.1   29.0    0.00   352    1    100.0   15 
13/07/19   5.30   22.2   22.2   21.6    86   19.8   0.0   ESE   0.00   1.6   ESE   22.2   23.3   23.3   22.1   964.9  0.00   0.0     0     0.00      0     0.0  0.00   0.0   0.000   0.041   27.5    64   20.1   29.0    0.00   351    1    100.0   15 
13/07/19   5.45   22.1   22.3   21.9    86   19.7   0.0   ---   0.00   0.0   ---   22.1   23.2   23.2   22.0   964.9  0.00   0.0     0     0.00      0     0.0  0.00   0.0   0.000   0.039   27.5    65   20.3   29.1    0.00   349    1    100.0   15 
13/07/19   6.00   21.9   22.1   21.8    86   19.5   0.0   ---   0.00   0.0   ---   21.9   23.0   23.0   21.9   964.9  0.00   0.0     3     0.06      7     0.0  0.00   0.0   0.000   0.038   27.3    66   20.4   28.8    0.00   351    1    100.0   15 
13/07/19   6.15   22.2   22.4   21.9    86   19.8   0.0   ---   0.00   0.0   ---   22.2   23.3   23.3   22.3   964.9  0.00   0.0    13     0.28     19     0.0  0.00   0.0   0.000   0.041   27.2    66   20.3   28.6    0.00   352    1    100.0   15 
13/07/19   6.30   22.3   22.3   22.1    86   19.8   0.0   ---   0.00   0.0   ---   22.3   23.3   23.3   22.4   964.9  0.00   0.0    22     0.47     32     0.0  0.00   0.0   0.000   0.041   27.1    67   20.4   28.6    0.00   350    1    100.0   15 
13/07/19   6.45   22.5   22.5   22.3    86   20.0   0.0   ESE   0.00   1.6   ESE   22.5   23.6   23.6   23.1   964.9  0.00   0.0    49     1.05     67     0.0  0.00   0.0   0.000   0.043   27.1    68   20.6   28.7    0.00   350    1    100.0   15 
13/07/19   7.00   23.2   23.2   22.4    86   20.7   0.0   ESE   0.00   1.6   ESE   23.2   24.4   24.4   25.9   964.9  0.00   0.0    84     1.81    104     0.0  0.00   0.0   0.000   0.051   27.1    69   20.9   28.7    0.03   349    1    100.0   15 
13/07/19   7.15   23.5   23.5   23.2    86   21.0   0.0    SE   0.00   1.6    SE   23.5   24.9   24.9   27.3   964.9  0.00   0.0   127     2.73    149     0.0  0.00   0.0   0.000   0.054   27.1    69   20.9   28.7    0.00   351    1    100.0   15 
13/07/19   7.30   24.8   24.8   23.5    85   22.1   0.0   ---   0.00   0.0   ---   24.8   26.7   26.7   30.1   964.9  0.00   0.0   178     3.83    204     0.0  0.00   0.0   0.000   0.067   27.3    70   21.3   29.2    0.00   351    1    100.0   15 
13/07/19   7.45   25.6   25.6   24.8    82   22.3   0.0   ---   0.00   0.0   ---   25.6   27.6   27.6   32.0   964.9  0.00   0.0   237     5.10    258     0.0  0.00   0.0   0.000   0.075   27.4    71   21.7   29.6    0.00   351    1    100.0   15 
13/07/19   8.00   26.4   26.5   25.6    79   22.5   1.6    SE   0.40   9.7    SE   26.4   28.6   28.6   33.5   964.9  0.00   0.0   281     6.04    297     0.0  0.00   0.0   0.000   0.084   27.6    71   21.9   30.0    0.13   350    1    100.0   15 
13/07/19   8.15   26.5   26.6   26.4    77   22.1   3.2    SE   0.80  11.3    SE   26.5   28.6   28.6   33.8   964.9  0.00   0.0   321     6.90    343     0.0  0.00   0.0   0.000   0.085   27.6    71   21.9   30.0    0.00   351    1    100.0   15 
13/07/19   8.30   26.6   26.7   26.5    77   22.2   4.8    SE   1.21  14.5    SE   26.6   28.7   28.7   34.2   964.9  0.00   0.0   366     7.87    387     0.0  0.00   0.0   0.000   0.086   27.7    72   22.2   30.3    0.00   352    1    100.0   15 
13/07/19   8.45   26.7   26.7   26.4    78   22.5   4.8    SE   1.21  12.9    SE   26.7   28.9   28.9   34.9   964.9  0.00   0.0   424     9.12    503     0.0  0.00   0.0   0.000   0.087   27.8    72   22.3   30.6    0.00   351    1    100.0   15 
13/07/19   9.00   26.9   27.2   26.7    77   22.6   3.2    SE   0.80  14.5    SE   26.9   29.4   29.4   35.4   964.9  0.00   0.0   447     9.61    469     0.0  0.00   0.0   0.000   0.090   27.9    73   22.6   30.8    0.25   351    1    100.0   15 
13/07/19   9.15   26.7   26.9   26.6    78   22.5   8.0    SE   2.01  17.7    SE   26.7   28.9   28.9   35.2   964.9  0.00   0.0   496    10.67    519     0.0  0.00   0.0   0.000   0.087   28.0    72   22.5   30.9    0.00   349    1    100.0   15 
13/07/19   9.30   26.9   26.9   26.7    76   22.3   8.0    SE   2.01  20.9    SE   26.9   29.2   29.2   35.6   964.9  0.00   0.0   583    12.54    629     0.0  0.00   0.0   0.000   0.089   28.1    71   22.4   31.1    0.00   352    1    100.0   15 
13/07/19   9.45   26.9   26.9   26.7    75   22.1   8.0   SSE   2.01  17.7   SSE   26.9   29.1   29.1   35.4   964.9  0.00   0.0   563    12.11    612     0.4  0.04   0.7   0.000   0.089   28.1    71   22.4   31.1    0.00   350    1    100.0   15 
13/07/19  10.00   26.9   27.2   26.9    77   22.6   9.7   SSE   2.41  17.7   SSE   26.9   29.4   29.4   35.9   964.9  0.00   0.0   639    13.74    686     0.9  0.10   1.1   0.000   0.090   28.2    71   22.5   31.3    0.38   350    1    100.0   15 
13/07/19  10.15   27.1   27.1   26.9    77   22.7   9.7   SSE   2.41  20.9   SSE   27.1   29.6   29.6   35.8   964.9  0.00   0.0   714    15.35    788     1.2  0.13   1.4   0.000   0.091   28.3    72   22.8   31.7    0.00   350    1    100.0   15 
13/07/19  10.30   26.7   27.1   26.7    78   22.5   9.7   SSE   2.41  20.9    SE   26.7   28.9   28.9   35.1   964.9  0.00   0.0   568    12.21    868     0.7  0.07   1.3   0.000   0.087   28.4    72   22.9   32.0    0.00   350    1    100.0   15 
13/07/19  10.45   26.5   26.8   26.4    78   22.3   9.7    SE   2.41  22.5    SE   26.5   28.7   28.7   34.6   964.9  0.00   0.0   546    11.74    853     0.9  0.10   1.6   0.000   0.085   28.4    72   22.9   32.0    0.00   352    1    100.0   15 
13/07/19  11.00   26.7   26.8   26.5    78   22.6   8.0   SSE   2.01  20.9   SSE   26.7   29.1   29.1   32.4   964.9  0.00   0.0   293     6.30    315     1.0  0.11   2.1   0.000   0.087   28.4    72   22.9   32.0    0.41   350    1    100.0   15 
13/07/19  11.15   26.7   26.9   26.7    78   22.6   6.4   SSE   1.61  17.7    SE   26.7   29.1   29.1   32.1   964.9  0.00   0.0   271     5.83    554     0.3  0.03   1.7   0.000   0.087   28.6    72   23.0   32.3    0.00   350    1    100.0   15 
13/07/19  11.30   26.8   26.9   26.6    78   22.7   6.4   SSE   1.61  19.3    SE   26.8   29.3   29.3   32.8   964.9  0.00   0.0   315     6.77    425     0.3  0.03   2.2   0.000   0.089   28.6    72   23.0   32.3    0.00   351    1    100.0   15 
13/07/19  11.45   26.6   26.8   26.4    79   22.6   4.8   SSE   1.21  17.7   SSE   26.6   28.9   28.9   31.1   964.9  0.00   0.0   211     4.54    271     0.0  0.00   0.0   0.000   0.086   28.6    72   23.0   32.3    0.00   352    1    100.0   15 
13/07/19  12.00   27.3   27.3   26.3    78   23.2   6.4   SSE   1.61  17.7   SSE   27.3   30.3   30.3   36.4   964.9  0.00   0.0   615    13.22    954     2.7  0.29   4.1   0.000   0.094   28.7    72   23.1   32.6    0.28   351    1    100.0   15 
13/07/19  12.15   27.2   27.7   27.2    77   22.8   8.0   SSE   2.01  19.3   SSE   27.2   29.9   29.9   36.8   964.9  0.00   0.0   792    17.03   1013     2.9  0.31   4.2   0.000   0.093   28.9    72   23.3   33.1    0.00   351    1    100.0   15 
13/07/19  12.30   27.8   27.8   27.0    76   23.2   4.8    SE   1.21  17.7    SE   27.8   31.1   31.1   37.3   964.9  0.00   0.0   968    20.81    979     3.7  0.40   4.6   0.000   0.099   29.1    71   23.3   33.4    0.00   350    1    100.0   15 
13/07/19  12.45   27.8   28.0   27.5    76   23.2   6.4   SSE   1.61  17.7   SSE   27.8   31.1   31.1   37.3   964.9  0.00   0.0   617    13.27   1002     3.2  0.34   4.7   0.000   0.099   29.3    71   23.5   33.8    0.00   352    1    100.0   15 
13/07/19  13.00   28.3   28.9   27.7    74   23.2   3.2    SE   0.80  16.1   SSE   28.3   31.9   31.9   38.6   964.9  0.00   0.0   916    19.70    937     4.7  0.50   4.8   0.000   0.104   29.6    71   23.7   34.3    0.53   350    1    100.0   15 
13/07/19  13.15   28.0   28.7   27.9    73   22.7   4.8    SE   1.21  20.9    SE   28.0   31.1   31.1   37.9   964.9  0.00   0.0   895    19.25    902     4.8  0.51   4.9   0.000   0.101   29.9    70   23.8   34.9    0.00   350    1    100.0   15 
13/07/19  13.30   29.6   29.7   27.8    61   21.2   6.4    NE   1.61  14.5     E   29.6   32.3   32.3   39.0   964.9  0.00   0.0   894    19.22    902     4.8  0.51   4.8   0.000   0.117   30.0    66   23.0   34.3    0.00   351    1    100.0   15 
13/07/19  13.45   28.8   29.6   28.7    63   21.1   9.7   NNE   2.41  22.5    NE   28.8   31.3   31.3   37.9   964.9  0.00   0.0   895    19.25    900     4.8  0.51   4.9   0.000   0.109   30.1    64   22.5   34.2    0.00   352    1    100.0   15 
13/07/19  14.00   29.2   29.4   28.2    67   22.5  12.9   NNE   3.22  35.4   NNE   29.1   32.8   32.7   38.9   964.9  0.00   0.0   897    19.29    905     4.7  0.50   4.8   0.000   0.113   30.1    64   22.5   34.2    0.63   350    1    100.0   15 
13/07/19  14.15   28.6   29.3   28.4    68   22.1  14.5   NNE   3.62  32.2   NNE   28.1   31.6   31.1   37.2   964.9  0.00   0.0   883    18.99    888     4.5  0.48   4.6   0.000   0.106   30.2    64   22.7   34.4    0.00   351    1    100.0   15 
13/07/19  14.30   29.0   29.2   28.4    67   22.2  11.3   NNE   2.82  25.7     N   29.0   32.4   32.4   38.9   964.9  0.00   0.0   872    18.75    881     4.3  0.46   4.4   0.000   0.111   30.3    64   22.8   34.6    0.00   349    1    100.0   15 
13/07/19  14.45   29.2   29.3   28.8    64   21.7   9.7   NNE   2.41  24.1   NNE   29.2   32.1   32.1   38.6   964.9  0.00   0.0   875    18.81    884     4.0  0.43   4.1   0.000   0.113   30.6    64   23.0   35.1    0.00   350    1    100.0   15 
13/07/19  15.00   28.9   29.5   28.5    64   21.4  12.9   NNE   3.22  25.7   NNE   28.8   31.7   31.6   37.2   964.9  0.00   0.0   886    19.05    909     3.6  0.39   4.0   0.000   0.111   30.7    62   22.6   34.8    0.63   352    1    100.0   15 
13/07/19  15.15   28.9   29.1   28.6    63   21.1  14.5   NNE   3.62  25.7   NNE   28.5   31.4   31.1   37.1   964.9  0.00   0.0   818    17.59    898     3.2  0.34   3.7   0.000   0.110   30.7    61   22.3   34.6    0.00   347    1    100.0   15 
13/07/19  15.30   29.8   29.8   28.9    62   21.8  12.9   NNE   3.22  29.0    NE   29.7   33.1   33.0   39.3   964.9  0.00   0.0   782    16.82    826     3.0  0.32   3.2   0.000   0.120   30.8    61   22.4   34.7    0.00   350    1    100.0   15 
13/07/19  15.45   29.8   30.1   29.4    63   22.0   9.7   NNE   2.41  24.1   NNE   29.8   33.3   33.3   39.8   964.9  0.00   0.0   660    14.19    823     2.2  0.24   2.8   0.000   0.120   30.9    61   22.5   34.9    0.00   342    1    100.0   15 
13/07/19  16.00   29.4   29.9   29.3    64   21.9   9.7   NNW   2.41  25.7   NNE   29.4   32.6   32.6   38.9   964.9  0.00   0.0   763    16.41    798     2.4  0.26   2.6   0.000   0.115   31.0    61   22.6   35.0    0.56   344    1    100.0   15 
13/07/19  16.15   29.5   29.8   29.4    63   21.7   6.4    NE   1.61  20.9   NNE   29.5   32.6   32.6   39.1   964.9  0.00   0.0   714    15.35    738     2.0  0.21   2.2   0.000   0.116   31.2    61   22.8   35.3    0.00   350    1    100.0   15 
13/07/19  16.30   29.7   30.1   29.5    62   21.7  12.9   NNE   3.22  27.4   NNE   29.6   32.9   32.8   38.9   964.9  0.00   0.0   680    14.62    691     1.7  0.18   1.8   0.000   0.119   31.2    60   22.5   35.1    0.00   350    1    100.0   15 
13/07/19  16.45   29.8   30.0   29.6    61   21.5  16.1   NNE   4.02  29.0     N   29.4   32.9   32.4   38.1   964.9  0.00   0.0   649    13.96    666     1.3  0.14   1.5   0.000   0.120   31.2    60   22.5   35.1    0.00   349    1    100.0   15 
13/07/19  17.00   29.6   30.2   29.6    62   21.6  12.9     N   3.22  29.0   NNW   29.5   32.6   32.5   38.5   964.9  0.00   0.0   614    13.20    628     1.0  0.11   1.1   0.000   0.117   31.3    60   22.6   35.3    0.51   343    1    100.0   15 
13/07/19  17.15   29.9   30.0   29.4    59   21.0  12.9   NNW   3.22  30.6     N   29.8   32.6   32.5   38.4   964.9  0.00   0.0   575    12.36    592     0.7  0.07   0.8   0.000   0.120   31.3    58   22.0   34.9    0.00   350    1    100.0   15 
13/07/19  17.30   29.6   30.2   29.4    63   21.8  11.3     N   2.82  24.1     N   29.6   32.7   32.7   38.8   964.9  0.00   0.0   536    11.53    550     0.6  0.06   0.6   0.000   0.117   31.3    59   22.3   35.2    0.00   351    1    100.0   15 
13/07/19  17.45   29.0   29.6   29.0    63   21.2  16.1   NNW   4.02  37.0   NNE   28.4   31.7   31.1   36.4   964.9  0.00   0.0   497    10.69    520     0.3  0.03   0.5   0.000   0.111   31.4    60   22.7   35.6    0.00   329    1     96.2   15 
13/07/19  18.00   28.4   29.1   28.4    69   22.2  14.5     N   3.62  29.0   NNE   28.0   31.4   31.0   36.4   964.9  0.00   0.0   452     9.72    473     0.0  0.00   0.0   0.000   0.105   31.4    61   23.0   35.8    0.43   349    1    100.0   15 
13/07/19  18.15   27.9   28.4   27.9    73   22.6  17.7   NNE   4.43  33.8   NNE   26.9   30.8   29.9   34.7   964.9  0.00   0.0   411     8.84    431     0.0  0.00   0.0   0.000   0.100   31.3    62   23.1   35.8    0.00   352    1    100.0   15 
13/07/19  18.30   27.8   27.9   27.7    73   22.5  17.7   NNE   4.43  35.4     N   26.9   30.7   29.8   34.3   964.9  0.00   0.0   365     7.85    385     0.0  0.00   0.0   0.000   0.099   31.3    63   23.4   36.0    0.00   348    1    100.0   15 
13/07/19  18.45   27.8   27.8   27.6    75   22.9  17.7     N   4.43  35.4     N   26.8   30.8   29.9   34.2   964.9  0.00   0.0   319     6.86    343     0.0  0.00   0.0   0.000   0.098   31.2    64   23.5   35.9    0.00   349    1    100.0   15 
13/07/19  19.00   27.5   27.8   27.4    75   22.7  19.3   NNW   4.83  35.4   NNW   26.4   30.3   29.2   33.1   964.9  0.00   0.0   276     5.93    295     0.0  0.00   0.0   0.000   0.095   31.0    64   23.4   35.7    0.30   348    1    100.0   15 
13/07/19  19.15   27.3   27.7   27.2    76   22.7  14.5   NNW   3.62  35.4     N   26.8   30.1   29.5   33.3   964.9  0.00   0.0   234     5.03    253     0.0  0.00   0.0   0.000   0.094   31.0    65   23.6   35.9    0.00   349    1    100.0   15 
13/07/19  19.30   27.1   27.4   27.1    77   22.7  14.5   NNW   3.62  29.0   NNW   26.5   29.6   29.1   32.0   964.9  0.00   0.0   180     3.87    207     0.0  0.00   0.0   0.000   0.091   30.9    65   23.5   35.7    0.00   350    1    100.0   15 
13/07/19  19.45   27.0   27.1   26.9    77   22.6  16.1   NNW   4.02  35.4   NNW   26.2   29.5   28.7   30.6   964.9  0.00   0.0   124     2.67    151     0.0  0.00   0.0   0.000   0.090   30.7    65   23.3   35.4    0.00   348    1    100.0   15 
13/07/19  20.00   26.8   27.1   26.8    77   22.4  12.9     N   3.22  29.0   NNE   26.6   29.1   28.8   28.6   964.9  0.00   0.0    58     1.25    104     0.0  0.00   0.0   0.000   0.088   30.4    66   23.4   35.3    0.15   331    1     96.8   15 
13/07/19  20.15   26.7   26.8   26.7    77   22.3   9.7   NNE   2.41  24.1   NNE   26.7   28.9   28.9   28.2   964.9  0.00   0.0    27     0.58     32     0.0  0.00   0.0   0.000   0.087   30.4    66   23.4   35.3    0.00   351    1    100.0   15 
13/07/19  20.30   26.4   26.7   26.4    79   22.5   8.0   NNE   2.01  25.7    NE   26.4   28.7   28.7   27.9   964.9  0.00   0.0    20     0.43     23     0.0  0.00   0.0   0.000   0.084   30.3    66   23.3   35.1    0.00   350    1    100.0   15 
13/07/19  20.45   26.3   26.4   26.3    80   22.6   6.4   NNE   1.61  19.3     N   26.3   28.6   28.6   27.8   964.9  0.00   0.0    12     0.26     16     0.0  0.00   0.0   0.000   0.083   30.2    67   23.4   35.0    0.00   351    1    100.0   15 
13/07/19  21.00   26.2   26.3   26.2    80   22.4   6.4   NNE   1.61  20.9   NNE   26.2   28.3   28.3   27.4   964.9  0.00   0.0     4     0.09      9     0.0  0.00   0.0   0.000   0.082   30.1    67   23.3   34.8    0.05   351    1    100.0   15 
13/07/19  21.15   26.1   26.2   26.1    81   22.5   6.4   NNE   1.61  20.9   NNE   26.1   28.2   28.2   27.2   964.9  0.00   0.0     0     0.00      0     0.0  0.00   0.0   0.000   0.080   30.0    67   23.2   34.6    0.00   350    1    100.0   15 
13/07/19  21.30   26.0   26.1   26.0    81   22.5   9.7   NNE   2.41  19.3   NNE   26.0   28.2   28.2   27.2   964.9  0.00   0.0     0     0.00      0     0.0  0.00   0.0   0.000   0.080   30.0    68   23.4   34.7    0.00   351    1    100.0   15 
13/07/19  21.45   25.9   26.0   25.9    81   22.4   6.4   NNE   1.61  17.7   NNE   25.9   28.1   28.1   27.1   964.9  0.00   0.0     0     0.00      0     0.0  0.00   0.0   0.000   0.079   29.9    68   23.3   34.5    0.00   351    1    100.0   15 
13/07/19  22.00   25.8   25.9   25.8    81   22.3   1.6   NNE   0.40   9.7   NNE   25.8   27.8   27.8   26.8   964.9  0.00   0.0     0     0.00      0     0.0  0.00   0.0   0.000   0.078   29.9    68   23.3   34.5    0.03   351    1    100.0   15 
13/07/19  22.15   25.6   25.8   25.6    82   22.3   1.6   NNE   0.40   8.0   NNE   25.6   27.7   27.7   26.7   964.9  0.00   0.0     0     0.00      0     0.0  0.00   0.0   0.000   0.076   29.8    68   23.2   34.2    0.00   351    1    100.0   15 
13/07/19  22.30   25.8   25.8   25.6    83   22.7   4.8   NNE   1.21  14.5   NNE   25.8   28.0   28.0   27.0   964.9  0.00   0.0     0     0.00      0     0.0  0.00   0.0   0.000   0.078   29.7    69   23.4   34.2    0.00   352    1    100.0   15 
13/07/19  22.45   25.8   25.8   25.7    83   22.7   6.4   NNE   1.61  20.9   NNE   25.8   28.0   28.0   27.0   964.9  0.00   0.0     0     0.00      0     0.0  0.00   0.0   0.000   0.078   29.6    70   23.5   34.1    0.00   351    1    100.0   15 
13/07/19  23.00   25.7   25.8   25.7    83   22.6   6.4     N   1.61  20.9     N   25.7   27.9   27.9   26.9   964.9  0.00   0.0     0     0.00      0     0.0  0.00   0.0   0.000   0.077   29.6    70   23.5   34.1    0.03   351    1    100.0   15 
13/07/19  23.15   25.6   25.7   25.6    83   22.5   4.8   NNE   1.21  16.1   NNE   25.6   27.7   27.7   26.7   964.9  0.00   0.0     0     0.00      0     0.0  0.00   0.0   0.000   0.075   29.4    70   23.4   33.8    0.00   351    1    100.0   15 
13/07/19  23.30   25.6   25.6   25.5    83   22.5   3.2   NNE   0.80  14.5   NNE   25.6   27.7   27.7   26.7   964.9  0.00   0.0     0     0.00      0     0.0  0.00   0.0   0.000   0.075   29.4    70   23.4   33.8    0.00   351    1    100.0   15 
13/07/19  23.45   25.5   25.6   25.5    83   22.4   0.0    NE   0.00   8.0    NE   25.5   27.6   27.6   26.6   964.9  0.00   0.0     0     0.00      0     0.0  0.00   0.0   0.000   0.075   29.4    70   23.4   33.8    0.00   350    1    100.0   15 
14/07/19  00.00   25.5   25.6   25.5    83   22.4   4.8    NE   1.21  12.9    NE   25.5   27.6   27.6   26.6   964.9  0.00   0.0     0     0.00      0     0.0  0.00   0.0   0.000   0.075   29.3    70   23.3   33.6    0.03   350    1    100.0   15 
14/07/19   0.15   25.3   25.5   25.3    84   22.4   0.0    NE   0.00   8.0    NE   25.3   27.4   27.4   26.4   964.9  0.00   0.0     0     0.00      0     0.0  0.00   0.0   0.000   0.073   29.2    70   23.2   33.4    0.00   348    1    100.0   15 
14/07/19   0.30   25.1   25.3   25.1    84   22.2   0.0    NE   0.00   1.6    NE   25.1   27.0   27.0   25.9   964.9  0.00   0.0     0     0.00      0     0.0  0.00   0.0   0.000   0.070   29.2    70   23.2   33.4    0.00   351    1    100.0   15 
14/07/19   0.45   24.8   25.1   24.8    84   21.9   0.0    NE   0.00   1.6    NE   24.8   26.7   26.7   25.7   964.9  0.00   0.0     0     0.00      0     0.0  0.00   0.0   0.000   0.068   29.2    70   23.2   33.4    0.00   351    1    100.0   15 
14/07/19   1.00   25.0   25.0   24.8    84   22.1   0.0    NE   0.00   1.6    NE   25.0   26.9   26.9   25.9   964.9  0.00   0.0     0     0.00      0     0.0  0.00   0.0   0.000   0.069   29.1    70   23.1   33.2    0.03   352    1    100.0   15 
14/07/19   1.15   24.8   25.0   24.8    85   22.1   0.0    NE   0.00   1.6    NE   24.8   26.7   26.7   25.6   964.9  0.00   0.0     0     0.00      0     0.0  0.00   0.0   0.000   0.067   29.0    70   23.0   32.9    0.00   349    1    100.0   15 
14/07/19   1.30   24.4   24.8   24.3    85   21.7   0.0   ---   0.00   0.0   ---   24.4   26.2   26.2   25.1   964.9  0.00   0.0     0     0.00      0     0.0  0.00   0.0   0.000   0.063   29.0    70   23.0   32.9    0.00   350    1    100.0   15 
14/07/19   1.45   24.1   24.4   24.1    85   21.4   0.0   ---   0.00   0.0   ---   24.1   25.8   25.8   24.8   964.9  0.00   0.0     0     0.00      0     0.0  0.00   0.0   0.000   0.060   29.0    69   22.7   32.8    0.00   350    1    100.0   15 
14/07/19   2.00   23.7   24.1   23.6    85   21.0   0.0    NE   0.00   1.6    NE   23.7   25.3   25.3   24.2   964.9  0.00   0.0     0     0.00      0     0.0  0.00   0.0   0.000   0.056   28.9    69   22.6   32.6    0.03   351    1    100.0   15 
14/07/19   2.15   23.6   23.8   23.6    86   21.1   0.0    NE   0.00   1.6    NE   23.6   25.0   25.0   23.9   964.9  0.00   0.0     0     0.00      0     0.0  0.00   0.0   0.000   0.054   28.8    69   22.5   32.3    0.00   349    1    100.0   15 
14/07/19   2.30   23.2   23.6   23.2    86   20.7   0.0   ---   0.00   0.0   ---   23.2   24.4   24.4   23.3   964.9  0.00   0.0     0     0.00      0     0.0  0.00   0.0   0.000   0.050   28.7    69   22.4   32.0    0.00   350    1    100.0   15 
14/07/19   2.45   22.4   23.2   22.4    86   20.0   0.0   ---   0.00   0.0   ---   22.4   23.6   23.6   22.4   964.9  0.00   0.0     0     0.00      0     0.0  0.00   0.0   0.000   0.043   28.6    68   22.1   31.6    0.00   350    1    100.0   15 
14/07/19   3.00   21.8   22.4   21.8    81   18.4   0.0    NE   0.00   1.6    NE   21.8   22.6   22.6   21.4   964.9  0.00   0.0     0     0.00      0     0.0  0.00   0.0   0.000   0.036   28.4    65   21.2   30.8    0.03   349    1    100.0   15 
14/07/19   3.15   22.1   22.2   21.8    80   18.5   0.0   ---   0.00   0.0   ---   22.1   22.9   22.9   21.7   964.9  0.00   0.0     0     0.00      0     0.0  0.00   0.0   0.000   0.039   28.3    63   20.6   30.2    0.00   350    1    100.0   15 
14/07/19   3.30   21.5   22.1   21.5    82   18.3   0.0    NE   0.00   3.2    NE   21.5   22.3   22.3   21.0   964.9  0.00   0.0     0     0.00      0     0.0  0.00   0.0   0.000   0.033   28.2    63   20.5   30.1    0.00   351    1    100.0   15 
14/07/19   3.45   21.4   21.5   21.2    80   17.8   0.0   ---   0.00   0.0   ---   21.4   22.1   22.1   20.8   964.9  0.00   0.0     0     0.00      0     0.0  0.00   0.0   0.000   0.032   28.1    62   20.1   29.7    0.00   349    1    100.0   15 
14/07/19   4.00   20.7   21.4   20.7    78   16.7   0.0    NE   0.00   1.6    NE   20.7   21.3   21.3   20.0   964.9  0.00   0.0     0     0.00      0     0.0  0.00   0.0   0.000   0.024   28.0    61   19.8   29.4    0.03   349    1    100.0   15 
14/07/19   4.15   21.2   21.7   20.7    73   16.2   0.0    NE   0.00   1.6    NE   21.2   21.4   21.4   20.1   964.9  0.00   0.0     0     0.00      0     0.0  0.00   0.0   0.000   0.030   27.8    60   19.4   29.1    0.00   352    1    100.0   15 
14/07/19   4.30   20.7   21.2   20.7    74   15.9   0.0   ---   0.00   0.0   ---   20.7   21.2   21.2   19.8   964.9  0.00   0.0     0     0.00      0     0.0  0.00   0.0   0.000   0.025   27.7    59   19.0   28.8    0.00   351    1    100.0   15 
14/07/19   4.45   20.1   20.7   19.9    75   15.5   0.0    NE   0.00   1.6    NE   20.1   20.6   20.6   19.1   964.9  0.00   0.0     0     0.00      0     0.0  0.00   0.0   0.000   0.018   27.6    58   18.6   28.6    0.00   350    1    100.0   15 
14/07/19   5.00   20.2   20.3   20.1    72   15.0   0.0    NE   0.00   1.6    NE   20.2   20.6   20.6   19.1   964.9  0.00   0.0     0     0.00      0     0.0  0.00   0.0   0.000   0.019   27.5    57   18.2   28.3    0.03   351    1    100.0   15 
14/07/19   5.15   19.7   20.2   19.7    73   14.7   0.0    NE   0.00   1.6    NE   19.7   20.1   20.1   18.7   964.9  0.00   0.0     0     0.00      0     0.0  0.00   0.0   0.000   0.014   27.4    56   17.8   28.1    0.00   351    1    100.0   15 
14/07/19   5.30   19.3   19.7   19.2    76   15.0   0.0   ---   0.00   0.0   ---   19.3   19.7   19.7   18.3   964.9  0.00   0.0     0     0.00      0     0.0  0.00   0.0   0.000   0.010   27.3    56   17.7   27.9    0.00   351    1    100.0   15 
14/07/19   5.45   18.9   19.3   18.8    77   14.8   0.0   ---   0.00   0.0   ---   18.9   19.3   19.3   17.8   964.9  0.00   0.0     0     0.00      0     0.0  0.00   0.0   0.000   0.006   27.3    56   17.7   27.9    0.00   350    1    100.0   15 
14/07/19   6.00   19.3   19.3   18.9    74   14.5   0.0   ---   0.00   0.0   ---   19.3   19.6   19.6   18.2   964.9  0.00   0.0     2     0.04      7     0.0  0.00   0.0   0.000   0.010   27.1    55   17.2   27.5    0.00   351    1    100.0   15 
14/07/19   6.15   19.2   19.4   19.2    74   14.5   0.0   ---   0.00   0.0   ---   19.2   19.6   19.6   18.2   964.9  0.00   0.0    10     0.22     16     0.0  0.00   0.0   0.000   0.009   26.8    55   17.0   27.2    0.00   352    1    100.0   15 
14/07/19   6.30   19.3   19.3   18.7    73   14.4   0.0   ---   0.00   0.0   ---   19.3   19.6   19.6   18.4   964.9  0.00   0.0    24     0.52     33     0.0  0.00   0.0   0.000   0.010   26.6    55   16.8   26.9    0.00   350    1    100.0   15 
14/07/19   6.45   19.3   19.3   19.2    74   14.6   0.0   ---   0.00   0.0   ---   19.3   19.7   19.7   18.7   964.9  0.00   0.0    45     0.97     54     0.0  0.00   0.0   0.000   0.010   26.4    55   16.7   26.8    0.00   351    1    100.0   15 
14/07/19   7.00   19.6   19.6   19.3    74   14.8   0.0   ---   0.00   0.0   ---   19.6   19.9   19.9   21.0   964.9  0.00   0.0    79     1.70    107     0.0  0.00   0.0   0.000   0.013   26.3    55   16.6   26.7    0.03   351    1    100.0   15 
14/07/19   7.15   20.4   20.4   19.6    69   14.6   0.0   ---   0.00   0.0   ---   20.4   20.6   20.6   22.7   964.9  0.00   0.0   125     2.69    149     0.0  0.00   0.0   0.000   0.022   26.3    54   16.3   26.6    0.00   351    1    100.0   15 
14/07/19   7.30   21.7   21.7   20.5    66   15.1   0.0   ---   0.00   0.0   ---   21.7   21.7   21.7   24.8   964.9  0.00   0.0   177     3.81    202     0.0  0.00   0.0   0.000   0.035   26.3    54   16.3   26.6    0.00   352    1    100.0   15 
14/07/19   7.45   22.8   22.8   21.8    64   15.7   0.0   ---   0.00   0.0   ---   22.8   23.2   23.2   27.2   964.9  0.00   0.0   231     4.97    253     0.0  0.00   0.0   0.000   0.047   26.4    55   16.7   26.8    0.00   351    1    100.0   15 
14/07/19   8.00   24.1   24.1   22.9    65   17.1   0.0   ---   0.00   0.0   ---   24.1   24.8   24.8   29.3   964.9  0.00   0.0   277     5.96    306     0.0  0.00   0.0   0.000   0.060   26.7    56   17.2   27.1    0.13   351    1    100.0   15 
14/07/19   8.15   25.2   25.2   24.2    59   16.6   0.0   ---   0.00   0.0   ---   25.2   25.6   25.6   30.4   964.9  0.00   0.0   322     6.92    339     0.0  0.00   0.0   0.000   0.071   26.8    57   17.5   27.3    0.00   350    1    100.0   15 
14/07/19   8.30   26.3   26.3   25.2    54   16.2   0.0   ---   0.00   0.0   ---   26.3   26.6   26.6   31.8   964.9  0.00   0.0   367     7.89    392     0.0  0.00   0.0   0.000   0.083   27.1    55   17.2   27.5    0.00   352    1    100.0   15 
14/07/19   8.45   27.2   27.3   26.3    48   15.3   0.0    NE   0.00   1.6   ENE   27.2   27.2   27.2   32.7   964.9  0.00   0.0   413     8.88    439     0.0  0.00   0.0   0.000   0.093   27.3    53   16.9   27.7    0.00   350    1    100.0   15 
14/07/19   9.00   27.7   27.8   27.3    48   15.7   0.0    NE   0.00   4.8    NE   27.7   27.8   27.8   33.6   964.9  0.00   0.0   502    10.79    580     0.0  0.00   0.0   0.000   0.097   27.5    51   16.5   27.8    0.25   351    1    100.0   15 
14/07/19   9.15   27.4   27.7   27.2    49   15.7   0.0    NE   0.00   4.8    NE   27.4   27.5   27.5   31.0   964.9  0.00   0.0   273     5.87    642     0.0  0.00   0.0   0.000   0.094   27.6    50   16.2   27.9    0.00   349    1    100.0   15 
14/07/19   9.30   27.9   27.9   27.4    47   15.5   0.0    NE   0.00   4.8    NE   27.9   28.1   28.1   34.0   964.9  0.00   0.0   592    12.73    700     0.2  0.02   0.6   0.000   0.100   27.9    50   16.5   28.3    0.00   350    1    100.0   15 
14/07/19   9.45   28.3   28.8   27.9    46   15.6   1.6   ESE   0.40   9.7     E   28.3   28.6   28.6   33.5   964.9  0.00   0.0   418     8.99    592     0.6  0.06   0.8   0.000   0.104   28.1    48   16.1   28.5    0.00   351    1    100.0   15 
14/07/19  10.00   28.8   28.8   28.1    41   14.3   1.6    SE   0.40   9.7   ESE   28.8   29.1   29.1   35.1   964.9  0.00   0.0   662    14.23    830     0.8  0.09   1.2   0.000   0.109   28.2    46   15.5   28.5    0.33   351    1    100.0   15 
14/07/19  10.15   28.8   29.1   28.8    43   15.0   1.6    SE   0.40  11.3    SE   28.8   29.2   29.2   35.1   964.9  0.00   0.0   578    12.43    780     1.1  0.12   1.4   0.000   0.109   28.4    46   15.7   28.9    0.00   351    1    100.0   15 
14/07/19  10.30   28.7   29.0   28.4    50   17.2   1.6    SE   0.40  12.9    SE   28.7   29.6   29.6   35.8   964.9  0.00   0.0   725    15.59    803     1.5  0.16   1.8   0.000   0.108   28.7    48   16.6   29.4    0.00   350    1    100.0   15 
14/07/19  10.45   28.4   28.6   27.7    55   18.5   3.2   SSE   0.80  19.3   SSE   28.4   29.5   29.5   35.8   964.9  0.00   0.0   761    16.36    795     2.0  0.21   2.2   0.000   0.105   28.8    53   18.2   29.9    0.00   352    1    100.0   15 
14/07/19  11.00   27.2   28.4   27.2    58   18.2   9.7   SSE   2.41  20.9   SSE   27.2   28.0   28.0   34.2   964.9  0.00   0.0   798    17.16    847     2.3  0.25   2.5   0.000   0.093   28.8    53   18.2   29.9    0.48   350    1    100.0   15 
14/07/19  11.15   27.1   27.4   27.1    57   17.9  11.3   SSE   2.82  22.5   SSE   27.1   27.8   27.8   34.1   964.9  0.00   0.0   768    16.51    877     2.3  0.25   3.0   0.000   0.091   28.8    52   17.9   29.9    0.00   350    1    100.0   15 
14/07/19  11.30   27.3   27.4   27.1    55   17.5   9.7   SSE   2.41  24.1    SE   27.3   27.9   27.9   34.2   964.9  0.00   0.0   933    20.06    953     2.7  0.29   3.3   0.000   0.094   28.8    52   17.9   29.9    0.00   349    1    100.0   15 
14/07/19  11.45   27.3   27.5   27.2    56   17.7   9.7   SSE   2.41  19.3   SSE   27.3   27.9   27.9   34.0   964.9  0.00   0.0   870    18.71    888     3.4  0.36   3.5   0.000   0.093   28.9    52   18.0   30.1    0.00   351    1    100.0   15 
14/07/19  12.00   27.5   28.0   27.3    56   17.9   4.8   SSE   1.21  17.7    SE   27.5   28.2   28.2   34.7   964.9  0.00   0.0   851    18.30    854     3.6  0.39   3.8   0.000   0.095   29.1    52   18.3   30.3    0.58   351    1    100.0   15 
14/07/19  12.15   28.1   28.4   27.5    55   18.2   3.2    SE   0.80  17.7    SE   28.1   29.1   29.1   35.6   964.9  0.00   0.0   865    18.60    872     3.9  0.42   4.0   0.000   0.102   29.3    52   18.5   30.6    0.00   350    1    100.0   15 
14/07/19  12.30   28.3   29.0   28.0    55   18.4   3.2    SE   0.80  16.1    SE   28.3   29.4   29.4   35.9   964.9  0.00   0.0   880    18.92    891     4.2  0.45   4.3   0.000   0.104   29.6    52   18.7   30.9    0.00   350    1    100.0   15 
14/07/19  12.45   27.6   28.3   27.6    57   18.3   4.8   SSE   1.21  16.1     S   27.6   28.4   28.4   34.7   964.9  0.00   0.0   907    19.50    932     4.4  0.47   4.5   0.000   0.096   29.7    52   18.8   31.1    0.00   345    1    100.0   15 
14/07/19  13.00   27.9   27.9   27.4    56   18.3   4.8   SSE   1.21  16.1   SSE   27.9   28.8   28.8   35.2   964.9  0.00   0.0   911    19.59    967     4.2  0.45   4.7   0.000   0.100   29.8    53   19.2   31.3    0.61   351    1    100.0   15 
14/07/19  13.15   28.9   29.0   27.9    52   18.0   3.2   SSE   0.80  16.1    SE   28.9   30.1   30.1   36.4   964.9  0.00   0.0   908    19.52    925     4.6  0.49   4.6   0.000   0.110   30.0    51   18.8   31.4    0.00   350    1    100.0   15 
14/07/19  13.30   29.3   29.3   28.2    50   17.8   3.2   SSE   0.80  14.5   SSE   29.3   30.3   30.3   36.7   964.9  0.00   0.0   902    19.40    905     4.6  0.49   4.6   0.000   0.114   30.2    49   18.3   31.5    0.00   350    1    100.0   15 
14/07/19  13.45   29.1   29.7   28.7    55   19.1   1.6   SSE   0.40  14.5   SSE   29.1   30.6   30.6   37.1   964.9  0.00   0.0   902    19.40    905     4.6  0.49   4.7   0.000   0.112   30.4    51   19.2   32.3    0.00   352    1    100.0   15 
14/07/19  14.00   28.3   29.2   28.3    58   19.2   4.8   SSE   1.21  19.3     S   28.3   29.6   29.6   36.1   964.9  0.00   0.0   895    19.25    900     4.5  0.48   4.6   0.000   0.104   30.6    52   19.6   32.7    0.63   348    1    100.0   15 
14/07/19  14.15   28.9   28.9   27.8    59   20.1   4.8     S   1.21  16.1     S   28.9   30.8   30.8   37.4   964.9  0.00   0.0   886    19.05    891     4.3  0.46   4.4   0.000   0.110   30.6    53   19.9   32.8    0.00   350    1    100.0   15 
14/07/19  14.30   28.3   28.9   28.3    59   19.5   3.2     S   0.80  14.5     S   28.3   29.7   29.7   36.2   964.9  0.00   0.0   878    18.88    884     4.1  0.44   4.2   0.000   0.104   30.7    53   20.0   33.0    0.00   351    1    100.0   15 
14/07/19  14.45   29.3   29.3   28.2    56   19.6   3.2     S   0.80  14.5     S   29.3   31.1   31.1   37.6   964.9  0.00   0.0   863    18.56    870     3.9  0.42   4.0   0.000   0.115   30.8    52   19.8   32.9    0.00   345    1    100.0   15 
14/07/19  15.00   29.2   29.6   29.0    52   18.3   3.2     S   0.80  14.5     S   29.2   30.4   30.4   36.7   964.9  0.00   0.0   847    18.21    856     3.6  0.39   3.7   0.000   0.113   31.0    51   19.7   33.1    0.61   352    1    100.0   15 
14/07/19  15.15   29.2   29.2   28.3    51   18.0   4.8     S   1.21  19.3     S   29.2   30.3   30.3   36.6   964.9  0.00   0.0   831    17.87    838     3.3  0.35   3.5   0.000   0.113   31.0    49   19.0   32.7    0.00   350    1    100.0   15 
14/07/19  15.30   28.9   29.3   28.7    53   18.3   4.8     S   1.21  16.1     S   28.9   30.2   30.2   36.4   964.9  0.00   0.0   818    17.59    911     2.9  0.31   3.1   0.000   0.110   31.2    48   18.9   32.7    0.00   349    1    100.0   15 
14/07/19  15.45   28.7   29.1   28.6    53   18.2   6.4     S   1.61  17.7     S   28.7   29.9   29.9   36.2   964.9  0.00   0.0   778    16.73    868     2.3  0.25   2.9   0.000   0.108   31.2    48   18.9   32.7    0.00   350    1    100.0   15 
14/07/19  16.00   28.3   28.8   28.3    57   18.9   6.4     S   1.61  19.3   SSE   28.3   29.5   29.5   35.1   964.9  0.00   0.0   531    11.42    652     1.5  0.16   2.2   0.000   0.104   31.0    48   18.7   32.5    0.53   351    1    100.0   15 
14/07/19  16.15   28.6   28.7   28.1    58   19.5   4.8     S   1.21  17.7   SSW   28.6   30.1   30.1   36.5   964.9  0.00   0.0   709    15.25    826     1.6  0.17   1.9   0.000   0.106   31.0    50   19.4   32.8    0.00   351    1    100.0   15 
14/07/19  16.30   29.1   29.2   28.3    45   16.0   4.8     S   1.21  16.1   SSE   29.1   29.7   29.7   35.9   964.9  0.00   0.0   680    14.62    691     1.4  0.15   1.5   0.000   0.112   31.0    46   18.0   32.1    0.00   351    1    100.0   15 
14/07/19  16.45   29.6   29.6   28.8    50   18.0   3.2     S   0.80  16.1     S   29.6   30.6   30.6   36.8   964.9  0.00   0.0   599    12.88    691     1.0  0.11   1.3   0.000   0.117   31.2    47   18.5   32.6    0.00   351    1    100.0   15 
14/07/19  17.00   28.2   29.7   28.2    57   18.9   3.2     S   0.80  14.5   SSW   28.2   29.4   29.4   34.5   964.9  0.00   0.0   422     9.07    677     0.7  0.07   1.0   0.000   0.103   31.2    49   19.2   32.9    0.43   352    1    100.0   15 
14/07/19  17.15   28.3   29.1   28.2    55   18.4   3.2   SSW   0.80  17.7   SSW   28.3   29.4   29.4   35.3   964.9  0.00   0.0   489    10.51    694     0.3  0.03   0.6   0.000   0.104   31.0    49   19.0   32.7    0.00   351    1    100.0   15 
14/07/19  17.30   27.9   28.4   27.9    60   19.5   3.2   SSW   0.80  16.1   SSW   27.9   29.3   29.3   33.1   964.9  0.00   0.0   281     6.04    353     0.0  0.00   0.6   0.000   0.100   30.8    50   19.2   32.6    0.00   342    1    100.0   15 
14/07/19  17.45   28.1   28.3   27.9    61   19.8   3.2   SSW   0.80  19.3    SW   28.1   29.6   29.6   33.8   964.9  0.00   0.0   302     6.49    519     0.0  0.00   0.0   0.000   0.101   30.7    52   19.7   32.8    0.00   350    1    100.0   15 
14/07/19  18.00   27.7   28.1   27.7    62   19.7   3.2    SW   0.80  16.1    SW   27.7   29.1   29.1   31.9   964.9  0.00   0.0   192     4.13    443     0.0  0.00   0.0   0.000   0.097   30.6    54   20.2   33.1    0.25   349    1    100.0   15 
14/07/19  18.15   27.5   27.8   27.4    63   19.8   3.2    SW   0.80  17.7   SSW   27.5   28.9   28.9   32.2   964.9  0.00   0.0   212     4.56    297     0.0  0.00   0.0   0.000   0.095   30.6    54   20.2   33.1    0.00   350    1    100.0   15 
14/07/19  18.30   27.3   27.6   27.3    61   19.1   3.2    SW   0.80  17.7     S   27.3   28.4   28.4   31.0   964.9  0.00   0.0   164     3.53    199     0.0  0.00   0.0   0.000   0.094   30.3    54   20.0   32.6    0.00   350    1    100.0   15 
14/07/19  18.45   27.4   27.5   27.3    58   18.4   1.6    SW   0.40  11.3    SW   27.4   28.3   28.3   29.6   964.9  0.00   0.0    93     2.00    116     0.0  0.00   0.0   0.000   0.095   30.3    52   19.4   32.2    0.00   351    1    100.0   15 
14/07/19  19.00   27.5   27.6   27.4    56   17.9   1.6    SW   0.40   9.7    SW   27.5   28.2   28.2   29.1   964.9  0.00   0.0    71     1.53     77     0.0  0.00   0.0   0.000   0.095   30.1    51   18.9   31.6    0.10   351    1    100.0   15 
14/07/19  19.15   27.7   27.7   27.4    54   17.6   0.0    SW   0.00   9.7    SW   27.7   28.4   28.4   30.2   964.9  0.00   0.0   109     2.34    216     0.0  0.00   0.0   0.000   0.098   30.1    50   18.5   31.4    0.00   352    1    100.0   15 
14/07/19  19.30   28.1   28.1   27.8    51   17.0   0.0    SW   0.00   6.4    SW   28.1   28.7   28.7   30.8   964.9  0.00   0.0   122     2.62    192     0.0  0.00   0.0   0.000   0.102   30.2    49   18.3   31.5    0.00   350    1    100.0   15 
14/07/19  19.45   27.9   28.2   27.9    48   15.9   1.6    SW   0.40   9.7    SW   27.9   28.2   28.2   29.6   964.9  0.00   0.0    90     1.94    162     0.0  0.00   0.0   0.000   0.100   30.1    47   17.6   31.1    0.00   351    1    100.0   15 
14/07/19  20.00   27.8   28.0   27.8    46   15.1   0.0    SW   0.00   6.4    SW   27.8   27.8   27.8   27.2   964.9  0.00   0.0    57     1.23     62     0.0  0.00   0.0   0.000   0.098   30.1    45   16.9   30.8    0.08   350    1    100.0   15 
14/07/19  20.15   27.7   27.8   27.7    48   15.7   0.0    SW   0.00   4.8    SW   27.7   27.8   27.8   27.0   964.9  0.00   0.0    43     0.92     51     0.0  0.00   0.0   0.000   0.097   30.0    45   16.8   30.6    0.00   350    1    100.0   15 
14/07/19  20.30   27.3   27.7   27.3    50   16.0   0.0   ---   0.00   0.0   ---   27.3   27.5   27.5   26.5   964.9  0.00   0.0    24     0.52     33     0.0  0.00   0.0   0.000   0.094   29.9    45   16.7   30.5    0.00   349    1    100.0   15 
14/07/19  20.45   27.4   27.4   27.3    51   16.4   0.0    SW   0.00   3.2    SW   27.4   27.7   27.7   26.6   964.9  0.00   0.0    11     0.24     18     0.0  0.00   0.0   0.000   0.095   29.8    46   16.9   30.5    0.00   351    1    100.0   15 
14/07/19  21.00   27.3   27.4   27.2    56   17.7   0.0    SW   0.00   6.4    SW   27.3   27.9   27.9   26.7   964.9  0.00   0.0     0     0.00      5     0.0  0.00   0.0   0.000   0.093   29.7    48   17.5   30.6    0.03   351    1    100.0   15 
14/07/19  21.15   27.1   27.3   27.1    59   18.4   1.6    SW   0.40  14.5    SW   27.1   27.9   27.9   26.8   964.9  0.00   0.0     0     0.00      0     0.0  0.00   0.0   0.000   0.091   29.6    50   18.0   30.6    0.00   352    1    100.0   15 
14/07/19  21.30   26.8   27.1   26.7    52   16.1   1.6    SW   0.40  14.5   SSW   26.8   27.1   27.1   25.8   964.9  0.00   0.0     0     0.00      0     0.0  0.00   0.0   0.000   0.089   29.4    49   17.6   30.3    0.00   351    1    100.0   15 
14/07/19  21.45   26.9   27.1   26.8    47   14.7   4.8   SSW   1.21  19.3   SSW   26.9   26.8   26.8   25.5   964.9  0.00   0.0     0     0.00      0     0.0  0.00   0.0   0.000   0.090   29.2    44   15.7   29.7    0.00   351    1    100.0   15 
14/07/19  22.00   26.4   26.9   26.4    53   16.1   1.6   SSW   0.40  16.1   SSW   26.4   26.7   26.7   25.4   964.9  0.00   0.0     0     0.00      0     0.0  0.00   0.0   0.000   0.084   29.1    46   16.3   29.8    0.05   350    1    100.0   15 
14/07/19  22.15   26.5   26.6   26.4    54   16.4   0.0   SSW   0.00   9.7   SSW   26.5   26.8   26.8   25.6   964.9  0.00   0.0     0     0.00      0     0.0  0.00   0.0   0.000   0.085   29.1    47   16.6   29.9    0.00   351    1    100.0   15 
14/07/19  22.30   26.5   26.6   26.4    53   16.1   1.6   SSW   0.40  11.3   SSW   26.5   26.8   26.8   25.5   964.9  0.00   0.0     0     0.00      0     0.0  0.00   0.0   0.000   0.085   29.1    47   16.6   29.9    0.00   349    1    100.0   15 
14/07/19  22.45   26.3   26.6   26.3    60   17.9   3.2   SSW   0.80  14.5     S   26.3   27.0   27.0   25.8   964.9  0.00   0.0     0     0.00      0     0.0  0.00   0.0   0.000   0.083   29.1    50   17.6   30.1    0.00   351    1    100.0   15 
14/07/19  23.00   26.1   26.3   26.1    53   15.8   3.2     S   0.80  16.1     S   26.1   26.3   26.3   25.1   964.9  0.00   0.0     0     0.00      0     0.0  0.00   0.0   0.000   0.081   29.1    50   17.6   30.1    0.05   350    1    100.0   15 
14/07/19  23.15   26.1   26.1   26.1    58   17.1   0.0     S   0.00   9.7     S   26.1   26.6   26.6   25.3   964.9  0.00   0.0     0     0.00      0     0.0  0.00   0.0   0.000   0.080   29.1    48   17.0   29.9    0.00   351    1    100.0   15 
14/07/19  23.30   26.1   26.2   26.0    66   19.2   0.0     S   0.00   8.0     S   26.1   27.1   27.1   25.9   964.9  0.00   0.0     0     0.00      0     0.0  0.00   0.0   0.000   0.080   29.2    51   18.0   30.3    0.00   352    1    100.0   15 
14/07/19  23.45   26.1   26.2   26.0    71   20.4   3.2     S   0.80  16.1     S   26.1   27.4   27.4   26.3   964.9  0.00   0.0     0     0.00      0     0.0  0.00   0.0   0.000   0.080   29.2    56   19.5   30.9    0.00   350    1    100.0   15 
15/07/19  00.00   26.0   26.1   25.9    71   20.3   4.8     S   1.21  14.5     S   26.0   27.3   27.3   26.3   964.9  0.00   0.0     0     0.00      0     0.0  0.00   0.0   0.000   0.080   29.2    58   20.1   31.2    0.05   350    1    100.0   15 
15/07/19   0.15   26.0   26.0   25.9    71   20.3   6.4   SSE   1.61  17.7   SSE   26.0   27.3   27.3   26.3   964.9  0.00   0.0     0     0.00      0     0.0  0.00   0.0   0.000   0.080   29.0    59   20.2   31.0    0.00   350    1    100.0   15 
15/07/19   0.30   26.0   26.1   25.9    69   19.9   4.8   SSE   1.21  20.9   SSE   26.0   27.2   27.2   26.1   964.9  0.00   0.0     0     0.00      0     0.0  0.00   0.0   0.000   0.080   28.9    59   20.1   30.8    0.00   351    1    100.0   15 
15/07/19   0.45   26.2   26.2   26.0    68   19.8   3.2   SSE   0.80  19.3   SSE   26.2   27.3   27.3   26.3   964.9  0.00   0.0     0     0.00      0     0.0  0.00   0.0   0.000   0.082   28.9    59   20.1   30.8    0.00   350    1    100.0   15 
15/07/19   1.00   26.1   26.2   26.1    69   19.9   3.2     S   0.80  16.1     S   26.1   27.3   27.3   26.2   964.9  0.00   0.0     0     0.00      0     0.0  0.00   0.0   0.000   0.080   29.1    58   20.0   31.1    0.05   351    1    100.0   15 
15/07/19   1.15   26.1   26.1   26.0    70   20.2   4.8     S   1.21  16.1     S   26.1   27.3   27.3   26.3   964.9  0.00   0.0     0     0.00      0     0.0  0.00   0.0   0.000   0.080   29.1    58   20.0   31.1    0.00   350    1    100.0   15 
15/07/19   1.30   26.0   26.1   25.9    71   20.3   4.8     S   1.21  24.1     S   26.0   27.3   27.3   26.3   964.9  0.00   0.0     0     0.00      0     0.0  0.00   0.0   0.000   0.080   29.1    58   20.0   31.1    0.00   347    1    100.0   15 
15/07/19   1.45   25.9   26.0   25.8    72   20.5   6.4     S   1.61  22.5     S   25.9   27.2   27.2   26.2   964.9  0.00   0.0     0     0.00      0     0.0  0.00   0.0   0.000   0.079   29.0    59   20.2   31.0    0.00   351    1    100.0   15 
15/07/19   2.00   25.9   26.0   25.8    72   20.5   4.8   SSE   1.21  19.3   SSE   25.9   27.3   27.3   26.3   964.9  0.00   0.0     0     0.00      0     0.0  0.00   0.0   0.000   0.079   29.0    60   20.4   31.1    0.05   352    1    100.0   15 
15/07/19   2.15   25.8   25.9   25.7    71   20.1   1.6   SSE   0.40  16.1   SSE   25.8   27.0   27.0   25.9   964.9  0.00   0.0     0     0.00      0     0.0  0.00   0.0   0.000   0.078   29.0    60   20.4   31.1    0.00   350    1    100.0   15 
15/07/19   2.30   25.8   25.9   25.7    71   20.1   1.6     S   0.40  11.3     S   25.8   27.0   27.0   25.9   964.9  0.00   0.0     0     0.00      0     0.0  0.00   0.0   0.000   0.078   28.9    60   20.3   30.9    0.00   351    1    100.0   15 
15/07/19   2.45   25.8   25.8   25.7    69   19.7   1.6     S   0.40  16.1    SE   25.8   26.9   26.9   25.9   964.9  0.00   0.0     0     0.00      0     0.0  0.00   0.0   0.000   0.078   28.9    60   20.3   30.9    0.00   351    1    100.0   15 
15/07/19   3.00   25.9   25.9   25.8    66   19.0   3.2   SSE   0.80  16.1   SSE   25.9   26.8   26.8   25.7   964.9  0.00   0.0     0     0.00      0     0.0  0.00   0.0   0.000   0.079   28.9    59   20.1   30.8    0.03   348    1    100.0   15 
15/07/19   3.15   25.8   26.0   25.8    70   19.9   0.0   SSE   0.00   9.7    SE   25.8   26.9   26.9   25.9   964.9  0.00   0.0     0     0.00      0     0.0  0.00   0.0   0.000   0.078   28.8    59   20.0   30.6    0.00   351    1    100.0   15 
15/07/19   3.30   25.9   25.9   25.6    65   18.8   0.0    SE   0.00   6.4    SE   25.9   26.8   26.8   25.6   964.9  0.00   0.0     0     0.00      0     0.0  0.00   0.0   0.000   0.079   28.8    59   20.0   30.6    0.00   349    1    100.0   15 
15/07/19   3.45   25.9   25.9   25.9    68   19.6   0.0    SE   0.00   6.4    SE   25.9   27.1   27.1   26.0   964.9  0.00   0.0     0     0.00      0     0.0  0.00   0.0   0.000   0.079   28.8    58   19.7   30.5    0.00   351    1    100.0   15 
15/07/19   4.00   25.1   25.9   25.1    74   20.1   1.6   SSE   0.40  11.3   SSE   25.1   26.4   26.4   25.4   964.9  0.00   0.0     0     0.00      0     0.0  0.00   0.0   0.000   0.071   28.7    60   20.1   30.5    0.03   350    1    100.0   15 
15/07/19   4.15   24.1   25.1   24.1    77   19.8   0.0     S   0.00   9.7     S   24.1   25.4   25.4   24.4   964.9  0.00   0.0     0     0.00      0     0.0  0.00   0.0   0.000   0.060   28.7    62   20.7   30.8    0.00   350    1    100.0   15 
15/07/19   4.30   23.6   24.1   23.6    79   19.8   0.0     S   0.00   6.4     S   23.6   24.8   24.8   23.8   964.9  0.00   0.0     0     0.00      0     0.0  0.00   0.0   0.000   0.055   28.7    63   20.9   30.9    0.00   351    1    100.0   15 
15/07/19   4.45   22.6   23.6   22.6    82   19.4   0.0     S   0.00   1.6     S   22.6   23.6   23.6   22.5   964.9  0.00   0.0     0     0.00      0     0.0  0.00   0.0   0.000   0.045   28.6    63   20.8   30.7    0.00   350    1    100.0   15 
15/07/19   5.00   22.6   22.6   22.4    84   19.7   0.0   ---   0.00   0.0   ---   22.6   23.6   23.6   22.6   964.9  0.00   0.0     0     0.00      0     0.0  0.00   0.0   0.000   0.044   28.4    64   21.0   30.6    0.03   350    1    100.0   15 
15/07/19   5.15   21.8   22.6   21.7    84   19.0   0.0     S   0.00   6.4   SSE   21.8   22.7   22.7   21.6   964.9  0.00   0.0     0     0.00      0     0.0  0.00   0.0   0.000   0.036   28.3    64   20.9   30.4    0.00   351    1    100.0   15 
15/07/19   5.30   21.9   22.1   21.8    83   18.9   0.0    SE   0.00   3.2    SE   21.9   22.8   22.8   21.7   964.9  0.00   0.0     0     0.00      0     0.0  0.00   0.0   0.000   0.038   28.2    63   20.5   30.1    0.00   348    1    100.0   15 
15/07/19   5.45   21.9   21.9   21.8    82   18.7   0.0    SE   0.00   3.2    SE   21.9   22.8   22.8   21.6   964.9  0.00   0.0     0     0.00      0     0.0  0.00   0.0   0.000   0.038   27.9    63   20.2   29.5    0.00   351    1    100.0   15 
15/07/19   6.00   21.9   22.1   21.9    82   18.7   0.0    SE   0.00   1.6    SE   21.9   22.7   22.7   21.6   964.9  0.00   0.0     0     0.00      0     0.0  0.00   0.0   0.000   0.037   27.7    63   20.0   29.2    0.00   351    1    100.0   15 
15/07/19   6.15   22.4   22.4   21.8    81   19.0   1.6    SE   0.40  20.9    SE   22.4   23.3   23.3   22.2   964.9  0.00   0.0     0     0.00      0     0.0  0.00   0.0   0.000   0.042   27.5    63   19.8   28.9    0.00   352    1    100.0   15 
15/07/19   6.30   22.3   22.7   22.3    80   18.7   8.0   SSW   2.01  33.8   SSW   22.3   23.1   23.1   21.9   964.9  0.00   0.0     1     0.02      5     0.0  0.00   0.0   0.000   0.041   26.9    64   19.5   28.1    0.00   351    1    100.0   15 
15/07/19   6.45   21.7   22.3   21.7    82   18.5   3.2   SSW   0.80  19.3     S   21.7   22.6   22.6   21.4   964.9  0.25   0.0     0     0.00      0     0.0  0.00   0.0   0.000   0.035   26.6    65   19.4   27.6    0.00   351    1    100.0   15 
15/07/19   7.00   21.6   21.7   21.5    84   18.7   0.0   ESE   0.00  12.9     W   21.6   22.4   22.4   21.8   964.9  0.51   2.5     7     0.15     11     0.0  0.00   0.0   0.000   0.034   26.6    66   19.7   27.7    0.03   350    1    100.0   15 
15/07/19   7.15   21.1   21.6   21.1    86   18.6   3.2   SSE   0.80  17.7   SSE   21.1   21.9   21.9   21.7   964.9  1.52   9.9    20     0.43     28     0.0  0.00   0.0   0.000   0.028   26.3    68   20.0   27.6    0.00   350    1    100.0   15 
15/07/19   7.30   21.1   21.2   21.0    86   18.6   4.8   SSE   1.21  20.9    SE   21.1   21.9   21.9   22.1   964.9  0.00   1.0    40     0.86     46     0.0  0.00   0.0   0.000   0.028   26.2    68   19.8   27.3    0.00   352    1    100.0   15 
15/07/19   7.45   21.6   21.7   21.1    85   19.0   3.2    SE   0.80  19.3    SE   21.6   22.6   22.6   22.8   964.9  0.00   0.0    41     0.88     44     0.0  0.00   0.0   0.000   0.034   26.2    68   19.8   27.3    0.00   351    1    100.0   15 
15/07/19   8.00   21.8   21.8   21.4    83   18.8   8.0   SSE   2.01  29.0   SSE   21.8   22.7   22.7   22.8   964.9  0.00   0.0    45     0.97     54     0.0  0.00   0.0   0.000   0.036   26.2    68   19.8   27.3    0.03   351    1    100.0   15 
15/07/19   8.15   22.4   22.4   21.8    76   18.0   8.0    SE   2.01  27.4   SSE   22.4   23.2   23.2   23.6   964.9  0.00   0.0    59     1.27     72     0.0  0.00   0.0   0.000   0.043   26.3    66   19.4   27.3    0.00   351    1    100.0   15 
15/07/19   8.30   22.5   22.8   22.4    78   18.5   8.0    SE   2.01  30.6    SE   22.5   23.3   23.3   23.7   964.9  0.00   0.0    62     1.33     70     0.0  0.00   0.0   0.000   0.043   26.4    66   19.6   27.6    0.00   352    1    100.0   15 
15/07/19   8.45   22.5   22.5   22.3    80   18.9   4.8   ESE   1.21  17.7     E   22.5   23.4   23.4   23.5   964.9  0.00   0.0    50     1.08     63     0.0  0.00   0.0   0.000   0.043   26.7    66   19.8   27.8    0.00   350    1    100.0   15 
15/07/19   9.00   22.8   22.9   22.5    77   18.6   6.4    SE   1.61  24.1   ESE   22.8   23.8   23.8   23.8   964.9  0.00   0.0    45     0.97     56     0.0  0.00   0.0   0.000   0.047   26.9    66   20.0   28.2    0.05   351    1    100.0   15 
15/07/19   9.15   23.2   23.2   22.8    71   17.6   8.0   ESE   2.01  25.7    SE   23.2   24.0   24.0   23.6   964.9  0.00   0.0    29     0.62     42     0.0  0.00   0.0   0.000   0.050   27.0    64   19.6   28.2    0.00   351    1    100.0   15 
15/07/19   9.30   23.0   23.2   22.8    72   17.7   4.8   ESE   1.21  19.3   ESE   23.0   23.8   23.8   24.0   964.9  0.00   0.0    67     1.44     98     0.0  0.00   0.0   0.000   0.049   27.2    62   19.3   28.3    0.00   351    1    100.0   15 
15/07/19   9.45   23.4   23.4   22.9    74   18.5   1.6   ESE   0.40  16.1   ESE   23.4   24.4   24.4   27.2   964.9  0.00   0.0   231     4.97    357     0.0  0.00   0.0   0.000   0.053   27.3    62   19.4   28.4    0.00   351    1    100.0   15 
15/07/19  10.00   23.9   23.9   23.4    74   19.0   6.4    SE   1.61  24.1    SE   23.9   25.0   25.0   28.9   964.9  0.00   0.0   327     7.03    399     0.0  0.00   0.0   0.000   0.058   27.5    63   19.8   28.9    0.13   351    1    100.0   15 
15/07/19  10.15   24.4   24.4   23.9    72   19.1  11.3    SE   2.82  29.0   ESE   24.4   25.6   25.6   29.3   964.9  0.00   0.0   334     7.18    420     0.0  0.00   0.0   0.000   0.064   27.5    63   19.8   28.9    0.00   349    1    100.0   15 
15/07/19  10.30   24.6   24.8   24.4    73   19.4  14.5    SE   3.62  33.8    SE   23.8   25.8   25.1   29.9   964.9  0.00   0.0   490    10.54    831     0.6  0.06   1.5   0.000   0.065   27.5    63   19.8   28.9    0.00   351    1    100.0   15 
15/07/19  10.45   24.3   24.6   24.1    75   19.6  14.5    SE   3.62  30.6    SE   23.6   25.6   24.8   27.7   964.9  0.00   0.0   291     6.26    411     0.0  0.00   0.0   0.000   0.062   27.5    64   20.1   29.0    0.00   352    1    100.0   15 
15/07/19  11.00   24.0   24.4   24.0    75   19.3  11.3    SE   2.82  30.6     S   24.0   25.2   25.2   27.6   964.9  0.00   0.0   237     5.10    563     0.1  0.01   0.6   0.000   0.059   27.5    65   20.3   29.1    0.28   350    1    100.0   15 
15/07/19  11.15   23.7   24.1   23.7    78   19.6   6.4    SE   1.61  22.5     E   23.7   24.9   24.9   25.9   964.9  0.00   0.0   135     2.90    169     0.0  0.00   0.0   0.000   0.056   27.6    65   20.4   29.3    0.00   350    1    100.0   15 
15/07/19  11.30   23.5   23.7   23.4    77   19.2   4.8    SE   1.21  17.7    SE   23.5   24.6   24.6   26.1   964.9  0.00   0.0   164     3.53    192     0.0  0.00   0.0   0.000   0.054   27.6    65   20.4   29.3    0.00   351    1    100.0   15 
15/07/19  11.45   23.6   23.6   23.4    76   19.1   6.4   ESE   1.61  19.3   ESE   23.6   24.7   24.7   26.1   964.9  0.00   0.0   165     3.55    179     0.0  0.00   0.0   0.000   0.054   27.7    64   20.3   29.3    0.00   352    1    100.0   15 
15/07/19  12.00   23.7   23.7   23.4    76   19.2   6.4   ESE   1.61  27.4   SSE   23.7   24.9   24.9   26.4   964.9  0.00   0.0   172     3.70    185     0.0  0.00   0.0   0.000   0.056   27.7    64   20.3   29.3    0.13   351    1    100.0   15 
15/07/19  12.15   23.9   23.9   23.7    75   19.2   6.4   ESE   1.61  27.4   SSE   23.9   25.1   25.1   26.8   964.9  0.00   0.0   193     4.15    234     0.0  0.00   0.0   0.000   0.058   27.7    64   20.3   29.3    0.00   349    1    100.0   15 
15/07/19  12.30   24.0   24.1   23.8    74   19.1   9.7   ESE   2.41  27.4   ESE   24.0   25.2   25.2   27.7   964.9  0.00   0.0   245     5.27    325     0.0  0.00   0.0   0.000   0.059   27.6    63   19.9   29.1    0.00   350    1    100.0   15 
15/07/19  12.45   24.1   24.1   23.9    74   19.1   8.0   ESE   2.01  32.2    SE   24.1   25.2   25.2   26.4   964.9  0.00   0.0   153     3.29    199     0.0  0.00   0.0   0.000   0.060   27.6    63   19.9   29.1    0.00   341    1     99.7   15 
15/07/19  13.00   23.8   24.1   23.8    73   18.7   8.0   ESE   2.01  24.1   ESE   23.8   24.9   24.9   25.2   964.9  0.00   0.0    83     1.78    114     0.0  0.00   0.0   0.000   0.057   27.6    63   19.9   29.1    0.13   350    1    100.0   15 
15/07/19  13.15   23.9   23.9   23.8    73   18.8   9.7   ESE   2.41  25.7   ESE   23.9   24.9   24.9   24.8   964.9  0.00   0.0    52     1.12     69     0.0  0.00   0.0   0.000   0.058   27.6    63   19.9   29.1    0.00   350    1    100.0   15 
15/07/19  13.30   23.8   24.0   23.8    74   18.9   9.7   ESE   2.41  25.7   ESE   23.8   24.9   24.9   24.6   964.9  0.00   0.0    37     0.80     47     0.0  0.00   0.0   0.000   0.057   27.7    63   20.0   29.2    0.00   349    1    100.0   15 
15/07/19  13.45   22.2   23.7   22.2    81   18.8   4.8   ESE   1.21  20.9    SE   22.2   23.1   23.1   22.6   964.9  0.51   2.3    30     0.65     37     0.0  0.00   0.0   0.000   0.041   27.7    64   20.3   29.3    0.00   350    1    100.0   15 
15/07/19  14.00   22.6   22.7   22.2    81   19.2   6.4   ESE   1.61  22.5   ESE   22.6   23.6   23.6   23.2   964.9  0.25   2.3    34     0.73     39     0.0  0.00   0.0   0.000   0.045   27.7    65   20.5   29.4    0.05   341    1     99.7   15 
15/07/19  14.15   22.5   22.7   22.4    82   19.3   4.8   ESE   1.21  20.9   ESE   22.5   23.4   23.4   23.1   964.9  0.25   2.3    36     0.77     40     0.0  0.00   0.0   0.000   0.043   27.7    65   20.5   29.4    0.00   328    1     95.9   15 
15/07/19  14.30   23.8   23.8   22.5    80   20.1   9.7    SE   2.41  29.0    SE   23.8   25.1   25.1   25.0   964.9  0.00   0.0    50     1.08     67     0.0  0.00   0.0   0.000   0.057   27.7    66   20.8   29.6    0.00   327    1     95.6   15 
15/07/19  14.45   23.6   24.2   23.6    81   20.1  14.5    SE   3.62  33.8    SE   22.8   24.8   24.1   24.3   964.9  0.00   0.0    72     1.55    105     0.0  0.00   0.0   0.000   0.054   27.7    66   20.8   29.6    0.00   338    1     98.8   15 
15/07/19  15.00   23.6   23.8   23.5    82   20.4  16.1   SSE   4.02  38.6   SSE   22.5   24.9   23.8   24.3   964.9  0.00   0.0    95     2.04    130     0.0  0.00   0.0   0.000   0.055   27.8    66   20.9   29.8    0.08   336    1     98.2   15 
15/07/19  15.15   23.8   23.8   23.3    78   19.7  17.7    SE   4.43  37.0   SSE   22.4   25.1   23.7   24.9   964.9  0.00   0.0   162     3.48    248     0.0  0.00   0.0   0.000   0.057   27.8    66   20.9   29.8    0.00   349    1    100.0   15 
15/07/19  15.30   23.9   24.3   23.8    79   20.0  14.5    SE   3.62  40.2   ESE   23.2   25.2   24.5   26.9   964.9  0.00   0.0   247     5.31    279     0.0  0.00   0.0   0.000   0.058   27.9    66   20.9   29.9    0.00   350    1    100.0   15 
15/07/19  15.45   24.3   24.4   23.9    77   20.0  11.3    SE   2.82  30.6    SE   24.3   25.7   25.7   27.1   964.9  0.00   0.0   148     3.18    195     0.0  0.00   0.0   0.000   0.063   28.0    66   21.1   30.1    0.00   347    1    100.0   15 
15/07/19  16.00   24.4   24.6   24.2    74   19.5  11.3    SE   2.82  35.4   ESE   24.4   25.7   25.7   26.0   964.9  0.00   0.0    77     1.66     95     0.0  0.00   0.0   0.000   0.063   28.0    64   20.6   29.8    0.15   350    1    100.0   15 
15/07/19  16.15   23.7   24.4   23.7    75   19.0   8.0   ESE   2.01  32.2    SE   23.7   24.8   24.8   24.6   964.9  0.00   0.0    41     0.88     49     0.0  0.00   0.0   0.000   0.056   28.0    63   20.3   29.7    0.00   347    1    100.0   15 
15/07/19  16.30   23.8   23.8   23.7    77   19.5   4.8   ESE   1.21  20.9    SE   23.8   25.0   25.0   24.6   964.9  0.00   0.0    29     0.62     33     0.0  0.00   0.0   0.000   0.057   28.1    63   20.4   29.9    0.00   351    1    100.0   15 
15/07/19  16.45   24.6   24.6   23.7    73   19.4   6.4   ESE   1.61  29.0   ESE   24.6   25.8   25.8   25.4   964.9  0.00   0.0    28     0.60     30     0.0  0.00   0.0   0.000   0.065   28.1    63   20.4   29.9    0.00   349    1    100.0   15 
15/07/19  17.00   24.8   24.8   24.6    71   19.2  11.3   ESE   2.82  27.4    SE   24.8   25.9   25.9   25.4   964.9  0.00   0.0    16     0.34     26     0.0  0.00   0.0   0.000   0.068   28.0    62   20.0   29.6    0.05   352    1    100.0   15 
15/07/19  17.15   24.6   25.0   24.6    73   19.4  11.3   ESE   2.82  33.8   SSE   24.6   25.8   25.8   25.3   964.9  0.00   0.0    15     0.32     21     0.0  0.00   0.0   0.000   0.065   28.0    62   20.0   29.6    0.00   351    1    100.0   15 
15/07/19  17.30   20.0   24.6   20.0    84   17.2  12.9   ESE   3.22  43.5    SE   19.6   20.8   20.4   19.6   964.9  9.91 128.3     1     0.02     11     0.0  0.00   0.0   0.000   0.017   28.0    64   20.6   29.8    0.00   347    1    100.0   15 
15/07/19  17.45   21.2   21.2   19.0    87   19.0   6.4   NNE   1.61  24.1   NNE   21.2   22.2   22.2   21.4   964.9  3.05  68.6     1     0.02      5     0.0  0.00   0.0   0.000   0.030   28.0    64   20.6   29.8    0.00   348    1    100.0   15 
15/07/19  18.00   21.8   21.9   21.3    85   19.2   6.4     E   1.61  29.0     E   21.8   22.8   22.8   22.0   964.9  0.00   1.0     0     0.00      0     0.0  0.00   0.0   0.000   0.036   28.1    65   20.9   30.1    0.03   330    1     96.5   15 
15/07/19  18.15   21.1   22.1   21.1    83   18.1  11.3     E   2.82  33.8    NE   21.1   21.8   21.8   21.1   964.9  0.00   0.0     7     0.15      9     0.0  0.00   0.0   0.000   0.028   28.2    65   21.0   30.3    0.00   346    1    100.0   15 
15/07/19  18.30   20.7   21.1   20.7    81   17.3  12.9   ENE   3.22  41.8    NE   20.4   21.5   21.2   20.4   964.9  0.00   0.0     2     0.04      7     0.0  0.00   0.0   0.000   0.025   28.1    62   20.1   29.7    0.00   346    1    100.0   15 
15/07/19  18.45   20.7   20.8   20.6    80   17.1  12.9     E   3.22  40.2   ENE   20.3   21.4   21.1   20.3   964.9  0.00   0.0     6     0.13      7     0.0  0.00   0.0   0.000   0.024   28.0    61   19.8   29.4    0.00   342    1    100.0   15 
15/07/19  19.00   20.6   20.7   20.4    82   17.4   9.7     E   2.41  32.2   ENE   20.6   21.5   21.5   20.7   964.9  0.00   0.0     4     0.09      7     0.0  0.00   0.0   0.000   0.024   28.0    61   19.8   29.4    0.03   328    1     95.9   15 
15/07/19  19.15   20.6   20.7   20.6    81   17.2   9.7   ENE   2.41  29.0   ENE   20.6   21.4   21.4   20.7   964.9  0.00   0.0     6     0.13      9     0.0  0.00   0.0   0.000   0.024   28.1    62   20.1   29.7    0.00   351    1    100.0   15 
15/07/19  19.30   20.7   20.9   20.6    80   17.1  16.1    NE   4.02  35.4    NE   19.5   21.4   20.3   19.7   964.9  0.00   0.0     7     0.15      7     0.0  0.00   0.0   0.000   0.024   28.1    60   19.6   29.5    0.00   344    1    100.0   15 
15/07/19  19.45   20.7   20.9   20.7    79   16.9  17.7   NNE   4.43  35.4     N   19.3   21.4   20.0   19.3   964.9  0.00   0.0     3     0.06      5     0.0  0.00   0.0   0.000   0.025   27.8    60   19.4   29.1    0.00   347    1    100.0   15 
15/07/19  20.00   20.6   20.9   20.6    81   17.2  17.7   NNE   4.43  27.4   NNE   19.1   21.4   20.0   19.1   964.9  0.00   0.0     0     0.00      0     0.0  0.00   0.0   0.000   0.023   27.9    60   19.4   29.2    0.05   307    1     89.8   15 
15/07/19  20.15   20.6   20.8   20.6    80   17.0  16.1   NNE   4.02  33.8   NNE   19.4   21.4   20.3   19.3   964.9  0.00   0.0     0     0.00      0     0.0  0.00   0.0   0.000   0.024   28.0    61   19.8   29.4    0.00   285    1     83.3   15 
15/07/19  20.30   20.7   20.8   20.6    79   16.9  12.9    NE   3.22  33.8   NNE   20.3   21.4   21.0   20.0   964.9  0.00   0.0     0     0.00      0     0.0  0.00   0.0   0.000   0.024   27.9    60   19.4   29.2    0.00   300    1     87.7   15 
15/07/19  20.45   20.9   20.9   20.7    78   17.0  14.5    NE   3.62  33.8    NE   20.2   21.5   20.7   19.8   964.9  0.00   0.0     0     0.00      0     0.0  0.00   0.0   0.000   0.027   27.9    60   19.4   29.2    0.00   305    1     89.2   15 
15/07/19  21.00   20.8   21.0   20.7    79   17.0  12.9    NE   3.22  35.4   NNE   20.4   21.4   21.1   20.1   964.9  0.00   0.0     0     0.00      0     0.0  0.00   0.0   0.000   0.025   27.8    59   19.1   29.0    0.05   320    1     93.6   15 
15/07/19  21.15   20.8   20.9   20.7    79   17.0  11.3   ENE   2.82  35.4     E   20.8   21.4   21.4   20.4   964.9  0.00   0.0     0     0.00      0     0.0  0.00   0.0   0.000   0.025   27.8    60   19.4   29.1    0.00   319    1     93.3   15 
15/07/19  21.30   20.7   20.8   20.6    79   16.9   9.7   ENE   2.41  29.0   ENE   20.7   21.4   21.4   20.3   964.9  0.00   0.0     0     0.00      0     0.0  0.00   0.0   0.000   0.024   27.9    60   19.4   29.2    0.00   336    1     98.2   15 
15/07/19  21.45   20.8   20.8   20.6    78   16.9   6.4   ENE   1.61  27.4    NE   20.8   21.4   21.4   20.4   964.9  0.00   0.0     0     0.00      0     0.0  0.00   0.0   0.000   0.026   27.9    60   19.4   29.2    0.00   343    1    100.0   15 
15/07/19  22.00   21.1   21.1   20.8    76   16.7   6.4   ENE   1.61  25.7    NE   21.1   21.5   21.5   20.4   964.9  0.00   0.0     0     0.00      0     0.0  0.00   0.0   0.000   0.029   27.9    59   19.1   29.1    0.03   323    1     94.4   15 
15/07/19  22.15   21.3   21.4   21.1    72   16.1  11.3    NE   2.82  33.8   ENE   21.3   21.6   21.6   20.4   964.9  0.00   0.0     0     0.00      0     0.0  0.00   0.0   0.000   0.031   27.9    57   18.6   28.9    0.00   340    1     99.4   15 
15/07/19  22.30   21.6   21.6   21.3    70   15.9  11.3    NE   2.82  27.4    NE   21.6   21.8   21.8   20.7   964.9  0.00   0.0     0     0.00      0     0.0  0.00   0.0   0.000   0.034   28.0    56   18.4   29.0    0.00   345    1    100.0   15 
15/07/19  22.45   21.6   21.7   21.6    69   15.7  11.3   ENE   2.82  32.2   ENE   21.6   21.8   21.8   20.7   964.9  0.00   0.0     0     0.00      0     0.0  0.00   0.0   0.000   0.034   28.0    55   18.1   28.9    0.00   327    1     95.6   15 
15/07/19  23.00   21.4   21.6   21.4    70   15.7   9.7   ENE   2.41  27.4     E   21.4   21.6   21.6   20.5   964.9  0.00   0.0     0     0.00      0     0.0  0.00   0.0   0.000   0.032   28.0    55   18.1   28.9    0.05   333    1     97.4   15 
15/07/19  23.15   21.8   21.8   21.4    69   15.8   9.7   ENE   2.41  25.7   NNE   21.8   22.0   22.0   20.9   964.9  0.00   0.0     0     0.00      0     0.0  0.00   0.0   0.000   0.036   27.9    55   18.0   28.7    0.00   270    1     78.9   15 
15/07/19  23.30   21.6   21.8   21.6    69   15.7   6.4    NE   1.61  20.9   NNE   21.6   21.8   21.8   20.7   964.9  0.00   0.0     0     0.00      0     0.0  0.00   0.0   0.000   0.034   27.8    55   18.0   28.6    0.00   254    1     74.3   15 
15/07/19  23.45   21.1   21.6   21.1    73   16.0   4.8   NNE   1.21  16.1     N   21.1   21.3   21.3   20.2   964.9  0.00   0.0     0     0.00      0     0.0  0.00   0.0   0.000   0.028   27.7    55   17.9   28.5    0.00   328    1     95.9   15 
16/07/19  00.00   20.8   21.1   20.7    76   16.4   4.8   NNE   1.21  27.4   NNW   20.8   21.3   21.3   20.2   964.9  0.00   0.0     0     0.00      0     0.0  0.00   0.0   0.000   0.025   27.6    56   18.0   28.4    0.05   340    1     99.4   15 
16/07/19   0.15   20.6   20.8   20.6    76   16.2   6.4     N   1.61  22.5   NNW   20.6   21.2   21.2   20.1   964.9  0.00   0.0     0     0.00      0     0.0  0.00   0.0   0.000   0.023   27.5    56   17.9   28.2    0.00   302    1     88.3   15 
16/07/19   0.30   20.6   20.6   20.4    77   16.4  11.3   NNW   2.82  37.0     N   20.6   21.2   21.2   20.2   964.9  0.00   0.0     0     0.00      0     0.0  0.00   0.0   0.000   0.023   27.5    56   17.9   28.2    0.00   307    1     89.8   15 
16/07/19   0.45   20.6   20.6   20.5    78   16.6   8.0     N   2.01  27.4     N   20.6   21.3   21.3   20.2   964.9  0.00   0.0     0     0.00      0     0.0  0.00   0.0   0.000   0.023   27.4    57   18.1   28.2    0.00   327    1     95.6   15 
16/07/19   1.00   20.7   20.8   20.6    76   16.3   9.7     N   2.41  25.7     N   20.7   21.2   21.2   20.2   964.9  0.00   0.0     0     0.00      0     0.0  0.00   0.0   0.000   0.024   27.3    57   18.0   28.0    0.05   337    1     98.5   15 
16/07/19   1.15   20.9   21.0   20.7    73   15.9  14.5   NNE   3.62  37.0   NNE   20.1   21.2   20.4   19.4   964.9  0.00   0.0     0     0.00      0     0.0  0.00   0.0   0.000   0.027   27.3    57   18.0   28.0    0.00   326    1     95.3   15 
16/07/19   1.30   20.8   20.9   20.7    73   15.8   8.0   NNE   2.01  24.1    NE   20.8   21.1   21.1   20.0   964.9  0.00   0.0     0     0.00      0     0.0  0.00   0.0   0.000   0.025   27.2    56   17.6   27.7    0.00   335    1     98.0   15 
16/07/19   1.45   20.7   20.9   20.7    72   15.4   8.0     N   2.01  25.7     N   20.7   21.0   21.0   19.9   964.9  0.00   0.0     0     0.00      0     0.0  0.00   0.0   0.000   0.024   27.2    56   17.6   27.7    0.00   334    1     97.7   15 
16/07/19   2.00   20.6   20.8   20.6    73   15.6   9.7     N   2.41  25.7     N   20.6   21.0   21.0   19.9   964.9  0.00   0.0     0     0.00      0     0.0  0.00   0.0   0.000   0.024   27.1    56   17.5   27.6    0.05   334    1     97.7   15 
16/07/19   2.15   20.5   20.7   20.5    73   15.5   6.4   NNW   1.61  22.5    NW   20.5   20.9   20.9   19.8   964.9  0.00   0.0     0     0.00      0     0.0  0.00   0.0   0.000   0.023   27.1    56   17.5   27.6    0.00   344    1    100.0   15 
16/07/19   2.30   20.4   20.6   20.4    73   15.4  11.3   NNW   2.82  24.1   NNW   20.4   20.8   20.8   19.7   964.9  0.00   0.0     0     0.00      0     0.0  0.00   0.0   0.000   0.021   27.1    56   17.5   27.6    0.00   341    1     99.7   15 
16/07/19   2.45   20.4   20.5   20.3    73   15.4   8.0   NNW   2.01  24.1    NW   20.4   20.9   20.9   19.8   964.9  0.00   0.0     0     0.00      0     0.0  0.00   0.0   0.000   0.022   27.1    56   17.5   27.6    0.00   348    1    100.0   15 
16/07/19   3.00   20.3   20.4   20.3    72   15.1   3.2     N   0.80  17.7     N   20.3   20.7   20.7   19.6   964.9  0.00   0.0     0     0.00      0     0.0  0.00   0.0   0.000   0.021   27.0    55   17.2   27.4    0.05   347    1    100.0   15 
16/07/19   3.15   20.4   20.4   20.3    71   15.0   4.8     N   1.21  19.3   NNE   20.4   20.7   20.7   19.6   964.9  0.00   0.0     0     0.00      0     0.0  0.00   0.0   0.000   0.022   27.0    55   17.2   27.4    0.00   350    1    100.0   15 
16/07/19   3.30   20.4   20.4   20.3    73   15.4   4.8   NNE   1.21  19.3    NE   20.4   20.9   20.9   19.8   964.9  0.00   0.0     0     0.00      0     0.0  0.00   0.0   0.000   0.022   27.0    55   17.2   27.4    0.00   349    1    100.0   15 
16/07/19   3.45   20.6   20.6   20.4    72   15.3   4.8   NNW   1.21  24.1   NNW   20.6   20.9   20.9   19.8   964.9  0.00   0.0     0     0.00      0     0.0  0.00   0.0   0.000   0.023   27.0    55   17.2   27.4    0.00   348    1    100.0   15 
16/07/19   4.00   20.5   20.6   20.5    72   15.3   6.4   NNW   1.61  20.9   NNW   20.5   20.8   20.8   19.7   964.9  0.00   0.0     0     0.00      0     0.0  0.00   0.0   0.000   0.023   27.0    55   17.2   27.4    0.05   350    1    100.0   15 
16/07/19   4.15   20.6   20.6   20.4    73   15.5   6.4     N   1.61  24.1   NNW   20.6   21.0   21.0   19.9   964.9  0.00   0.0     0     0.00      0     0.0  0.00   0.0   0.000   0.023   27.0    55   17.2   27.4    0.00   352    1    100.0   15 
16/07/19   4.30   20.5   20.6   20.4    73   15.5   4.8   NNW   1.21  17.7   NNE   20.5   20.9   20.9   19.8   964.9  0.00   0.0     0     0.00      0     0.0  0.00   0.0   0.000   0.023   26.9    55   17.1   27.3    0.00   350    1    100.0   15 
16/07/19   4.45   21.1   21.1   20.3    71   15.6   6.4   NNW   1.61  24.1   NNW   21.1   21.2   21.2   20.1   964.9  0.00   0.0     0     0.00      0     0.0  0.00   0.0   0.000   0.029   26.9    56   17.4   27.4    0.00   350    1    100.0   15 
16/07/19   5.00   21.6   21.6   21.1    70   15.8  11.3     N   2.82  27.4   NNW   21.6   21.7   21.7   20.6   964.9  0.00   0.0     0     0.00      0     0.0  0.00   0.0   0.000   0.034   26.9    56   17.4   27.4    0.05   350    1    100.0   15 
16/07/19   5.15   21.5   21.6   21.4    70   15.8   9.7     N   2.41  27.4   NNE   21.5   21.7   21.7   20.6   964.9  0.00   0.0     0     0.00      0     0.0  0.00   0.0   0.000   0.033   26.8    56   17.3   27.3    0.00   349    1    100.0   15 
16/07/19   5.30   21.5   21.7   21.5    71   16.0  12.9   NNE   3.22  27.4   NNE   21.2   21.7   21.4   20.4   964.9  0.00   0.0     0     0.00      0     0.0  0.00   0.0   0.000   0.033   26.9    56   17.4   27.4    0.00   350    1    100.0   15 
16/07/19   5.45   21.6   21.6   21.4    71   16.1   8.0   NNE   2.01  29.0   NNE   21.6   21.8   21.8   20.7   964.9  0.00   0.0     0     0.00      0     0.0  0.00   0.0   0.000   0.034   26.9    57   17.7   27.5    0.00   351    1    100.0   15 
16/07/19   6.00   21.6   21.7   21.6    71   16.1  14.5   NNE   3.62  29.0     N   20.8   21.8   21.0   20.1   964.9  0.00   0.0     3     0.06      9     0.0  0.00   0.0   0.000   0.034   26.9    57   17.7   27.5    0.05   351    1    100.0   15 
16/07/19   6.15   21.7   21.7   21.6    70   16.0  16.1   NNE   4.02  30.6   NNW   20.6   21.9   20.8   20.0   964.9  0.00   0.0    14     0.30     19     0.0  0.00   0.0   0.000   0.035   26.9    57   17.7   27.5    0.00   352    1    100.0   15 
16/07/19   6.30   21.7   21.7   21.6    71   16.2  12.9   NNE   3.22  24.1   NNE   21.4   21.9   21.7   21.0   964.9  0.00   0.0    25     0.54     30     0.0  0.00   0.0   0.000   0.035   26.9    57   17.7   27.5    0.00   350    1    100.0   15 
16/07/19   6.45   22.1   22.1   21.7    69   16.1  11.3     N   2.82  29.0   NNE   22.1   22.3   22.3   21.9   964.9  0.00   0.0    48     1.03     62     0.0  0.00   0.0   0.000   0.039   26.7    57   17.4   27.2    0.00   350    1    100.0   15 
16/07/19   7.00   22.3   22.3   22.1    69   16.3   9.7     N   2.41  25.7   NNE   22.3   22.7   22.7   23.8   964.9  0.00   0.0    80     1.72     97     0.0  0.00   0.0   0.000   0.041   26.4    57   17.2   26.9    0.08   351    1    100.0   15 
16/07/19   7.15   22.4   22.4   22.3    68   16.2  12.9   NNE   3.22  32.2   NNE   22.2   22.8   22.6   24.5   964.9  0.00   0.0   121     2.60    144     0.0  0.00   0.0   0.000   0.043   26.3    57   17.1   26.8    0.00   350    1    100.0   15 
16/07/19   7.30   22.6   22.6   22.4    67   16.2  14.5     N   3.62  29.0   NNW   21.8   23.0   22.2   24.8   964.9  0.00   0.0   168     3.61    190     0.0  0.00   0.0   0.000   0.045   26.4    57   17.2   26.9    0.00   351    1    100.0   15 
16/07/19   7.45   22.8   22.8   22.6    67   16.3  12.9     N   3.22  30.6    NE   22.5   23.3   23.0   26.6   964.9  0.00   0.0   221     4.75    250     0.0  0.00   0.0   0.000   0.046   26.4    57   17.2   26.9    0.00   351    1    100.0   15 
16/07/19   8.00   22.8   22.9   22.8    67   16.4  17.7     N   4.43  37.0     N   21.4   23.3   21.9   25.7   964.9  0.00   0.0   278     5.98    299     0.0  0.00   0.0   0.000   0.047   26.3    57   17.1   26.8    0.18   351    1    100.0   15 
16/07/19   8.15   23.1   23.1   22.8    66   16.4  16.1     N   4.02  37.0     N   21.9   23.6   22.5   26.8   964.9  0.00   0.0   322     6.92    341     0.0  0.00   0.0   0.000   0.049   26.3    57   17.1   26.8    0.00   350    1    100.0   15 
16/07/19   8.30   23.1   23.1   22.9    64   15.9  20.9   NNE   5.23  40.2   NNE   21.3   23.6   21.8   25.9   964.9  0.00   0.0   365     7.85    387     0.0  0.00   0.0   0.000   0.050   26.3    56   16.9   26.7    0.00   344    1    100.0   15 
16/07/19   8.45   23.6   23.6   23.1    65   16.6  14.5   NNE   3.62  32.2    NE   22.9   24.3   23.6   28.6   964.9  0.00   0.0   411     8.84    431     0.0  0.00   0.0   0.000   0.055   26.3    57   17.1   26.8    0.00   349    1    100.0   15 
16/07/19   9.00   23.6   23.6   23.4    64   16.3  17.7     N   4.43  33.8     N   22.2   24.2   22.8   27.6   964.9  0.00   0.0   450     9.68    468     0.0  0.00   0.0   0.000   0.054   26.3    57   17.1   26.8    0.33   346    1    100.0   15 
16/07/19   9.15   23.7   23.7   23.4    64   16.5  19.3     N   4.83  41.8     N   22.1   24.3   22.8   27.5   964.9  0.00   0.0   488    10.49    508     0.0  0.00   0.0   0.000   0.056   26.4    57   17.2   26.9    0.00   346    1    100.0   15 
16/07/19   9.30   24.0   24.0   23.7    64   16.8  16.1     N   4.02  35.4     N   22.9   24.7   23.6   28.8   964.9  0.00   0.0   532    11.44    554     0.0  0.00   0.0   0.000   0.059   26.6    58   17.6   27.1    0.00   352    1    100.0   15 
16/07/19   9.45   24.1   24.1   23.9    62   16.4  19.3   NNE   4.83  41.8     N   22.6   24.7   23.1   28.1   964.9  0.00   0.0   574    12.34    594     0.0  0.00   0.0   0.000   0.060   26.7    56   17.2   27.1    0.00   350    1    100.0   15 
16/07/19  10.00   24.2   24.3   24.1    61   16.2  17.7   NNE   4.43  37.0   NNE   22.9   24.7   23.4   28.6   964.9  0.00   0.0   613    13.18    631     0.1  0.01   0.5   0.000   0.061   26.7    56   17.2   27.1    0.43   350    1    100.0   15 
16/07/19  10.15   24.4   24.6   24.2    59   15.9  17.7     N   4.43  33.8   NNW   23.2   24.8   23.5   28.7   964.9  0.00   0.0   653    14.04    671     0.7  0.07   0.9   0.000   0.064   26.8    56   17.3   27.3    0.00   350    1    100.0   15 
16/07/19  10.30   24.4   24.7   24.3    60   16.2  19.3     N   4.83  40.2    NE   22.9   24.8   23.3   28.4   964.9  0.00   0.0   687    14.77    701     1.1  0.12   1.3   0.000   0.064   27.0    56   17.5   27.6    0.00   343    1    100.0   15 
16/07/19  10.45   24.8   25.1   24.4    60   16.5  16.1   NNW   4.02  35.4    NE   23.8   25.3   24.2   29.7   964.9  0.00   0.0   719    15.46    737     1.5  0.16   1.7   0.000   0.068   27.2    56   17.6   27.7    0.00   352    1    100.0   15 
16/07/19  11.00   24.9   25.0   24.6    58   16.1  20.9   NNW   5.23  38.6   NNW   23.3   25.2   23.6   28.6   964.9  0.00   0.0   752    16.17    766     1.9  0.20   2.1   0.000   0.068   27.4    57   18.1   28.2    0.56   349    1    100.0   15 
16/07/19  11.15   25.2   25.8   24.8    58   16.3  19.3   NNW   4.83  43.5   NNE   23.7   25.5   24.1   29.2   964.9  0.00   0.0   785    16.88    802     2.3  0.25   2.5   0.000   0.071   27.7    55   17.9   28.5    0.00   342    1    100.0   15 
16/07/19  11.30   25.7   25.7   25.2    57   16.5  17.7     N   4.43  35.4   NNE   24.4   26.1   24.8   30.2   964.9  0.00   0.0   814    17.50    826     2.8  0.30   2.9   0.000   0.076   28.0    54   17.8   28.8    0.00   344    1    100.0   15 
16/07/19  11.45   25.7   26.1   25.3    55   16.0  19.3     N   4.83  38.6     N   24.3   26.0   24.6   29.8   964.9  0.00   0.0   839    18.04    849     3.1  0.33   3.3   0.000   0.077   27.9    54   17.7   28.6    0.00   339    1     99.1   15 
16/07/19  12.00   25.9   26.0   25.6    57   16.7  16.1   NNW   4.02  35.4    NW   24.9   26.3   25.3   30.9   964.9  0.00   0.0   858    18.45    863     3.4  0.36   3.5   0.000   0.079   28.0    53   17.5   28.7    0.63   342    1    100.0   15 
© www.elbaexplorer.com